<?xml version="1.0" encoding="UTF-8" standalone="no" ?>
<gpx xmlns="http://www.topografix.com/GPX/1/1" xmlns:xsi="http://www.w3.org/2001/XMLSchema-instance" xsi:schemaLocation="http://www.topografix.com/GPX/1/1 http://www.topografix.com/GPX/1/1/gpx.xsd" version="1.1" creator="VisuGPX - https://www.visugpx.com">
  <metadata>
    <name>Puyloubier vers montagne des Ubacs</name>
    <desc><![CDATA[Parcours facile, roulant et tres peu technique. Montée régulières et sans difficultés]]></desc>
  </metadata>
  <trk>
    <name><![CDATA[20180916213134-pLpUd]]></name>
    <trkseg>
      <trkpt lat="43.5288" lon="5.69315">
        <ele>375.35</ele>
        <time>2018-09-15T06:35:35Z</time>
      </trkpt>
      <trkpt lat="43.52887" lon="5.69342">
        <ele>376.84</ele>
        <time>2018-09-15T06:35:44Z</time>
      </trkpt>
      <trkpt lat="43.52885" lon="5.69367">
        <ele>378.61</ele>
        <time>2018-09-15T06:35:55Z</time>
      </trkpt>
      <trkpt lat="43.5289" lon="5.69391">
        <ele>377.99</ele>
        <time>2018-09-15T06:36:04Z</time>
      </trkpt>
      <trkpt lat="43.52895" lon="5.69416">
        <ele>381.05</ele>
        <time>2018-09-15T06:36:18Z</time>
      </trkpt>
      <trkpt lat="43.52904" lon="5.69439">
        <ele>383.22</ele>
        <time>2018-09-15T06:36:28Z</time>
      </trkpt>
      <trkpt lat="43.52917" lon="5.69457">
        <ele>384.51</ele>
        <time>2018-09-15T06:36:42Z</time>
      </trkpt>
      <trkpt lat="43.52935" lon="5.69472">
        <ele>384.35</ele>
        <time>2018-09-15T06:37:00Z</time>
      </trkpt>
      <trkpt lat="43.52954" lon="5.69479">
        <ele>391.66</ele>
        <time>2018-09-15T06:37:14Z</time>
      </trkpt>
      <trkpt lat="43.52971" lon="5.69467">
        <ele>396.45</ele>
        <time>2018-09-15T06:37:30Z</time>
      </trkpt>
      <trkpt lat="43.52988" lon="5.69458">
        <ele>396.88</ele>
        <time>2018-09-15T06:37:45Z</time>
      </trkpt>
      <trkpt lat="43.53006" lon="5.69454">
        <ele>401.03</ele>
        <time>2018-09-15T06:38:01Z</time>
      </trkpt>
      <trkpt lat="43.53024" lon="5.69443">
        <ele>400.24</ele>
        <time>2018-09-15T06:38:15Z</time>
      </trkpt>
      <trkpt lat="43.53039" lon="5.6943">
        <ele>404.23</ele>
        <time>2018-09-15T06:38:30Z</time>
      </trkpt>
      <trkpt lat="43.53054" lon="5.69446">
        <ele>403.87</ele>
        <time>2018-09-15T06:38:49Z</time>
      </trkpt>
      <trkpt lat="43.53054" lon="5.69477">
        <ele>399.77</ele>
        <time>2018-09-15T06:39:13Z</time>
      </trkpt>
      <trkpt lat="43.53049" lon="5.69501">
        <ele>405.22</ele>
        <time>2018-09-15T06:39:22Z</time>
      </trkpt>
      <trkpt lat="43.53059" lon="5.69538">
        <ele>407.77</ele>
        <time>2018-09-15T06:39:45Z</time>
      </trkpt>
      <trkpt lat="43.53062" lon="5.69565">
        <ele>409.8</ele>
        <time>2018-09-15T06:39:53Z</time>
      </trkpt>
      <trkpt lat="43.5307" lon="5.69616">
        <ele>413.81</ele>
        <time>2018-09-15T06:41:27Z</time>
      </trkpt>
      <trkpt lat="43.53081" lon="5.69637">
        <ele>415.08</ele>
        <time>2018-09-15T06:41:35Z</time>
      </trkpt>
      <trkpt lat="43.53083" lon="5.69661">
        <ele>416.32</ele>
        <time>2018-09-15T06:41:42Z</time>
      </trkpt>
      <trkpt lat="43.53092" lon="5.69694">
        <ele>419.65</ele>
        <time>2018-09-15T06:41:57Z</time>
      </trkpt>
      <trkpt lat="43.53098" lon="5.69718">
        <ele>419.7</ele>
        <time>2018-09-15T06:42:08Z</time>
      </trkpt>
      <trkpt lat="43.53117" lon="5.69725">
        <ele>417.78</ele>
        <time>2018-09-15T06:42:24Z</time>
      </trkpt>
      <trkpt lat="43.53134" lon="5.69734">
        <ele>424.06</ele>
        <time>2018-09-15T06:42:37Z</time>
      </trkpt>
      <trkpt lat="43.53152" lon="5.69738">
        <ele>424.73</ele>
        <time>2018-09-15T06:42:47Z</time>
      </trkpt>
      <trkpt lat="43.53168" lon="5.69752">
        <ele>424.5</ele>
        <time>2018-09-15T06:43:04Z</time>
      </trkpt>
      <trkpt lat="43.5316" lon="5.69779">
        <ele>428.02</ele>
        <time>2018-09-15T06:43:16Z</time>
      </trkpt>
      <trkpt lat="43.5315" lon="5.69801">
        <ele>429.75</ele>
        <time>2018-09-15T06:43:29Z</time>
      </trkpt>
      <trkpt lat="43.53145" lon="5.69825">
        <ele>431.44</ele>
        <time>2018-09-15T06:43:41Z</time>
      </trkpt>
      <trkpt lat="43.5315" lon="5.69851">
        <ele>432.86</ele>
        <time>2018-09-15T06:43:56Z</time>
      </trkpt>
      <trkpt lat="43.53163" lon="5.6987">
        <ele>434</ele>
        <time>2018-09-15T06:44:09Z</time>
      </trkpt>
      <trkpt lat="43.53179" lon="5.69885">
        <ele>432.85</ele>
        <time>2018-09-15T06:44:23Z</time>
      </trkpt>
      <trkpt lat="43.53194" lon="5.699">
        <ele>435.46</ele>
        <time>2018-09-15T06:44:37Z</time>
      </trkpt>
      <trkpt lat="43.53211" lon="5.69915">
        <ele>438.92</ele>
        <time>2018-09-15T06:44:49Z</time>
      </trkpt>
      <trkpt lat="43.53228" lon="5.69924">
        <ele>438.31</ele>
        <time>2018-09-15T06:44:58Z</time>
      </trkpt>
      <trkpt lat="43.53226" lon="5.6995">
        <ele>442.89</ele>
        <time>2018-09-15T06:45:10Z</time>
      </trkpt>
      <trkpt lat="43.53215" lon="5.69973">
        <ele>441.35</ele>
        <time>2018-09-15T06:45:20Z</time>
      </trkpt>
      <trkpt lat="43.532" lon="5.6999">
        <ele>443.78</ele>
        <time>2018-09-15T06:45:30Z</time>
      </trkpt>
      <trkpt lat="43.53196" lon="5.70016">
        <ele>444.3</ele>
        <time>2018-09-15T06:45:41Z</time>
      </trkpt>
      <trkpt lat="43.53199" lon="5.70041">
        <ele>447.4</ele>
        <time>2018-09-15T06:45:50Z</time>
      </trkpt>
      <trkpt lat="43.53201" lon="5.70067">
        <ele>447.51</ele>
        <time>2018-09-15T06:46:06Z</time>
      </trkpt>
      <trkpt lat="43.53205" lon="5.70092">
        <ele>450.22</ele>
        <time>2018-09-15T06:46:16Z</time>
      </trkpt>
      <trkpt lat="43.53211" lon="5.70116">
        <ele>451.54</ele>
        <time>2018-09-15T06:46:28Z</time>
      </trkpt>
      <trkpt lat="43.53216" lon="5.70145">
        <ele>450.99</ele>
        <time>2018-09-15T06:46:41Z</time>
      </trkpt>
      <trkpt lat="43.53218" lon="5.70172">
        <ele>457.72</ele>
        <time>2018-09-15T06:46:55Z</time>
      </trkpt>
      <trkpt lat="43.53227" lon="5.70195">
        <ele>458.1</ele>
        <time>2018-09-15T06:47:07Z</time>
      </trkpt>
      <trkpt lat="43.5323" lon="5.7022">
        <ele>460.18</ele>
        <time>2018-09-15T06:47:17Z</time>
      </trkpt>
      <trkpt lat="43.53242" lon="5.7024">
        <ele>465.84</ele>
        <time>2018-09-15T06:47:28Z</time>
      </trkpt>
      <trkpt lat="43.5326" lon="5.70244">
        <ele>467.12</ele>
        <time>2018-09-15T06:47:39Z</time>
      </trkpt>
      <trkpt lat="43.53267" lon="5.70267">
        <ele>465.34</ele>
        <time>2018-09-15T06:47:50Z</time>
      </trkpt>
      <trkpt lat="43.53265" lon="5.70295">
        <ele>464.09</ele>
        <time>2018-09-15T06:48:01Z</time>
      </trkpt>
      <trkpt lat="43.53272" lon="5.70327">
        <ele>461.66</ele>
        <time>2018-09-15T06:48:17Z</time>
      </trkpt>
      <trkpt lat="43.53271" lon="5.70352">
        <ele>461.44</ele>
        <time>2018-09-15T06:48:28Z</time>
      </trkpt>
      <trkpt lat="43.53276" lon="5.70376">
        <ele>463.24</ele>
        <time>2018-09-15T06:48:39Z</time>
      </trkpt>
      <trkpt lat="43.53284" lon="5.70399">
        <ele>463.54</ele>
        <time>2018-09-15T06:48:49Z</time>
      </trkpt>
      <trkpt lat="43.53292" lon="5.70424">
        <ele>464.92</ele>
        <time>2018-09-15T06:48:56Z</time>
      </trkpt>
      <trkpt lat="43.53302" lon="5.70446">
        <ele>465.05</ele>
        <time>2018-09-15T06:49:03Z</time>
      </trkpt>
      <trkpt lat="43.53311" lon="5.70491">
        <ele>466.69</ele>
        <time>2018-09-15T06:49:18Z</time>
      </trkpt>
      <trkpt lat="43.53514" lon="5.71">
        <ele>476.81</ele>
        <time>2018-09-15T06:51:37Z</time>
      </trkpt>
      <trkpt lat="43.53676" lon="5.71321">
        <ele>481.18</ele>
        <time>2018-09-15T06:53:08Z</time>
      </trkpt>
      <trkpt lat="43.53688" lon="5.71345">
        <ele>485.79</ele>
        <time>2018-09-15T06:53:15Z</time>
      </trkpt>
      <trkpt lat="43.53698" lon="5.71369">
        <ele>487.35</ele>
        <time>2018-09-15T06:53:22Z</time>
      </trkpt>
      <trkpt lat="43.53709" lon="5.71393">
        <ele>490.54</ele>
        <time>2018-09-15T06:53:30Z</time>
      </trkpt>
      <trkpt lat="43.53727" lon="5.71405">
        <ele>491.89</ele>
        <time>2018-09-15T06:53:36Z</time>
      </trkpt>
      <trkpt lat="43.53741" lon="5.71428">
        <ele>488.21</ele>
        <time>2018-09-15T06:53:45Z</time>
      </trkpt>
      <trkpt lat="43.53756" lon="5.71444">
        <ele>487.16</ele>
        <time>2018-09-15T06:53:55Z</time>
      </trkpt>
      <trkpt lat="43.53757" lon="5.7147">
        <ele>487.99</ele>
        <time>2018-09-15T06:54:05Z</time>
      </trkpt>
      <trkpt lat="43.53748" lon="5.71493">
        <ele>489.2</ele>
        <time>2018-09-15T06:54:15Z</time>
      </trkpt>
      <trkpt lat="43.53738" lon="5.71514">
        <ele>489.22</ele>
        <time>2018-09-15T06:54:23Z</time>
      </trkpt>
      <trkpt lat="43.53723" lon="5.71532">
        <ele>491.7</ele>
        <time>2018-09-15T06:54:30Z</time>
      </trkpt>
      <trkpt lat="43.53721" lon="5.71558">
        <ele>492.28</ele>
        <time>2018-09-15T06:54:38Z</time>
      </trkpt>
      <trkpt lat="43.53739" lon="5.71568">
        <ele>490.23</ele>
        <time>2018-09-15T06:54:51Z</time>
      </trkpt>
      <trkpt lat="43.53757" lon="5.71567">
        <ele>494.43</ele>
        <time>2018-09-15T06:55:01Z</time>
      </trkpt>
      <trkpt lat="43.53776" lon="5.71563">
        <ele>495.87</ele>
        <time>2018-09-15T06:55:13Z</time>
      </trkpt>
      <trkpt lat="43.53796" lon="5.7156">
        <ele>495.17</ele>
        <time>2018-09-15T06:55:23Z</time>
      </trkpt>
      <trkpt lat="43.53815" lon="5.71555">
        <ele>495.9</ele>
        <time>2018-09-15T06:55:33Z</time>
      </trkpt>
      <trkpt lat="43.53834" lon="5.71552">
        <ele>496.51</ele>
        <time>2018-09-15T06:55:45Z</time>
      </trkpt>
      <trkpt lat="43.53854" lon="5.71545">
        <ele>497.56</ele>
        <time>2018-09-15T06:55:58Z</time>
      </trkpt>
      <trkpt lat="43.53873" lon="5.71545">
        <ele>499.92</ele>
        <time>2018-09-15T06:56:07Z</time>
      </trkpt>
      <trkpt lat="43.53891" lon="5.71545">
        <ele>501.47</ele>
        <time>2018-09-15T06:56:17Z</time>
      </trkpt>
      <trkpt lat="43.53909" lon="5.71541">
        <ele>503.07</ele>
        <time>2018-09-15T06:56:28Z</time>
      </trkpt>
      <trkpt lat="43.5393" lon="5.7154">
        <ele>507.48</ele>
        <time>2018-09-15T06:56:40Z</time>
      </trkpt>
      <trkpt lat="43.53947" lon="5.71536">
        <ele>509.85</ele>
        <time>2018-09-15T06:56:50Z</time>
      </trkpt>
      <trkpt lat="43.53966" lon="5.71538">
        <ele>512.97</ele>
        <time>2018-09-15T06:57:01Z</time>
      </trkpt>
      <trkpt lat="43.53985" lon="5.71533">
        <ele>511.96</ele>
        <time>2018-09-15T06:57:09Z</time>
      </trkpt>
      <trkpt lat="43.53999" lon="5.71517">
        <ele>511.9</ele>
        <time>2018-09-15T06:57:16Z</time>
      </trkpt>
      <trkpt lat="43.54017" lon="5.71504">
        <ele>509.05</ele>
        <time>2018-09-15T06:57:24Z</time>
      </trkpt>
      <trkpt lat="43.54031" lon="5.71489">
        <ele>511.28</ele>
        <time>2018-09-15T06:57:32Z</time>
      </trkpt>
      <trkpt lat="43.54046" lon="5.71473">
        <ele>508.94</ele>
        <time>2018-09-15T06:57:40Z</time>
      </trkpt>
      <trkpt lat="43.54063" lon="5.71459">
        <ele>509.6</ele>
        <time>2018-09-15T06:57:47Z</time>
      </trkpt>
      <trkpt lat="43.5408" lon="5.71442">
        <ele>508.16</ele>
        <time>2018-09-15T06:57:53Z</time>
      </trkpt>
      <trkpt lat="43.54096" lon="5.71426">
        <ele>509.71</ele>
        <time>2018-09-15T06:57:59Z</time>
      </trkpt>
      <trkpt lat="43.54112" lon="5.71409">
        <ele>508.65</ele>
        <time>2018-09-15T06:58:03Z</time>
      </trkpt>
      <trkpt lat="43.54126" lon="5.71388">
        <ele>510.29</ele>
        <time>2018-09-15T06:58:08Z</time>
      </trkpt>
      <trkpt lat="43.54142" lon="5.71372">
        <ele>511.11</ele>
        <time>2018-09-15T06:58:12Z</time>
      </trkpt>
      <trkpt lat="43.54157" lon="5.71352">
        <ele>510.54</ele>
        <time>2018-09-15T06:58:16Z</time>
      </trkpt>
      <trkpt lat="43.54171" lon="5.71329">
        <ele>509.54</ele>
        <time>2018-09-15T06:58:20Z</time>
      </trkpt>
      <trkpt lat="43.54187" lon="5.71306">
        <ele>508.56</ele>
        <time>2018-09-15T06:58:24Z</time>
      </trkpt>
      <trkpt lat="43.542" lon="5.71284">
        <ele>506.15</ele>
        <time>2018-09-15T06:58:27Z</time>
      </trkpt>
      <trkpt lat="43.54212" lon="5.71259">
        <ele>503.93</ele>
        <time>2018-09-15T06:58:30Z</time>
      </trkpt>
      <trkpt lat="43.54225" lon="5.71239">
        <ele>503.15</ele>
        <time>2018-09-15T06:58:33Z</time>
      </trkpt>
      <trkpt lat="43.54238" lon="5.71213">
        <ele>503.08</ele>
        <time>2018-09-15T06:58:36Z</time>
      </trkpt>
      <trkpt lat="43.54251" lon="5.71188">
        <ele>498.69</ele>
        <time>2018-09-15T06:58:39Z</time>
      </trkpt>
      <trkpt lat="43.54265" lon="5.71165">
        <ele>495.72</ele>
        <time>2018-09-15T06:58:42Z</time>
      </trkpt>
      <trkpt lat="43.5428" lon="5.71144">
        <ele>494.17</ele>
        <time>2018-09-15T06:58:45Z</time>
      </trkpt>
      <trkpt lat="43.54294" lon="5.71119">
        <ele>493.12</ele>
        <time>2018-09-15T06:58:48Z</time>
      </trkpt>
      <trkpt lat="43.54307" lon="5.71097">
        <ele>492.52</ele>
        <time>2018-09-15T06:58:51Z</time>
      </trkpt>
      <trkpt lat="43.5432" lon="5.71072">
        <ele>491.36</ele>
        <time>2018-09-15T06:58:54Z</time>
      </trkpt>
      <trkpt lat="43.54337" lon="5.7105">
        <ele>490.05</ele>
        <time>2018-09-15T06:58:58Z</time>
      </trkpt>
      <trkpt lat="43.54352" lon="5.71035">
        <ele>490.62</ele>
        <time>2018-09-15T06:59:02Z</time>
      </trkpt>
      <trkpt lat="43.54362" lon="5.71014">
        <ele>488.82</ele>
        <time>2018-09-15T06:59:07Z</time>
      </trkpt>
      <trkpt lat="43.54375" lon="5.70994">
        <ele>488.09</ele>
        <time>2018-09-15T06:59:12Z</time>
      </trkpt>
      <trkpt lat="43.5439" lon="5.70975">
        <ele>488.7</ele>
        <time>2018-09-15T06:59:17Z</time>
      </trkpt>
      <trkpt lat="43.54402" lon="5.70956">
        <ele>488.86</ele>
        <time>2018-09-15T06:59:22Z</time>
      </trkpt>
      <trkpt lat="43.54416" lon="5.70937">
        <ele>487.5</ele>
        <time>2018-09-15T06:59:27Z</time>
      </trkpt>
      <trkpt lat="43.5443" lon="5.70917">
        <ele>488</ele>
        <time>2018-09-15T06:59:32Z</time>
      </trkpt>
      <trkpt lat="43.54442" lon="5.70893">
        <ele>487.22</ele>
        <time>2018-09-15T06:59:37Z</time>
      </trkpt>
      <trkpt lat="43.54454" lon="5.70871">
        <ele>488.9</ele>
        <time>2018-09-15T06:59:42Z</time>
      </trkpt>
      <trkpt lat="43.54466" lon="5.70849">
        <ele>491.22</ele>
        <time>2018-09-15T06:59:47Z</time>
      </trkpt>
      <trkpt lat="43.54477" lon="5.70829">
        <ele>491.51</ele>
        <time>2018-09-15T06:59:52Z</time>
      </trkpt>
      <trkpt lat="43.54488" lon="5.70808">
        <ele>489.95</ele>
        <time>2018-09-15T06:59:56Z</time>
      </trkpt>
      <trkpt lat="43.54504" lon="5.70791">
        <ele>491.04</ele>
        <time>2018-09-15T07:00:01Z</time>
      </trkpt>
      <trkpt lat="43.54519" lon="5.70773">
        <ele>489.22</ele>
        <time>2018-09-15T07:00:06Z</time>
      </trkpt>
      <trkpt lat="43.54532" lon="5.70756">
        <ele>489.17</ele>
        <time>2018-09-15T07:00:13Z</time>
      </trkpt>
      <trkpt lat="43.54544" lon="5.70734">
        <ele>489.16</ele>
        <time>2018-09-15T07:00:21Z</time>
      </trkpt>
      <trkpt lat="43.54556" lon="5.70711">
        <ele>489.14</ele>
        <time>2018-09-15T07:00:28Z</time>
      </trkpt>
      <trkpt lat="43.54566" lon="5.70688">
        <ele>488.37</ele>
        <time>2018-09-15T07:00:35Z</time>
      </trkpt>
      <trkpt lat="43.54581" lon="5.70671">
        <ele>488.3</ele>
        <time>2018-09-15T07:00:43Z</time>
      </trkpt>
      <trkpt lat="43.54589" lon="5.70647">
        <ele>491.91</ele>
        <time>2018-09-15T07:00:50Z</time>
      </trkpt>
      <trkpt lat="43.54602" lon="5.70628">
        <ele>495.55</ele>
        <time>2018-09-15T07:00:57Z</time>
      </trkpt>
      <trkpt lat="43.54618" lon="5.70612">
        <ele>497.11</ele>
        <time>2018-09-15T07:01:04Z</time>
      </trkpt>
      <trkpt lat="43.54629" lon="5.70589">
        <ele>498.1</ele>
        <time>2018-09-15T07:01:12Z</time>
      </trkpt>
      <trkpt lat="43.54641" lon="5.7057">
        <ele>500.94</ele>
        <time>2018-09-15T07:01:20Z</time>
      </trkpt>
      <trkpt lat="43.54656" lon="5.70554">
        <ele>501.9</ele>
        <time>2018-09-15T07:01:30Z</time>
      </trkpt>
      <trkpt lat="43.54676" lon="5.70553">
        <ele>498.58</ele>
        <time>2018-09-15T07:05:22Z</time>
      </trkpt>
      <trkpt lat="43.54694" lon="5.70561">
        <ele>496.1</ele>
        <time>2018-09-15T07:05:30Z</time>
      </trkpt>
      <trkpt lat="43.54715" lon="5.70566">
        <ele>496.15</ele>
        <time>2018-09-15T07:05:40Z</time>
      </trkpt>
      <trkpt lat="43.54733" lon="5.70574">
        <ele>498.68</ele>
        <time>2018-09-15T07:05:47Z</time>
      </trkpt>
      <trkpt lat="43.54753" lon="5.70578">
        <ele>499.35</ele>
        <time>2018-09-15T07:05:55Z</time>
      </trkpt>
      <trkpt lat="43.54771" lon="5.70581">
        <ele>501.28</ele>
        <time>2018-09-15T07:06:03Z</time>
      </trkpt>
      <trkpt lat="43.54789" lon="5.70587">
        <ele>500.46</ele>
        <time>2018-09-15T07:06:10Z</time>
      </trkpt>
      <trkpt lat="43.5481" lon="5.70591">
        <ele>501.32</ele>
        <time>2018-09-15T07:06:18Z</time>
      </trkpt>
      <trkpt lat="43.5483" lon="5.70595">
        <ele>500.46</ele>
        <time>2018-09-15T07:06:25Z</time>
      </trkpt>
      <trkpt lat="43.54849" lon="5.70593">
        <ele>498.76</ele>
        <time>2018-09-15T07:06:31Z</time>
      </trkpt>
      <trkpt lat="43.5487" lon="5.70593">
        <ele>498.37</ele>
        <time>2018-09-15T07:06:38Z</time>
      </trkpt>
      <trkpt lat="43.54889" lon="5.70588">
        <ele>497.93</ele>
        <time>2018-09-15T07:06:43Z</time>
      </trkpt>
      <trkpt lat="43.5491" lon="5.70589">
        <ele>496.47</ele>
        <time>2018-09-15T07:06:50Z</time>
      </trkpt>
      <trkpt lat="43.54931" lon="5.70589">
        <ele>497.86</ele>
        <time>2018-09-15T07:06:58Z</time>
      </trkpt>
      <trkpt lat="43.54951" lon="5.70592">
        <ele>499.79</ele>
        <time>2018-09-15T07:07:08Z</time>
      </trkpt>
      <trkpt lat="43.5497" lon="5.706">
        <ele>499.38</ele>
        <time>2018-09-15T07:07:15Z</time>
      </trkpt>
      <trkpt lat="43.5499" lon="5.706">
        <ele>502.44</ele>
        <time>2018-09-15T07:07:24Z</time>
      </trkpt>
      <trkpt lat="43.55008" lon="5.706">
        <ele>503.78</ele>
        <time>2018-09-15T07:07:31Z</time>
      </trkpt>
      <trkpt lat="43.55029" lon="5.70608">
        <ele>504.57</ele>
        <time>2018-09-15T07:07:40Z</time>
      </trkpt>
      <trkpt lat="43.55047" lon="5.70605">
        <ele>504.15</ele>
        <time>2018-09-15T07:07:47Z</time>
      </trkpt>
      <trkpt lat="43.55065" lon="5.70614">
        <ele>499.23</ele>
        <time>2018-09-15T07:07:54Z</time>
      </trkpt>
      <trkpt lat="43.55084" lon="5.70614">
        <ele>498.93</ele>
        <time>2018-09-15T07:07:59Z</time>
      </trkpt>
      <trkpt lat="43.55101" lon="5.70622">
        <ele>499.94</ele>
        <time>2018-09-15T07:08:05Z</time>
      </trkpt>
      <trkpt lat="43.5512" lon="5.70628">
        <ele>499.47</ele>
        <time>2018-09-15T07:08:11Z</time>
      </trkpt>
      <trkpt lat="43.55139" lon="5.70633">
        <ele>498.7</ele>
        <time>2018-09-15T07:08:16Z</time>
      </trkpt>
      <trkpt lat="43.55159" lon="5.70638">
        <ele>498.67</ele>
        <time>2018-09-15T07:08:23Z</time>
      </trkpt>
      <trkpt lat="43.55177" lon="5.70642">
        <ele>498.45</ele>
        <time>2018-09-15T07:08:29Z</time>
      </trkpt>
      <trkpt lat="43.55196" lon="5.70645">
        <ele>497.65</ele>
        <time>2018-09-15T07:08:36Z</time>
      </trkpt>
      <trkpt lat="43.55215" lon="5.70651">
        <ele>495.83</ele>
        <time>2018-09-15T07:08:43Z</time>
      </trkpt>
      <trkpt lat="43.55233" lon="5.70654">
        <ele>497.61</ele>
        <time>2018-09-15T07:08:50Z</time>
      </trkpt>
      <trkpt lat="43.55254" lon="5.70657">
        <ele>500.83</ele>
        <time>2018-09-15T07:08:58Z</time>
      </trkpt>
      <trkpt lat="43.55272" lon="5.70656">
        <ele>499.84</ele>
        <time>2018-09-15T07:09:04Z</time>
      </trkpt>
      <trkpt lat="43.55292" lon="5.70663">
        <ele>502.2</ele>
        <time>2018-09-15T07:09:12Z</time>
      </trkpt>
      <trkpt lat="43.55311" lon="5.70665">
        <ele>501.55</ele>
        <time>2018-09-15T07:09:19Z</time>
      </trkpt>
      <trkpt lat="43.55329" lon="5.70666">
        <ele>505.41</ele>
        <time>2018-09-15T07:09:25Z</time>
      </trkpt>
      <trkpt lat="43.55348" lon="5.70665">
        <ele>505.49</ele>
        <time>2018-09-15T07:09:31Z</time>
      </trkpt>
      <trkpt lat="43.55367" lon="5.70667">
        <ele>504.5</ele>
        <time>2018-09-15T07:09:37Z</time>
      </trkpt>
      <trkpt lat="43.55387" lon="5.70661">
        <ele>505.51</ele>
        <time>2018-09-15T07:09:45Z</time>
      </trkpt>
      <trkpt lat="43.55406" lon="5.70656">
        <ele>505</ele>
        <time>2018-09-15T07:09:51Z</time>
      </trkpt>
      <trkpt lat="43.55426" lon="5.70651">
        <ele>502.82</ele>
        <time>2018-09-15T07:09:58Z</time>
      </trkpt>
      <trkpt lat="43.55443" lon="5.70642">
        <ele>503.22</ele>
        <time>2018-09-15T07:10:04Z</time>
      </trkpt>
      <trkpt lat="43.55461" lon="5.70634">
        <ele>504.41</ele>
        <time>2018-09-15T07:10:09Z</time>
      </trkpt>
      <trkpt lat="43.5548" lon="5.70619">
        <ele>503.96</ele>
        <time>2018-09-15T07:10:15Z</time>
      </trkpt>
      <trkpt lat="43.55499" lon="5.70616">
        <ele>506.13</ele>
        <time>2018-09-15T07:10:20Z</time>
      </trkpt>
      <trkpt lat="43.55517" lon="5.7061">
        <ele>503.99</ele>
        <time>2018-09-15T07:10:26Z</time>
      </trkpt>
      <trkpt lat="43.55536" lon="5.70603">
        <ele>502.65</ele>
        <time>2018-09-15T07:10:34Z</time>
      </trkpt>
      <trkpt lat="43.55555" lon="5.70598">
        <ele>501.83</ele>
        <time>2018-09-15T07:10:41Z</time>
      </trkpt>
      <trkpt lat="43.55573" lon="5.70593">
        <ele>501.65</ele>
        <time>2018-09-15T07:10:48Z</time>
      </trkpt>
      <trkpt lat="43.55591" lon="5.7058">
        <ele>500.05</ele>
        <time>2018-09-15T07:10:56Z</time>
      </trkpt>
      <trkpt lat="43.55607" lon="5.70566">
        <ele>497.92</ele>
        <time>2018-09-15T07:11:04Z</time>
      </trkpt>
      <trkpt lat="43.55625" lon="5.70555">
        <ele>499.75</ele>
        <time>2018-09-15T07:11:14Z</time>
      </trkpt>
      <trkpt lat="43.55628" lon="5.70529">
        <ele>499.23</ele>
        <time>2018-09-15T07:13:24Z</time>
      </trkpt>
      <trkpt lat="43.55629" lon="5.70503">
        <ele>500.63</ele>
        <time>2018-09-15T07:13:28Z</time>
      </trkpt>
      <trkpt lat="43.55627" lon="5.70472">
        <ele>500.18</ele>
        <time>2018-09-15T07:13:32Z</time>
      </trkpt>
      <trkpt lat="43.5563" lon="5.70446">
        <ele>501.34</ele>
        <time>2018-09-15T07:13:37Z</time>
      </trkpt>
      <trkpt lat="43.5563" lon="5.70418">
        <ele>504.12</ele>
        <time>2018-09-15T07:13:44Z</time>
      </trkpt>
      <trkpt lat="43.55629" lon="5.70392">
        <ele>505.9</ele>
        <time>2018-09-15T07:13:51Z</time>
      </trkpt>
      <trkpt lat="43.55626" lon="5.70367">
        <ele>506.63</ele>
        <time>2018-09-15T07:13:59Z</time>
      </trkpt>
      <trkpt lat="43.5562" lon="5.70341">
        <ele>507.76</ele>
        <time>2018-09-15T07:14:05Z</time>
      </trkpt>
      <trkpt lat="43.55614" lon="5.70316">
        <ele>508.7</ele>
        <time>2018-09-15T07:14:10Z</time>
      </trkpt>
      <trkpt lat="43.55608" lon="5.70292">
        <ele>507.05</ele>
        <time>2018-09-15T07:14:16Z</time>
      </trkpt>
      <trkpt lat="43.55596" lon="5.70271">
        <ele>510.12</ele>
        <time>2018-09-15T07:14:23Z</time>
      </trkpt>
      <trkpt lat="43.55585" lon="5.7025">
        <ele>514.19</ele>
        <time>2018-09-15T07:14:31Z</time>
      </trkpt>
      <trkpt lat="43.55577" lon="5.70224">
        <ele>511.65</ele>
        <time>2018-09-15T07:14:39Z</time>
      </trkpt>
      <trkpt lat="43.55569" lon="5.70202">
        <ele>513.12</ele>
        <time>2018-09-15T07:14:45Z</time>
      </trkpt>
      <trkpt lat="43.55561" lon="5.70178">
        <ele>515.45</ele>
        <time>2018-09-15T07:14:52Z</time>
      </trkpt>
      <trkpt lat="43.55551" lon="5.70157">
        <ele>516.57</ele>
        <time>2018-09-15T07:15:01Z</time>
      </trkpt>
      <trkpt lat="43.55536" lon="5.70143">
        <ele>520.32</ele>
        <time>2018-09-15T07:15:09Z</time>
      </trkpt>
      <trkpt lat="43.55527" lon="5.70117">
        <ele>521.2</ele>
        <time>2018-09-15T07:15:19Z</time>
      </trkpt>
      <trkpt lat="43.55518" lon="5.7009">
        <ele>521.06</ele>
        <time>2018-09-15T07:15:27Z</time>
      </trkpt>
      <trkpt lat="43.55506" lon="5.7007">
        <ele>520.6</ele>
        <time>2018-09-15T07:15:35Z</time>
      </trkpt>
      <trkpt lat="43.55498" lon="5.70043">
        <ele>521.34</ele>
        <time>2018-09-15T07:15:43Z</time>
      </trkpt>
      <trkpt lat="43.5549" lon="5.70019">
        <ele>522.91</ele>
        <time>2018-09-15T07:15:53Z</time>
      </trkpt>
      <trkpt lat="43.55484" lon="5.69995">
        <ele>523.24</ele>
        <time>2018-09-15T07:16:01Z</time>
      </trkpt>
      <trkpt lat="43.55476" lon="5.6997">
        <ele>528.93</ele>
        <time>2018-09-15T07:16:09Z</time>
      </trkpt>
      <trkpt lat="43.55468" lon="5.69944">
        <ele>528.21</ele>
        <time>2018-09-15T07:16:17Z</time>
      </trkpt>
      <trkpt lat="43.55458" lon="5.69921">
        <ele>528.11</ele>
        <time>2018-09-15T07:16:23Z</time>
      </trkpt>
      <trkpt lat="43.55453" lon="5.69897">
        <ele>527.8</ele>
        <time>2018-09-15T07:16:29Z</time>
      </trkpt>
      <trkpt lat="43.55451" lon="5.69866">
        <ele>528</ele>
        <time>2018-09-15T07:16:37Z</time>
      </trkpt>
      <trkpt lat="43.5545" lon="5.69838">
        <ele>525.53</ele>
        <time>2018-09-15T07:16:43Z</time>
      </trkpt>
      <trkpt lat="43.5544" lon="5.69816">
        <ele>528.72</ele>
        <time>2018-09-15T07:16:48Z</time>
      </trkpt>
      <trkpt lat="43.55432" lon="5.69792">
        <ele>527.18</ele>
        <time>2018-09-15T07:16:55Z</time>
      </trkpt>
      <trkpt lat="43.5543" lon="5.69767">
        <ele>526</ele>
        <time>2018-09-15T07:17:01Z</time>
      </trkpt>
      <trkpt lat="43.55422" lon="5.69743">
        <ele>525.43</ele>
        <time>2018-09-15T07:17:07Z</time>
      </trkpt>
      <trkpt lat="43.55418" lon="5.69718">
        <ele>525.33</ele>
        <time>2018-09-15T07:17:13Z</time>
      </trkpt>
      <trkpt lat="43.5541" lon="5.69694">
        <ele>525.7</ele>
        <time>2018-09-15T07:17:20Z</time>
      </trkpt>
      <trkpt lat="43.55396" lon="5.69674">
        <ele>525.12</ele>
        <time>2018-09-15T07:17:25Z</time>
      </trkpt>
      <trkpt lat="43.55385" lon="5.69649">
        <ele>525.24</ele>
        <time>2018-09-15T07:17:30Z</time>
      </trkpt>
      <trkpt lat="43.55375" lon="5.69622">
        <ele>525.4</ele>
        <time>2018-09-15T07:17:34Z</time>
      </trkpt>
      <trkpt lat="43.55372" lon="5.69596">
        <ele>525.71</ele>
        <time>2018-09-15T07:17:39Z</time>
      </trkpt>
      <trkpt lat="43.55364" lon="5.69573">
        <ele>526.9</ele>
        <time>2018-09-15T07:17:44Z</time>
      </trkpt>
      <trkpt lat="43.55355" lon="5.6955">
        <ele>528.81</ele>
        <time>2018-09-15T07:17:53Z</time>
      </trkpt>
      <trkpt lat="43.55353" lon="5.69525">
        <ele>528.69</ele>
        <time>2018-09-15T07:18:00Z</time>
      </trkpt>
      <trkpt lat="43.55351" lon="5.69498">
        <ele>531.13</ele>
        <time>2018-09-15T07:18:10Z</time>
      </trkpt>
      <trkpt lat="43.55348" lon="5.69472">
        <ele>534.48</ele>
        <time>2018-09-15T07:18:19Z</time>
      </trkpt>
      <trkpt lat="43.55346" lon="5.69445">
        <ele>531.24</ele>
        <time>2018-09-15T07:18:27Z</time>
      </trkpt>
      <trkpt lat="43.55358" lon="5.69426">
        <ele>533.62</ele>
        <time>2018-09-15T07:18:34Z</time>
      </trkpt>
      <trkpt lat="43.55363" lon="5.69399">
        <ele>535.67</ele>
        <time>2018-09-15T07:18:42Z</time>
      </trkpt>
      <trkpt lat="43.55371" lon="5.69373">
        <ele>536.25</ele>
        <time>2018-09-15T07:18:48Z</time>
      </trkpt>
      <trkpt lat="43.55379" lon="5.69348">
        <ele>537.53</ele>
        <time>2018-09-15T07:18:53Z</time>
      </trkpt>
      <trkpt lat="43.55392" lon="5.69329">
        <ele>538</ele>
        <time>2018-09-15T07:19:00Z</time>
      </trkpt>
      <trkpt lat="43.55391" lon="5.69302">
        <ele>538.71</ele>
        <time>2018-09-15T07:19:07Z</time>
      </trkpt>
      <trkpt lat="43.55398" lon="5.69278">
        <ele>540.17</ele>
        <time>2018-09-15T07:19:14Z</time>
      </trkpt>
      <trkpt lat="43.55406" lon="5.69255">
        <ele>537.95</ele>
        <time>2018-09-15T07:19:20Z</time>
      </trkpt>
      <trkpt lat="43.55416" lon="5.6923">
        <ele>537.4</ele>
        <time>2018-09-15T07:19:26Z</time>
      </trkpt>
      <trkpt lat="43.55422" lon="5.69202">
        <ele>537.55</ele>
        <time>2018-09-15T07:19:33Z</time>
      </trkpt>
      <trkpt lat="43.55428" lon="5.69177">
        <ele>536.71</ele>
        <time>2018-09-15T07:19:39Z</time>
      </trkpt>
      <trkpt lat="43.55432" lon="5.69144">
        <ele>536.84</ele>
        <time>2018-09-15T07:19:43Z</time>
      </trkpt>
      <trkpt lat="43.55441" lon="5.69117">
        <ele>536.56</ele>
        <time>2018-09-15T07:19:46Z</time>
      </trkpt>
      <trkpt lat="43.55442" lon="5.69084">
        <ele>535.35</ele>
        <time>2018-09-15T07:19:49Z</time>
      </trkpt>
      <trkpt lat="43.55441" lon="5.69047">
        <ele>534.4</ele>
        <time>2018-09-15T07:19:52Z</time>
      </trkpt>
      <trkpt lat="43.55442" lon="5.69013">
        <ele>533.67</ele>
        <time>2018-09-15T07:19:55Z</time>
      </trkpt>
      <trkpt lat="43.55452" lon="5.68982">
        <ele>532.93</ele>
        <time>2018-09-15T07:19:58Z</time>
      </trkpt>
      <trkpt lat="43.55461" lon="5.68956">
        <ele>534.03</ele>
        <time>2018-09-15T07:20:01Z</time>
      </trkpt>
      <trkpt lat="43.55458" lon="5.68926">
        <ele>532.68</ele>
        <time>2018-09-15T07:20:05Z</time>
      </trkpt>
      <trkpt lat="43.55457" lon="5.68898">
        <ele>531.85</ele>
        <time>2018-09-15T07:20:11Z</time>
      </trkpt>
      <trkpt lat="43.55448" lon="5.68874">
        <ele>533.91</ele>
        <time>2018-09-15T07:20:20Z</time>
      </trkpt>
      <trkpt lat="43.55444" lon="5.6885">
        <ele>536.26</ele>
        <time>2018-09-15T07:20:28Z</time>
      </trkpt>
      <trkpt lat="43.5544" lon="5.68825">
        <ele>539.38</ele>
        <time>2018-09-15T07:20:35Z</time>
      </trkpt>
      <trkpt lat="43.55433" lon="5.68802">
        <ele>540.7</ele>
        <time>2018-09-15T07:20:41Z</time>
      </trkpt>
      <trkpt lat="43.5542" lon="5.68781">
        <ele>542.4</ele>
        <time>2018-09-15T07:20:48Z</time>
      </trkpt>
      <trkpt lat="43.55413" lon="5.68757">
        <ele>543.26</ele>
        <time>2018-09-15T07:20:55Z</time>
      </trkpt>
      <trkpt lat="43.55407" lon="5.68731">
        <ele>549.18</ele>
        <time>2018-09-15T07:21:05Z</time>
      </trkpt>
      <trkpt lat="43.5541" lon="5.68705">
        <ele>549.39</ele>
        <time>2018-09-15T07:21:17Z</time>
      </trkpt>
      <trkpt lat="43.55426" lon="5.68724">
        <ele>547.76</ele>
        <time>2018-09-15T07:24:28Z</time>
      </trkpt>
      <trkpt lat="43.55437" lon="5.68743">
        <ele>546</ele>
        <time>2018-09-15T07:24:33Z</time>
      </trkpt>
      <trkpt lat="43.55451" lon="5.68762">
        <ele>545.25</ele>
        <time>2018-09-15T07:24:38Z</time>
      </trkpt>
      <trkpt lat="43.55467" lon="5.68778">
        <ele>544.41</ele>
        <time>2018-09-15T07:24:43Z</time>
      </trkpt>
      <trkpt lat="43.55486" lon="5.68789">
        <ele>546.16</ele>
        <time>2018-09-15T07:24:50Z</time>
      </trkpt>
      <trkpt lat="43.55505" lon="5.68794">
        <ele>547.01</ele>
        <time>2018-09-15T07:25:04Z</time>
      </trkpt>
      <trkpt lat="43.5552" lon="5.68809">
        <ele>544.75</ele>
        <time>2018-09-15T07:25:11Z</time>
      </trkpt>
      <trkpt lat="43.55534" lon="5.68829">
        <ele>545.63</ele>
        <time>2018-09-15T07:25:21Z</time>
      </trkpt>
      <trkpt lat="43.55551" lon="5.68848">
        <ele>545.75</ele>
        <time>2018-09-15T07:25:27Z</time>
      </trkpt>
      <trkpt lat="43.55568" lon="5.68869">
        <ele>546.02</ele>
        <time>2018-09-15T07:25:33Z</time>
      </trkpt>
      <trkpt lat="43.55583" lon="5.68889">
        <ele>545.66</ele>
        <time>2018-09-15T07:25:37Z</time>
      </trkpt>
      <trkpt lat="43.55598" lon="5.68906">
        <ele>546.81</ele>
        <time>2018-09-15T07:25:42Z</time>
      </trkpt>
      <trkpt lat="43.55609" lon="5.68927">
        <ele>545.86</ele>
        <time>2018-09-15T07:25:48Z</time>
      </trkpt>
      <trkpt lat="43.55619" lon="5.6895">
        <ele>546.72</ele>
        <time>2018-09-15T07:25:53Z</time>
      </trkpt>
      <trkpt lat="43.55632" lon="5.68974">
        <ele>546.01</ele>
        <time>2018-09-15T07:25:58Z</time>
      </trkpt>
      <trkpt lat="43.55644" lon="5.68999">
        <ele>547.04</ele>
        <time>2018-09-15T07:26:04Z</time>
      </trkpt>
      <trkpt lat="43.55655" lon="5.69022">
        <ele>546.66</ele>
        <time>2018-09-15T07:26:11Z</time>
      </trkpt>
      <trkpt lat="43.55667" lon="5.69046">
        <ele>546.98</ele>
        <time>2018-09-15T07:26:17Z</time>
      </trkpt>
      <trkpt lat="43.55671" lon="5.69075">
        <ele>548.59</ele>
        <time>2018-09-15T07:26:23Z</time>
      </trkpt>
      <trkpt lat="43.55679" lon="5.69101">
        <ele>548.1</ele>
        <time>2018-09-15T07:26:29Z</time>
      </trkpt>
      <trkpt lat="43.55687" lon="5.69126">
        <ele>549.86</ele>
        <time>2018-09-15T07:26:36Z</time>
      </trkpt>
      <trkpt lat="43.55696" lon="5.69151">
        <ele>552.32</ele>
        <time>2018-09-15T07:26:44Z</time>
      </trkpt>
      <trkpt lat="43.55705" lon="5.69174">
        <ele>556.03</ele>
        <time>2018-09-15T07:26:53Z</time>
      </trkpt>
      <trkpt lat="43.55707" lon="5.692">
        <ele>556.08</ele>
        <time>2018-09-15T07:27:02Z</time>
      </trkpt>
      <trkpt lat="43.55711" lon="5.69227">
        <ele>557.33</ele>
        <time>2018-09-15T07:27:11Z</time>
      </trkpt>
      <trkpt lat="43.55716" lon="5.69254">
        <ele>556.58</ele>
        <time>2018-09-15T07:27:20Z</time>
      </trkpt>
      <trkpt lat="43.55719" lon="5.69282">
        <ele>560.38</ele>
        <time>2018-09-15T07:27:30Z</time>
      </trkpt>
      <trkpt lat="43.55721" lon="5.69309">
        <ele>562.38</ele>
        <time>2018-09-15T07:27:39Z</time>
      </trkpt>
      <trkpt lat="43.55723" lon="5.69334">
        <ele>561.14</ele>
        <time>2018-09-15T07:27:48Z</time>
      </trkpt>
      <trkpt lat="43.55721" lon="5.6936">
        <ele>561.38</ele>
        <time>2018-09-15T07:27:56Z</time>
      </trkpt>
      <trkpt lat="43.55729" lon="5.69383">
        <ele>562.07</ele>
        <time>2018-09-15T07:28:04Z</time>
      </trkpt>
      <trkpt lat="43.55734" lon="5.6941">
        <ele>561.97</ele>
        <time>2018-09-15T07:28:12Z</time>
      </trkpt>
      <trkpt lat="43.5574" lon="5.69434">
        <ele>562.33</ele>
        <time>2018-09-15T07:28:18Z</time>
      </trkpt>
      <trkpt lat="43.55741" lon="5.69461">
        <ele>561.5</ele>
        <time>2018-09-15T07:28:25Z</time>
      </trkpt>
      <trkpt lat="43.55749" lon="5.69487">
        <ele>562.24</ele>
        <time>2018-09-15T07:28:31Z</time>
      </trkpt>
      <trkpt lat="43.55756" lon="5.69512">
        <ele>561.24</ele>
        <time>2018-09-15T07:28:37Z</time>
      </trkpt>
      <trkpt lat="43.55763" lon="5.69538">
        <ele>559.21</ele>
        <time>2018-09-15T07:28:44Z</time>
      </trkpt>
      <trkpt lat="43.5577" lon="5.69564">
        <ele>559.29</ele>
        <time>2018-09-15T07:28:50Z</time>
      </trkpt>
      <trkpt lat="43.55774" lon="5.69593">
        <ele>560.51</ele>
        <time>2018-09-15T07:28:56Z</time>
      </trkpt>
      <trkpt lat="43.55778" lon="5.69623">
        <ele>561.71</ele>
        <time>2018-09-15T07:29:02Z</time>
      </trkpt>
      <trkpt lat="43.55779" lon="5.69649">
        <ele>560.68</ele>
        <time>2018-09-15T07:29:08Z</time>
      </trkpt>
      <trkpt lat="43.55781" lon="5.69677">
        <ele>562.1</ele>
        <time>2018-09-15T07:29:13Z</time>
      </trkpt>
      <trkpt lat="43.55785" lon="5.69704">
        <ele>562.3</ele>
        <time>2018-09-15T07:29:19Z</time>
      </trkpt>
      <trkpt lat="43.55785" lon="5.69732">
        <ele>561.47</ele>
        <time>2018-09-15T07:29:25Z</time>
      </trkpt>
      <trkpt lat="43.55791" lon="5.69756">
        <ele>560.6</ele>
        <time>2018-09-15T07:29:31Z</time>
      </trkpt>
      <trkpt lat="43.55794" lon="5.69784">
        <ele>563.31</ele>
        <time>2018-09-15T07:29:36Z</time>
      </trkpt>
      <trkpt lat="43.55805" lon="5.69805">
        <ele>565.88</ele>
        <time>2018-09-15T07:29:42Z</time>
      </trkpt>
      <trkpt lat="43.5581" lon="5.69834">
        <ele>565.05</ele>
        <time>2018-09-15T07:29:48Z</time>
      </trkpt>
      <trkpt lat="43.55812" lon="5.6986">
        <ele>562.25</ele>
        <time>2018-09-15T07:29:53Z</time>
      </trkpt>
      <trkpt lat="43.55812" lon="5.69889">
        <ele>563.97</ele>
        <time>2018-09-15T07:29:58Z</time>
      </trkpt>
      <trkpt lat="43.55812" lon="5.69914">
        <ele>562.55</ele>
        <time>2018-09-15T07:30:02Z</time>
      </trkpt>
      <trkpt lat="43.55817" lon="5.69943">
        <ele>559.46</ele>
        <time>2018-09-15T07:30:06Z</time>
      </trkpt>
      <trkpt lat="43.55826" lon="5.69965">
        <ele>559.76</ele>
        <time>2018-09-15T07:30:10Z</time>
      </trkpt>
      <trkpt lat="43.55837" lon="5.69986">
        <ele>558.54</ele>
        <time>2018-09-15T07:30:14Z</time>
      </trkpt>
      <trkpt lat="43.5585" lon="5.70006">
        <ele>557.39</ele>
        <time>2018-09-15T07:30:18Z</time>
      </trkpt>
      <trkpt lat="43.55861" lon="5.70028">
        <ele>556.52</ele>
        <time>2018-09-15T07:30:22Z</time>
      </trkpt>
      <trkpt lat="43.55871" lon="5.70051">
        <ele>555.8</ele>
        <time>2018-09-15T07:30:26Z</time>
      </trkpt>
      <trkpt lat="43.55882" lon="5.70076">
        <ele>554.42</ele>
        <time>2018-09-15T07:30:30Z</time>
      </trkpt>
      <trkpt lat="43.55892" lon="5.70102">
        <ele>553.4</ele>
        <time>2018-09-15T07:30:34Z</time>
      </trkpt>
      <trkpt lat="43.55908" lon="5.70121">
        <ele>553.25</ele>
        <time>2018-09-15T07:30:38Z</time>
      </trkpt>
      <trkpt lat="43.5592" lon="5.70142">
        <ele>552.27</ele>
        <time>2018-09-15T07:30:48Z</time>
      </trkpt>
      <trkpt lat="43.55934" lon="5.70123">
        <ele>554.98</ele>
        <time>2018-09-15T07:32:08Z</time>
      </trkpt>
      <trkpt lat="43.55945" lon="5.701">
        <ele>553.24</ele>
        <time>2018-09-15T07:32:16Z</time>
      </trkpt>
      <trkpt lat="43.55955" lon="5.70078">
        <ele>552.48</ele>
        <time>2018-09-15T07:32:24Z</time>
      </trkpt>
      <trkpt lat="43.55964" lon="5.70055">
        <ele>552.96</ele>
        <time>2018-09-15T07:32:31Z</time>
      </trkpt>
      <trkpt lat="43.55974" lon="5.70033">
        <ele>552.4</ele>
        <time>2018-09-15T07:32:36Z</time>
      </trkpt>
      <trkpt lat="43.5598" lon="5.7001">
        <ele>549.65</ele>
        <time>2018-09-15T07:32:41Z</time>
      </trkpt>
      <trkpt lat="43.55981" lon="5.69983">
        <ele>550.29</ele>
        <time>2018-09-15T07:32:46Z</time>
      </trkpt>
      <trkpt lat="43.55983" lon="5.69955">
        <ele>550.4</ele>
        <time>2018-09-15T07:32:52Z</time>
      </trkpt>
      <trkpt lat="43.5598" lon="5.69925">
        <ele>551.1</ele>
        <time>2018-09-15T07:32:58Z</time>
      </trkpt>
      <trkpt lat="43.55981" lon="5.69899">
        <ele>550.47</ele>
        <time>2018-09-15T07:33:04Z</time>
      </trkpt>
      <trkpt lat="43.55981" lon="5.69873">
        <ele>550.23</ele>
        <time>2018-09-15T07:33:09Z</time>
      </trkpt>
      <trkpt lat="43.55976" lon="5.69848">
        <ele>550.81</ele>
        <time>2018-09-15T07:33:15Z</time>
      </trkpt>
      <trkpt lat="43.55978" lon="5.6982">
        <ele>550.28</ele>
        <time>2018-09-15T07:33:20Z</time>
      </trkpt>
      <trkpt lat="43.55973" lon="5.69796">
        <ele>550.67</ele>
        <time>2018-09-15T07:33:25Z</time>
      </trkpt>
      <trkpt lat="43.55973" lon="5.6977">
        <ele>549.74</ele>
        <time>2018-09-15T07:33:30Z</time>
      </trkpt>
      <trkpt lat="43.55974" lon="5.69742">
        <ele>547.77</ele>
        <time>2018-09-15T07:33:35Z</time>
      </trkpt>
      <trkpt lat="43.55976" lon="5.69716">
        <ele>546.6</ele>
        <time>2018-09-15T07:33:41Z</time>
      </trkpt>
      <trkpt lat="43.55978" lon="5.6969">
        <ele>544.18</ele>
        <time>2018-09-15T07:33:46Z</time>
      </trkpt>
      <trkpt lat="43.55969" lon="5.69666">
        <ele>541.55</ele>
        <time>2018-09-15T07:33:52Z</time>
      </trkpt>
      <trkpt lat="43.55964" lon="5.69641">
        <ele>541.42</ele>
        <time>2018-09-15T07:34:00Z</time>
      </trkpt>
      <trkpt lat="43.55965" lon="5.69611">
        <ele>542.86</ele>
        <time>2018-09-15T07:34:07Z</time>
      </trkpt>
      <trkpt lat="43.55963" lon="5.69584">
        <ele>541.2</ele>
        <time>2018-09-15T07:34:12Z</time>
      </trkpt>
      <trkpt lat="43.55967" lon="5.69556">
        <ele>539.42</ele>
        <time>2018-09-15T07:34:18Z</time>
      </trkpt>
      <trkpt lat="43.55968" lon="5.69528">
        <ele>536.74</ele>
        <time>2018-09-15T07:34:25Z</time>
      </trkpt>
      <trkpt lat="43.55971" lon="5.69502">
        <ele>536.16</ele>
        <time>2018-09-15T07:34:30Z</time>
      </trkpt>
      <trkpt lat="43.55977" lon="5.69475">
        <ele>536.88</ele>
        <time>2018-09-15T07:34:38Z</time>
      </trkpt>
      <trkpt lat="43.5598" lon="5.69448">
        <ele>541.15</ele>
        <time>2018-09-15T07:34:45Z</time>
      </trkpt>
      <trkpt lat="43.55989" lon="5.69423">
        <ele>541.03</ele>
        <time>2018-09-15T07:34:51Z</time>
      </trkpt>
      <trkpt lat="43.56002" lon="5.69401">
        <ele>540.17</ele>
        <time>2018-09-15T07:34:56Z</time>
      </trkpt>
      <trkpt lat="43.56018" lon="5.69379">
        <ele>541.06</ele>
        <time>2018-09-15T07:35:03Z</time>
      </trkpt>
      <trkpt lat="43.5603" lon="5.69357">
        <ele>541.14</ele>
        <time>2018-09-15T07:35:09Z</time>
      </trkpt>
      <trkpt lat="43.56043" lon="5.69337">
        <ele>541.48</ele>
        <time>2018-09-15T07:35:14Z</time>
      </trkpt>
      <trkpt lat="43.56056" lon="5.69313">
        <ele>537.22</ele>
        <time>2018-09-15T07:35:19Z</time>
      </trkpt>
      <trkpt lat="43.56051" lon="5.69284">
        <ele>535.99</ele>
        <time>2018-09-15T07:35:24Z</time>
      </trkpt>
      <trkpt lat="43.56039" lon="5.69266">
        <ele>535.74</ele>
        <time>2018-09-15T07:35:27Z</time>
      </trkpt>
      <trkpt lat="43.56024" lon="5.69244">
        <ele>533.24</ele>
        <time>2018-09-15T07:35:31Z</time>
      </trkpt>
      <trkpt lat="43.56012" lon="5.69221">
        <ele>530.95</ele>
        <time>2018-09-15T07:35:34Z</time>
      </trkpt>
      <trkpt lat="43.56004" lon="5.69197">
        <ele>533.07</ele>
        <time>2018-09-15T07:35:37Z</time>
      </trkpt>
      <trkpt lat="43.55991" lon="5.69171">
        <ele>534.16</ele>
        <time>2018-09-15T07:35:41Z</time>
      </trkpt>
      <trkpt lat="43.5598" lon="5.6915">
        <ele>534.08</ele>
        <time>2018-09-15T07:35:45Z</time>
      </trkpt>
      <trkpt lat="43.55971" lon="5.69128">
        <ele>533.45</ele>
        <time>2018-09-15T07:35:49Z</time>
      </trkpt>
      <trkpt lat="43.55964" lon="5.69103">
        <ele>533.47</ele>
        <time>2018-09-15T07:35:54Z</time>
      </trkpt>
      <trkpt lat="43.55955" lon="5.69081">
        <ele>532.02</ele>
        <time>2018-09-15T07:35:59Z</time>
      </trkpt>
      <trkpt lat="43.55951" lon="5.69056">
        <ele>534.09</ele>
        <time>2018-09-15T07:36:04Z</time>
      </trkpt>
      <trkpt lat="43.55947" lon="5.69031">
        <ele>534.27</ele>
        <time>2018-09-15T07:36:09Z</time>
      </trkpt>
      <trkpt lat="43.55947" lon="5.69002">
        <ele>536.26</ele>
        <time>2018-09-15T07:36:15Z</time>
      </trkpt>
      <trkpt lat="43.55939" lon="5.68976">
        <ele>534.81</ele>
        <time>2018-09-15T07:36:20Z</time>
      </trkpt>
      <trkpt lat="43.55936" lon="5.68949">
        <ele>534.84</ele>
        <time>2018-09-15T07:36:25Z</time>
      </trkpt>
      <trkpt lat="43.55938" lon="5.68923">
        <ele>535.73</ele>
        <time>2018-09-15T07:36:31Z</time>
      </trkpt>
      <trkpt lat="43.55927" lon="5.689">
        <ele>543.79</ele>
        <time>2018-09-15T07:36:38Z</time>
      </trkpt>
      <trkpt lat="43.55925" lon="5.68875">
        <ele>545.43</ele>
        <time>2018-09-15T07:36:50Z</time>
      </trkpt>
      <trkpt lat="43.55942" lon="5.68867">
        <ele>543.75</ele>
        <time>2018-09-15T07:36:59Z</time>
      </trkpt>
      <trkpt lat="43.5596" lon="5.68873">
        <ele>546.05</ele>
        <time>2018-09-15T07:37:10Z</time>
      </trkpt>
      <trkpt lat="43.5598" lon="5.68878">
        <ele>549.55</ele>
        <time>2018-09-15T07:37:20Z</time>
      </trkpt>
      <trkpt lat="43.55995" lon="5.68863">
        <ele>552.43</ele>
        <time>2018-09-15T07:37:32Z</time>
      </trkpt>
      <trkpt lat="43.56011" lon="5.68851">
        <ele>551.34</ele>
        <time>2018-09-15T07:37:47Z</time>
      </trkpt>
      <trkpt lat="43.56029" lon="5.68842">
        <ele>555.06</ele>
        <time>2018-09-15T07:38:00Z</time>
      </trkpt>
      <trkpt lat="43.56046" lon="5.68829">
        <ele>558.16</ele>
        <time>2018-09-15T07:38:15Z</time>
      </trkpt>
      <trkpt lat="43.56063" lon="5.68821">
        <ele>557.26</ele>
        <time>2018-09-15T07:38:27Z</time>
      </trkpt>
      <trkpt lat="43.5608" lon="5.68834">
        <ele>559.08</ele>
        <time>2018-09-15T07:38:38Z</time>
      </trkpt>
      <trkpt lat="43.56098" lon="5.68842">
        <ele>561.38</ele>
        <time>2018-09-15T07:38:49Z</time>
      </trkpt>
      <trkpt lat="43.56117" lon="5.68849">
        <ele>561.22</ele>
        <time>2018-09-15T07:39:02Z</time>
      </trkpt>
      <trkpt lat="43.56135" lon="5.68844">
        <ele>560.13</ele>
        <time>2018-09-15T07:39:10Z</time>
      </trkpt>
      <trkpt lat="43.56153" lon="5.68856">
        <ele>559.36</ele>
        <time>2018-09-15T07:39:18Z</time>
      </trkpt>
      <trkpt lat="43.56172" lon="5.68869">
        <ele>557.18</ele>
        <time>2018-09-15T07:39:25Z</time>
      </trkpt>
      <trkpt lat="43.56188" lon="5.68883">
        <ele>557.06</ele>
        <time>2018-09-15T07:39:31Z</time>
      </trkpt>
      <trkpt lat="43.56204" lon="5.68897">
        <ele>558.07</ele>
        <time>2018-09-15T07:39:37Z</time>
      </trkpt>
      <trkpt lat="43.56221" lon="5.68907">
        <ele>560.19</ele>
        <time>2018-09-15T07:39:47Z</time>
      </trkpt>
      <trkpt lat="43.56238" lon="5.68917">
        <ele>561.88</ele>
        <time>2018-09-15T07:39:54Z</time>
      </trkpt>
      <trkpt lat="43.56253" lon="5.6893">
        <ele>559.82</ele>
        <time>2018-09-15T07:40:02Z</time>
      </trkpt>
      <trkpt lat="43.56272" lon="5.6892">
        <ele>559.59</ele>
        <time>2018-09-15T07:40:09Z</time>
      </trkpt>
      <trkpt lat="43.56283" lon="5.68894">
        <ele>559.67</ele>
        <time>2018-09-15T07:40:15Z</time>
      </trkpt>
      <trkpt lat="43.56289" lon="5.68869">
        <ele>559.48</ele>
        <time>2018-09-15T07:40:20Z</time>
      </trkpt>
      <trkpt lat="43.56288" lon="5.68839">
        <ele>555.79</ele>
        <time>2018-09-15T07:40:24Z</time>
      </trkpt>
      <trkpt lat="43.56285" lon="5.68814">
        <ele>555.38</ele>
        <time>2018-09-15T07:40:27Z</time>
      </trkpt>
      <trkpt lat="43.56276" lon="5.6879">
        <ele>553.91</ele>
        <time>2018-09-15T07:40:30Z</time>
      </trkpt>
      <trkpt lat="43.56265" lon="5.6877">
        <ele>553.96</ele>
        <time>2018-09-15T07:40:34Z</time>
      </trkpt>
      <trkpt lat="43.56251" lon="5.68753">
        <ele>551</ele>
        <time>2018-09-15T07:40:41Z</time>
      </trkpt>
      <trkpt lat="43.56234" lon="5.68743">
        <ele>554.98</ele>
        <time>2018-09-15T07:40:51Z</time>
      </trkpt>
      <trkpt lat="43.56215" lon="5.68743">
        <ele>557.86</ele>
        <time>2018-09-15T07:41:00Z</time>
      </trkpt>
      <trkpt lat="43.562" lon="5.68727">
        <ele>560.68</ele>
        <time>2018-09-15T07:41:08Z</time>
      </trkpt>
      <trkpt lat="43.56193" lon="5.68703">
        <ele>560.24</ele>
        <time>2018-09-15T07:41:17Z</time>
      </trkpt>
      <trkpt lat="43.56181" lon="5.68685">
        <ele>560.8</ele>
        <time>2018-09-15T07:41:23Z</time>
      </trkpt>
      <trkpt lat="43.56176" lon="5.68658">
        <ele>562.71</ele>
        <time>2018-09-15T07:41:31Z</time>
      </trkpt>
      <trkpt lat="43.56177" lon="5.68632">
        <ele>564.01</ele>
        <time>2018-09-15T07:41:38Z</time>
      </trkpt>
      <trkpt lat="43.56182" lon="5.68607">
        <ele>562.5</ele>
        <time>2018-09-15T07:41:49Z</time>
      </trkpt>
      <trkpt lat="43.56177" lon="5.68583">
        <ele>562.33</ele>
        <time>2018-09-15T07:41:56Z</time>
      </trkpt>
      <trkpt lat="43.56173" lon="5.68556">
        <ele>562.94</ele>
        <time>2018-09-15T07:42:06Z</time>
      </trkpt>
      <trkpt lat="43.56168" lon="5.6853">
        <ele>564.68</ele>
        <time>2018-09-15T07:42:15Z</time>
      </trkpt>
      <trkpt lat="43.56151" lon="5.68514">
        <ele>564.7</ele>
        <time>2018-09-15T07:42:22Z</time>
      </trkpt>
      <trkpt lat="43.56133" lon="5.68502">
        <ele>565.82</ele>
        <time>2018-09-15T07:42:31Z</time>
      </trkpt>
      <trkpt lat="43.56121" lon="5.68482">
        <ele>570.07</ele>
        <time>2018-09-15T07:42:41Z</time>
      </trkpt>
      <trkpt lat="43.56108" lon="5.68461">
        <ele>572.86</ele>
        <time>2018-09-15T07:42:50Z</time>
      </trkpt>
      <trkpt lat="43.56102" lon="5.68437">
        <ele>573.32</ele>
        <time>2018-09-15T07:43:00Z</time>
      </trkpt>
      <trkpt lat="43.56092" lon="5.68414">
        <ele>570.99</ele>
        <time>2018-09-15T07:43:08Z</time>
      </trkpt>
      <trkpt lat="43.56086" lon="5.68389">
        <ele>572.09</ele>
        <time>2018-09-15T07:43:18Z</time>
      </trkpt>
      <trkpt lat="43.56086" lon="5.68363">
        <ele>571</ele>
        <time>2018-09-15T07:43:27Z</time>
      </trkpt>
      <trkpt lat="43.56087" lon="5.68338">
        <ele>569.81</ele>
        <time>2018-09-15T07:43:36Z</time>
      </trkpt>
      <trkpt lat="43.56095" lon="5.68314">
        <ele>572.33</ele>
        <time>2018-09-15T07:43:45Z</time>
      </trkpt>
      <trkpt lat="43.56099" lon="5.68289">
        <ele>571.84</ele>
        <time>2018-09-15T07:43:54Z</time>
      </trkpt>
      <trkpt lat="43.56108" lon="5.68264">
        <ele>569.77</ele>
        <time>2018-09-15T07:44:03Z</time>
      </trkpt>
      <trkpt lat="43.56126" lon="5.68258">
        <ele>571.12</ele>
        <time>2018-09-15T07:44:06Z</time>
      </trkpt>
      <trkpt lat="43.5614" lon="5.68238">
        <ele>571.22</ele>
        <time>2018-09-15T07:44:10Z</time>
      </trkpt>
      <trkpt lat="43.56156" lon="5.68216">
        <ele>571.45</ele>
        <time>2018-09-15T07:44:14Z</time>
      </trkpt>
      <trkpt lat="43.56168" lon="5.68197">
        <ele>572.51</ele>
        <time>2018-09-15T07:44:19Z</time>
      </trkpt>
      <trkpt lat="43.56175" lon="5.68173">
        <ele>575.02</ele>
        <time>2018-09-15T07:44:27Z</time>
      </trkpt>
      <trkpt lat="43.56191" lon="5.68157">
        <ele>576.99</ele>
        <time>2018-09-15T07:44:35Z</time>
      </trkpt>
      <trkpt lat="43.56205" lon="5.68141">
        <ele>575.91</ele>
        <time>2018-09-15T07:44:41Z</time>
      </trkpt>
      <trkpt lat="43.5622" lon="5.6812">
        <ele>575.71</ele>
        <time>2018-09-15T07:44:49Z</time>
      </trkpt>
      <trkpt lat="43.56236" lon="5.68106">
        <ele>575.15</ele>
        <time>2018-09-15T07:44:56Z</time>
      </trkpt>
      <trkpt lat="43.56251" lon="5.68091">
        <ele>575.17</ele>
        <time>2018-09-15T07:45:02Z</time>
      </trkpt>
      <trkpt lat="43.56265" lon="5.6807">
        <ele>574.48</ele>
        <time>2018-09-15T07:45:07Z</time>
      </trkpt>
      <trkpt lat="43.56265" lon="5.68044">
        <ele>573.93</ele>
        <time>2018-09-15T07:45:13Z</time>
      </trkpt>
      <trkpt lat="43.56271" lon="5.68016">
        <ele>572.22</ele>
        <time>2018-09-15T07:45:18Z</time>
      </trkpt>
      <trkpt lat="43.56276" lon="5.67992">
        <ele>571.69</ele>
        <time>2018-09-15T07:45:24Z</time>
      </trkpt>
      <trkpt lat="43.56274" lon="5.67965">
        <ele>572.43</ele>
        <time>2018-09-15T07:45:32Z</time>
      </trkpt>
      <trkpt lat="43.56278" lon="5.6794">
        <ele>572.66</ele>
        <time>2018-09-15T07:45:39Z</time>
      </trkpt>
      <trkpt lat="43.56281" lon="5.67912">
        <ele>572.95</ele>
        <time>2018-09-15T07:45:46Z</time>
      </trkpt>
      <trkpt lat="43.56272" lon="5.67889">
        <ele>573.1</ele>
        <time>2018-09-15T07:45:55Z</time>
      </trkpt>
      <trkpt lat="43.56248" lon="5.67887">
        <ele>571.1</ele>
      </trkpt>
      <trkpt lat="43.56238" lon="5.67875">
        <ele>571.4</ele>
      </trkpt>
      <trkpt lat="43.56245" lon="5.67857">
        <ele>570.57</ele>
        <time>2018-09-15T07:46:14Z</time>
      </trkpt>
      <trkpt lat="43.56264" lon="5.67851">
        <ele>569.89</ele>
        <time>2018-09-15T07:46:20Z</time>
      </trkpt>
      <trkpt lat="43.56277" lon="5.67831">
        <ele>569.88</ele>
        <time>2018-09-15T07:46:26Z</time>
      </trkpt>
      <trkpt lat="43.56283" lon="5.67807">
        <ele>565.59</ele>
        <time>2018-09-15T07:46:34Z</time>
      </trkpt>
      <trkpt lat="43.56296" lon="5.67787">
        <ele>566.06</ele>
        <time>2018-09-15T07:46:41Z</time>
      </trkpt>
      <trkpt lat="43.56299" lon="5.67762">
        <ele>565.06</ele>
        <time>2018-09-15T07:46:50Z</time>
      </trkpt>
      <trkpt lat="43.56308" lon="5.6774">
        <ele>566.03</ele>
        <time>2018-09-15T07:46:59Z</time>
      </trkpt>
      <trkpt lat="43.56326" lon="5.67729">
        <ele>566.4</ele>
        <time>2018-09-15T07:47:05Z</time>
      </trkpt>
      <trkpt lat="43.56338" lon="5.67717">
        <ele>576.2</ele>
      </trkpt>
      <trkpt lat="43.5633" lon="5.67692">
        <ele>571.61</ele>
        <time>2018-09-15T07:49:10Z</time>
      </trkpt>
      <trkpt lat="43.56321" lon="5.67669">
        <ele>571.67</ele>
        <time>2018-09-15T07:49:19Z</time>
      </trkpt>
      <trkpt lat="43.56307" lon="5.67653">
        <ele>568.94</ele>
        <time>2018-09-15T07:49:25Z</time>
      </trkpt>
      <trkpt lat="43.56285" lon="5.67645">
        <ele>566.54</ele>
        <time>2018-09-15T07:49:33Z</time>
      </trkpt>
      <trkpt lat="43.56279" lon="5.67621">
        <ele>566.83</ele>
        <time>2018-09-15T07:49:43Z</time>
      </trkpt>
      <trkpt lat="43.56281" lon="5.67593">
        <ele>571.37</ele>
        <time>2018-09-15T07:49:51Z</time>
      </trkpt>
      <trkpt lat="43.56282" lon="5.67565">
        <ele>569.35</ele>
        <time>2018-09-15T07:50:01Z</time>
      </trkpt>
      <trkpt lat="43.56296" lon="5.67546">
        <ele>571.98</ele>
        <time>2018-09-15T07:50:10Z</time>
      </trkpt>
      <trkpt lat="43.56307" lon="5.67521">
        <ele>572.99</ele>
        <time>2018-09-15T07:50:18Z</time>
      </trkpt>
      <trkpt lat="43.56316" lon="5.67496">
        <ele>573.76</ele>
        <time>2018-09-15T07:50:27Z</time>
      </trkpt>
      <trkpt lat="43.56322" lon="5.6747">
        <ele>575.92</ele>
        <time>2018-09-15T07:50:37Z</time>
      </trkpt>
      <trkpt lat="43.56328" lon="5.67445">
        <ele>576.3</ele>
        <time>2018-09-15T07:50:44Z</time>
      </trkpt>
      <trkpt lat="43.56335" lon="5.67422">
        <ele>576.83</ele>
        <time>2018-09-15T07:50:53Z</time>
      </trkpt>
      <trkpt lat="43.56331" lon="5.67398">
        <ele>575.8</ele>
        <time>2018-09-15T07:51:01Z</time>
      </trkpt>
      <trkpt lat="43.56331" lon="5.67369">
        <ele>576.3</ele>
        <time>2018-09-15T07:51:10Z</time>
      </trkpt>
      <trkpt lat="43.56319" lon="5.67347">
        <ele>578.12</ele>
        <time>2018-09-15T07:51:17Z</time>
      </trkpt>
      <trkpt lat="43.56305" lon="5.67332">
        <ele>582.83</ele>
        <time>2018-09-15T07:51:25Z</time>
      </trkpt>
      <trkpt lat="43.56286" lon="5.67326">
        <ele>582.03</ele>
        <time>2018-09-15T07:51:32Z</time>
      </trkpt>
      <trkpt lat="43.56272" lon="5.67326">
        <ele>593.3</ele>
      </trkpt>
      <trkpt lat="43.56261" lon="5.67301">
        <ele>586.3</ele>
        <time>2018-09-15T07:51:53Z</time>
      </trkpt>
      <trkpt lat="43.56251" lon="5.67277">
        <ele>587.46</ele>
        <time>2018-09-15T07:52:00Z</time>
      </trkpt>
      <trkpt lat="43.56242" lon="5.67251">
        <ele>586.67</ele>
        <time>2018-09-15T07:52:07Z</time>
      </trkpt>
      <trkpt lat="43.5624" lon="5.67226">
        <ele>586.61</ele>
        <time>2018-09-15T07:52:15Z</time>
      </trkpt>
      <trkpt lat="43.56245" lon="5.67201">
        <ele>589.09</ele>
        <time>2018-09-15T07:52:22Z</time>
      </trkpt>
      <trkpt lat="43.56245" lon="5.67173">
        <ele>590.92</ele>
        <time>2018-09-15T07:52:32Z</time>
      </trkpt>
      <trkpt lat="43.56245" lon="5.67146">
        <ele>592.43</ele>
        <time>2018-09-15T07:52:42Z</time>
      </trkpt>
      <trkpt lat="43.56242" lon="5.67121">
        <ele>589.78</ele>
        <time>2018-09-15T07:52:56Z</time>
      </trkpt>
      <trkpt lat="43.56248" lon="5.67096">
        <ele>592.26</ele>
        <time>2018-09-15T07:53:04Z</time>
      </trkpt>
      <trkpt lat="43.56237" lon="5.67076">
        <ele>589.66</ele>
        <time>2018-09-15T07:53:12Z</time>
      </trkpt>
      <trkpt lat="43.56237" lon="5.67047">
        <ele>588.8</ele>
        <time>2018-09-15T07:53:22Z</time>
      </trkpt>
      <trkpt lat="43.56242" lon="5.67022">
        <ele>591.07</ele>
        <time>2018-09-15T07:53:33Z</time>
      </trkpt>
      <trkpt lat="43.56235" lon="5.66998">
        <ele>592.64</ele>
        <time>2018-09-15T07:53:41Z</time>
      </trkpt>
      <trkpt lat="43.56223" lon="5.66973">
        <ele>594.82</ele>
        <time>2018-09-15T07:53:49Z</time>
      </trkpt>
      <trkpt lat="43.5621" lon="5.66955">
        <ele>597.99</ele>
        <time>2018-09-15T07:54:00Z</time>
      </trkpt>
      <trkpt lat="43.56217" lon="5.66935">
        <ele>611</ele>
      </trkpt>
      <trkpt lat="43.56237" lon="5.66946">
        <ele>611</ele>
      </trkpt>
      <trkpt lat="43.56256" lon="5.66979">
        <ele>611</ele>
      </trkpt>
      <trkpt lat="43.56296" lon="5.67043">
        <ele>608.4</ele>
      </trkpt>
      <trkpt lat="43.56324" lon="5.67057">
        <ele>609.1</ele>
      </trkpt>
      <trkpt lat="43.5635" lon="5.6705">
        <ele>609.39</ele>
        <time>2018-09-15T08:00:04Z</time>
      </trkpt>
      <trkpt lat="43.56369" lon="5.67055">
        <ele>612.1</ele>
        <time>2018-09-15T08:00:14Z</time>
      </trkpt>
      <trkpt lat="43.56387" lon="5.67044">
        <ele>614.62</ele>
        <time>2018-09-15T08:00:23Z</time>
      </trkpt>
      <trkpt lat="43.56405" lon="5.67038">
        <ele>613.86</ele>
        <time>2018-09-15T08:00:27Z</time>
      </trkpt>
      <trkpt lat="43.56427" lon="5.67036">
        <ele>613.86</ele>
        <time>2018-09-15T08:00:37Z</time>
      </trkpt>
      <trkpt lat="43.56443" lon="5.67026">
        <ele>615.21</ele>
        <time>2018-09-15T08:00:46Z</time>
      </trkpt>
      <trkpt lat="43.5644" lon="5.66999">
        <ele>615.43</ele>
        <time>2018-09-15T08:01:09Z</time>
      </trkpt>
      <trkpt lat="43.56449" lon="5.66976">
        <ele>613.94</ele>
        <time>2018-09-15T08:01:16Z</time>
      </trkpt>
      <trkpt lat="43.56461" lon="5.66945">
        <ele>612.83</ele>
        <time>2018-09-15T08:01:38Z</time>
      </trkpt>
      <trkpt lat="43.56481" lon="5.66884">
        <ele>599.8</ele>
      </trkpt>
      <trkpt lat="43.56518" lon="5.66812">
        <ele>575</ele>
      </trkpt>
      <trkpt lat="43.56544" lon="5.66773">
        <ele>569</ele>
      </trkpt>
      <trkpt lat="43.56556" lon="5.6674">
        <ele>565</ele>
      </trkpt>
      <trkpt lat="43.56563" lon="5.66706">
        <ele>565</ele>
      </trkpt>
      <trkpt lat="43.56581" lon="5.66668">
        <ele>556.4</ele>
      </trkpt>
      <trkpt lat="43.56626" lon="5.66637">
        <ele>558</ele>
      </trkpt>
      <trkpt lat="43.56647" lon="5.66618">
        <ele>558.9</ele>
      </trkpt>
      <trkpt lat="43.56664" lon="5.66583">
        <ele>562</ele>
      </trkpt>
      <trkpt lat="43.56701" lon="5.66562">
        <ele>567.72</ele>
        <time>2018-09-15T08:06:46Z</time>
      </trkpt>
      <trkpt lat="43.56794" lon="5.66492">
        <ele>553</ele>
      </trkpt>
      <trkpt lat="43.56852" lon="5.66385">
        <ele>541</ele>
      </trkpt>
      <trkpt lat="43.56893" lon="5.66291">
        <ele>538</ele>
      </trkpt>
      <trkpt lat="43.56895" lon="5.66249">
        <ele>539</ele>
      </trkpt>
      <trkpt lat="43.56913" lon="5.66207">
        <ele>542</ele>
      </trkpt>
      <trkpt lat="43.56987" lon="5.66152">
        <ele>558.15</ele>
        <time>2018-09-15T08:09:12Z</time>
      </trkpt>
      <trkpt lat="43.57005" lon="5.66139">
        <ele>549.63</ele>
        <time>2018-09-15T08:09:15Z</time>
      </trkpt>
      <trkpt lat="43.57019" lon="5.66122">
        <ele>543.15</ele>
        <time>2018-09-15T08:09:19Z</time>
      </trkpt>
      <trkpt lat="43.57037" lon="5.66111">
        <ele>541.07</ele>
        <time>2018-09-15T08:09:23Z</time>
      </trkpt>
      <trkpt lat="43.57054" lon="5.6609">
        <ele>539.49</ele>
        <time>2018-09-15T08:09:27Z</time>
      </trkpt>
      <trkpt lat="43.57066" lon="5.66066">
        <ele>537.49</ele>
        <time>2018-09-15T08:09:32Z</time>
      </trkpt>
      <trkpt lat="43.5707" lon="5.6604">
        <ele>534.72</ele>
        <time>2018-09-15T08:09:37Z</time>
      </trkpt>
      <trkpt lat="43.57072" lon="5.66013">
        <ele>532.24</ele>
        <time>2018-09-15T08:09:45Z</time>
      </trkpt>
      <trkpt lat="43.57079" lon="5.65986">
        <ele>531.56</ele>
        <time>2018-09-15T08:09:53Z</time>
      </trkpt>
      <trkpt lat="43.57084" lon="5.65957">
        <ele>532.34</ele>
        <time>2018-09-15T08:10:00Z</time>
      </trkpt>
      <trkpt lat="43.57092" lon="5.65926">
        <ele>532.56</ele>
        <time>2018-09-15T08:10:05Z</time>
      </trkpt>
      <trkpt lat="43.57097" lon="5.65901">
        <ele>533.09</ele>
        <time>2018-09-15T08:10:08Z</time>
      </trkpt>
      <trkpt lat="43.57107" lon="5.65875">
        <ele>533.81</ele>
        <time>2018-09-15T08:10:13Z</time>
      </trkpt>
      <trkpt lat="43.5711" lon="5.65846">
        <ele>533.47</ele>
        <time>2018-09-15T08:10:17Z</time>
      </trkpt>
      <trkpt lat="43.57105" lon="5.65811">
        <ele>534</ele>
        <time>2018-09-15T08:10:22Z</time>
      </trkpt>
      <trkpt lat="43.57111" lon="5.65787">
        <ele>532.26</ele>
        <time>2018-09-15T08:10:31Z</time>
      </trkpt>
      <trkpt lat="43.57107" lon="5.65763">
        <ele>533.51</ele>
        <time>2018-09-15T08:10:36Z</time>
      </trkpt>
      <trkpt lat="43.57112" lon="5.65737">
        <ele>534.53</ele>
        <time>2018-09-15T08:10:44Z</time>
      </trkpt>
      <trkpt lat="43.57107" lon="5.65711">
        <ele>537.81</ele>
        <time>2018-09-15T08:10:50Z</time>
      </trkpt>
      <trkpt lat="43.57108" lon="5.65684">
        <ele>538.81</ele>
        <time>2018-09-15T08:10:57Z</time>
      </trkpt>
      <trkpt lat="43.57105" lon="5.65654">
        <ele>537.47</ele>
        <time>2018-09-15T08:11:04Z</time>
      </trkpt>
      <trkpt lat="43.57102" lon="5.65628">
        <ele>537.13</ele>
        <time>2018-09-15T08:11:10Z</time>
      </trkpt>
      <trkpt lat="43.57109" lon="5.65602">
        <ele>536.74</ele>
        <time>2018-09-15T08:11:18Z</time>
      </trkpt>
      <trkpt lat="43.57125" lon="5.6559">
        <ele>535.61</ele>
        <time>2018-09-15T08:11:26Z</time>
      </trkpt>
      <trkpt lat="43.57143" lon="5.65582">
        <ele>534.7</ele>
        <time>2018-09-15T08:11:30Z</time>
      </trkpt>
      <trkpt lat="43.57154" lon="5.6556">
        <ele>534.63</ele>
        <time>2018-09-15T08:11:37Z</time>
      </trkpt>
      <trkpt lat="43.57161" lon="5.65537">
        <ele>535.25</ele>
        <time>2018-09-15T08:11:45Z</time>
      </trkpt>
      <trkpt lat="43.57158" lon="5.65504">
        <ele>537.21</ele>
        <time>2018-09-15T08:11:57Z</time>
      </trkpt>
      <trkpt lat="43.57169" lon="5.65468">
        <ele>540.89</ele>
        <time>2018-09-15T08:12:15Z</time>
      </trkpt>
      <trkpt lat="43.57179" lon="5.65409">
        <ele>542.35</ele>
        <time>2018-09-15T08:12:38Z</time>
      </trkpt>
      <trkpt lat="43.57181" lon="5.65384">
        <ele>544.36</ele>
        <time>2018-09-15T08:12:48Z</time>
      </trkpt>
      <trkpt lat="43.57173" lon="5.65357">
        <ele>546.16</ele>
        <time>2018-09-15T08:12:55Z</time>
      </trkpt>
      <trkpt lat="43.5718" lon="5.65332">
        <ele>547.58</ele>
        <time>2018-09-15T08:13:04Z</time>
      </trkpt>
      <trkpt lat="43.57186" lon="5.65307">
        <ele>552.14</ele>
        <time>2018-09-15T08:13:18Z</time>
      </trkpt>
      <trkpt lat="43.5719" lon="5.65282">
        <ele>553.92</ele>
        <time>2018-09-15T08:13:30Z</time>
      </trkpt>
      <trkpt lat="43.57188" lon="5.65255">
        <ele>557.07</ele>
        <time>2018-09-15T08:13:40Z</time>
      </trkpt>
      <trkpt lat="43.5718" lon="5.65229">
        <ele>556.56</ele>
        <time>2018-09-15T08:13:48Z</time>
      </trkpt>
      <trkpt lat="43.57181" lon="5.65203">
        <ele>561.65</ele>
        <time>2018-09-15T08:13:58Z</time>
      </trkpt>
      <trkpt lat="43.57182" lon="5.65177">
        <ele>562.39</ele>
        <time>2018-09-15T08:14:08Z</time>
      </trkpt>
      <trkpt lat="43.57178" lon="5.6515">
        <ele>559.51</ele>
        <time>2018-09-15T08:14:17Z</time>
      </trkpt>
      <trkpt lat="43.57172" lon="5.65125">
        <ele>557.24</ele>
        <time>2018-09-15T08:14:25Z</time>
      </trkpt>
      <trkpt lat="43.57175" lon="5.651">
        <ele>558.77</ele>
        <time>2018-09-15T08:14:36Z</time>
      </trkpt>
      <trkpt lat="43.57176" lon="5.65074">
        <ele>557.25</ele>
        <time>2018-09-15T08:14:45Z</time>
      </trkpt>
      <trkpt lat="43.57173" lon="5.65048">
        <ele>558.08</ele>
        <time>2018-09-15T08:14:55Z</time>
      </trkpt>
      <trkpt lat="43.5717" lon="5.65024">
        <ele>560.21</ele>
        <time>2018-09-15T08:15:06Z</time>
      </trkpt>
      <trkpt lat="43.57165" lon="5.64999">
        <ele>563.27</ele>
        <time>2018-09-15T08:15:14Z</time>
      </trkpt>
      <trkpt lat="43.57168" lon="5.64972">
        <ele>567.47</ele>
        <time>2018-09-15T08:15:25Z</time>
      </trkpt>
      <trkpt lat="43.57165" lon="5.64932">
        <ele>570.27</ele>
        <time>2018-09-15T08:15:39Z</time>
      </trkpt>
      <trkpt lat="43.57163" lon="5.64904">
        <ele>570.6</ele>
        <time>2018-09-15T08:15:51Z</time>
      </trkpt>
      <trkpt lat="43.57186" lon="5.64945">
        <ele>567</ele>
      </trkpt>
      <trkpt lat="43.5719" lon="5.65013">
        <ele>565</ele>
      </trkpt>
      <trkpt lat="43.57215" lon="5.65054">
        <ele>564</ele>
      </trkpt>
      <trkpt lat="43.57225" lon="5.6511">
        <ele>563</ele>
      </trkpt>
      <trkpt lat="43.57235" lon="5.65144">
        <ele>563</ele>
      </trkpt>
      <trkpt lat="43.57256" lon="5.65156">
        <ele>563</ele>
      </trkpt>
      <trkpt lat="43.57267" lon="5.65251">
        <ele>563</ele>
      </trkpt>
      <trkpt lat="43.57267" lon="5.65345">
        <ele>559</ele>
      </trkpt>
      <trkpt lat="43.57259" lon="5.65502">
        <ele>552</ele>
      </trkpt>
      <trkpt lat="43.57288" lon="5.65604">
        <ele>551</ele>
      </trkpt>
      <trkpt lat="43.57292" lon="5.65688">
        <ele>551</ele>
      </trkpt>
      <trkpt lat="43.57284" lon="5.65772">
        <ele>550</ele>
      </trkpt>
      <trkpt lat="43.57312" lon="5.65831">
        <ele>548</ele>
      </trkpt>
      <trkpt lat="43.57338" lon="5.65828">
        <ele>544</ele>
      </trkpt>
      <trkpt lat="43.57347" lon="5.65782">
        <ele>542</ele>
      </trkpt>
      <trkpt lat="43.57364" lon="5.65801">
        <ele>541</ele>
      </trkpt>
      <trkpt lat="43.57371" lon="5.65767">
        <ele>540.6</ele>
      </trkpt>
      <trkpt lat="43.57391" lon="5.65712">
        <ele>540</ele>
      </trkpt>
      <trkpt lat="43.57402" lon="5.65596">
        <ele>549.66</ele>
        <time>2018-09-15T08:25:18Z</time>
      </trkpt>
      <trkpt lat="43.57408" lon="5.65566">
        <ele>544.74</ele>
        <time>2018-09-15T08:27:41Z</time>
      </trkpt>
      <trkpt lat="43.57416" lon="5.65542">
        <ele>542.71</ele>
        <time>2018-09-15T08:27:45Z</time>
      </trkpt>
      <trkpt lat="43.57411" lon="5.65517">
        <ele>542.14</ele>
        <time>2018-09-15T08:27:48Z</time>
      </trkpt>
      <trkpt lat="43.57405" lon="5.65485">
        <ele>541.31</ele>
        <time>2018-09-15T08:27:50Z</time>
      </trkpt>
      <trkpt lat="43.574" lon="5.6546">
        <ele>536.77</ele>
        <time>2018-09-15T08:27:55Z</time>
      </trkpt>
      <trkpt lat="43.574" lon="5.6543">
        <ele>534.87</ele>
        <time>2018-09-15T08:28:03Z</time>
      </trkpt>
      <trkpt lat="43.57401" lon="5.654">
        <ele>533.12</ele>
        <time>2018-09-15T08:28:10Z</time>
      </trkpt>
      <trkpt lat="43.57395" lon="5.65373">
        <ele>532.92</ele>
        <time>2018-09-15T08:28:16Z</time>
      </trkpt>
      <trkpt lat="43.57391" lon="5.65345">
        <ele>530.8</ele>
        <time>2018-09-15T08:28:21Z</time>
      </trkpt>
      <trkpt lat="43.57389" lon="5.65318">
        <ele>532.11</ele>
        <time>2018-09-15T08:28:32Z</time>
      </trkpt>
      <trkpt lat="43.57392" lon="5.65292">
        <ele>533.42</ele>
        <time>2018-09-15T08:28:39Z</time>
      </trkpt>
      <trkpt lat="43.5739" lon="5.65266">
        <ele>533.04</ele>
        <time>2018-09-15T08:28:46Z</time>
      </trkpt>
      <trkpt lat="43.57392" lon="5.65241">
        <ele>534</ele>
        <time>2018-09-15T08:28:53Z</time>
      </trkpt>
      <trkpt lat="43.57395" lon="5.65214">
        <ele>534.45</ele>
        <time>2018-09-15T08:28:59Z</time>
      </trkpt>
      <trkpt lat="43.57398" lon="5.65187">
        <ele>533.55</ele>
        <time>2018-09-15T08:29:06Z</time>
      </trkpt>
      <trkpt lat="43.57399" lon="5.65161">
        <ele>533.69</ele>
        <time>2018-09-15T08:29:13Z</time>
      </trkpt>
      <trkpt lat="43.57391" lon="5.65135">
        <ele>532.32</ele>
        <time>2018-09-15T08:29:19Z</time>
      </trkpt>
      <trkpt lat="43.57394" lon="5.65108">
        <ele>531.21</ele>
        <time>2018-09-15T08:29:27Z</time>
      </trkpt>
      <trkpt lat="43.57389" lon="5.6508">
        <ele>531.51</ele>
        <time>2018-09-15T08:29:34Z</time>
      </trkpt>
      <trkpt lat="43.57384" lon="5.65055">
        <ele>533.65</ele>
        <time>2018-09-15T08:29:43Z</time>
      </trkpt>
      <trkpt lat="43.57387" lon="5.65029">
        <ele>534.74</ele>
        <time>2018-09-15T08:29:51Z</time>
      </trkpt>
      <trkpt lat="43.57386" lon="5.65002">
        <ele>535.33</ele>
        <time>2018-09-15T08:29:58Z</time>
      </trkpt>
      <trkpt lat="43.57379" lon="5.64977">
        <ele>534.42</ele>
        <time>2018-09-15T08:30:05Z</time>
      </trkpt>
      <trkpt lat="43.57373" lon="5.64951">
        <ele>538.52</ele>
        <time>2018-09-15T08:30:12Z</time>
      </trkpt>
      <trkpt lat="43.57372" lon="5.64923">
        <ele>538.23</ele>
        <time>2018-09-15T08:30:19Z</time>
      </trkpt>
      <trkpt lat="43.57368" lon="5.64894">
        <ele>536.52</ele>
        <time>2018-09-15T08:30:26Z</time>
      </trkpt>
      <trkpt lat="43.57366" lon="5.64869">
        <ele>538.96</ele>
        <time>2018-09-15T08:30:34Z</time>
      </trkpt>
      <trkpt lat="43.57358" lon="5.64846">
        <ele>542.88</ele>
        <time>2018-09-15T08:30:42Z</time>
      </trkpt>
      <trkpt lat="43.57346" lon="5.64826">
        <ele>544.68</ele>
        <time>2018-09-15T08:30:58Z</time>
      </trkpt>
      <trkpt lat="43.57339" lon="5.648">
        <ele>548.9</ele>
        <time>2018-09-15T08:31:05Z</time>
      </trkpt>
      <trkpt lat="43.57335" lon="5.64776">
        <ele>545.55</ele>
        <time>2018-09-15T08:31:12Z</time>
      </trkpt>
      <trkpt lat="43.57332" lon="5.6475">
        <ele>548.5</ele>
        <time>2018-09-15T08:31:21Z</time>
      </trkpt>
      <trkpt lat="43.57329" lon="5.64724">
        <ele>545.64</ele>
        <time>2018-09-15T08:31:27Z</time>
      </trkpt>
      <trkpt lat="43.57327" lon="5.64699">
        <ele>545.77</ele>
        <time>2018-09-15T08:31:33Z</time>
      </trkpt>
      <trkpt lat="43.5732" lon="5.64673">
        <ele>547.96</ele>
        <time>2018-09-15T08:31:39Z</time>
      </trkpt>
      <trkpt lat="43.57317" lon="5.64649">
        <ele>547.76</ele>
        <time>2018-09-15T08:31:46Z</time>
      </trkpt>
      <trkpt lat="43.57317" lon="5.64622">
        <ele>547.58</ele>
        <time>2018-09-15T08:31:53Z</time>
      </trkpt>
      <trkpt lat="43.57321" lon="5.64597">
        <ele>546.77</ele>
        <time>2018-09-15T08:31:58Z</time>
      </trkpt>
      <trkpt lat="43.57329" lon="5.64573">
        <ele>548.8</ele>
        <time>2018-09-15T08:32:07Z</time>
      </trkpt>
      <trkpt lat="43.5733" lon="5.64548">
        <ele>545.35</ele>
        <time>2018-09-15T08:32:16Z</time>
      </trkpt>
      <trkpt lat="43.57327" lon="5.64521">
        <ele>550.17</ele>
        <time>2018-09-15T08:32:27Z</time>
      </trkpt>
      <trkpt lat="43.57323" lon="5.64494">
        <ele>551.56</ele>
        <time>2018-09-15T08:32:34Z</time>
      </trkpt>
      <trkpt lat="43.57321" lon="5.64468">
        <ele>550.35</ele>
        <time>2018-09-15T08:32:40Z</time>
      </trkpt>
      <trkpt lat="43.57324" lon="5.64443">
        <ele>552.97</ele>
        <time>2018-09-15T08:32:47Z</time>
      </trkpt>
      <trkpt lat="43.57327" lon="5.64414">
        <ele>553.66</ele>
        <time>2018-09-15T08:32:56Z</time>
      </trkpt>
      <trkpt lat="43.57334" lon="5.64391">
        <ele>554</ele>
        <time>2018-09-15T08:33:02Z</time>
      </trkpt>
      <trkpt lat="43.5733" lon="5.64362">
        <ele>552.76</ele>
        <time>2018-09-15T08:33:08Z</time>
      </trkpt>
      <trkpt lat="43.57329" lon="5.64337">
        <ele>550.41</ele>
        <time>2018-09-15T08:33:17Z</time>
      </trkpt>
      <trkpt lat="43.57327" lon="5.64311">
        <ele>550.89</ele>
        <time>2018-09-15T08:33:27Z</time>
      </trkpt>
      <trkpt lat="43.57329" lon="5.64283">
        <ele>554.46</ele>
        <time>2018-09-15T08:33:35Z</time>
      </trkpt>
      <trkpt lat="43.5733" lon="5.64255">
        <ele>554.73</ele>
        <time>2018-09-15T08:33:42Z</time>
      </trkpt>
      <trkpt lat="43.57334" lon="5.6423">
        <ele>553.35</ele>
        <time>2018-09-15T08:33:49Z</time>
      </trkpt>
      <trkpt lat="43.57355" lon="5.6422">
        <ele>555.97</ele>
        <time>2018-09-15T08:33:56Z</time>
      </trkpt>
      <trkpt lat="43.57373" lon="5.64206">
        <ele>561.21</ele>
        <time>2018-09-15T08:35:31Z</time>
      </trkpt>
      <trkpt lat="43.57385" lon="5.64186">
        <ele>561.39</ele>
        <time>2018-09-15T08:35:37Z</time>
      </trkpt>
      <trkpt lat="43.57395" lon="5.64165">
        <ele>559.97</ele>
        <time>2018-09-15T08:35:44Z</time>
      </trkpt>
      <trkpt lat="43.57408" lon="5.64144">
        <ele>558.73</ele>
        <time>2018-09-15T08:36:00Z</time>
      </trkpt>
      <trkpt lat="43.57412" lon="5.64119">
        <ele>558.26</ele>
        <time>2018-09-15T08:36:10Z</time>
      </trkpt>
      <trkpt lat="43.57422" lon="5.64097">
        <ele>560.17</ele>
        <time>2018-09-15T08:36:23Z</time>
      </trkpt>
      <trkpt lat="43.57427" lon="5.64071">
        <ele>560.55</ele>
        <time>2018-09-15T08:36:44Z</time>
      </trkpt>
      <trkpt lat="43.57431" lon="5.64044">
        <ele>566.7</ele>
        <time>2018-09-15T08:36:54Z</time>
      </trkpt>
      <trkpt lat="43.57428" lon="5.64018">
        <ele>573.95</ele>
        <time>2018-09-15T08:37:06Z</time>
      </trkpt>
      <trkpt lat="43.57435" lon="5.63992">
        <ele>573.52</ele>
        <time>2018-09-15T08:37:16Z</time>
      </trkpt>
      <trkpt lat="43.57443" lon="5.63968">
        <ele>572.95</ele>
        <time>2018-09-15T08:37:26Z</time>
      </trkpt>
      <trkpt lat="43.57441" lon="5.63937">
        <ele>573.2</ele>
        <time>2018-09-15T08:37:34Z</time>
      </trkpt>
      <trkpt lat="43.57449" lon="5.63914">
        <ele>575.1</ele>
        <time>2018-09-15T08:37:46Z</time>
      </trkpt>
      <trkpt lat="43.57453" lon="5.63889">
        <ele>579.05</ele>
        <time>2018-09-15T08:37:58Z</time>
      </trkpt>
      <trkpt lat="43.57458" lon="5.63863">
        <ele>579.7</ele>
        <time>2018-09-15T08:38:09Z</time>
      </trkpt>
      <trkpt lat="43.57459" lon="5.63834">
        <ele>580.8</ele>
        <time>2018-09-15T08:38:19Z</time>
      </trkpt>
      <trkpt lat="43.57462" lon="5.63805">
        <ele>583.45</ele>
        <time>2018-09-15T08:38:32Z</time>
      </trkpt>
      <trkpt lat="43.57466" lon="5.6378">
        <ele>580.69</ele>
        <time>2018-09-15T08:38:42Z</time>
      </trkpt>
      <trkpt lat="43.57466" lon="5.63753">
        <ele>579.18</ele>
        <time>2018-09-15T08:38:48Z</time>
      </trkpt>
      <trkpt lat="43.57467" lon="5.63724">
        <ele>578.91</ele>
        <time>2018-09-15T08:38:57Z</time>
      </trkpt>
      <trkpt lat="43.57466" lon="5.63699">
        <ele>576.91</ele>
        <time>2018-09-15T08:39:07Z</time>
      </trkpt>
      <trkpt lat="43.5746" lon="5.63671">
        <ele>575.27</ele>
        <time>2018-09-15T08:39:15Z</time>
      </trkpt>
      <trkpt lat="43.57453" lon="5.63647">
        <ele>576.05</ele>
        <time>2018-09-15T08:39:22Z</time>
      </trkpt>
      <trkpt lat="43.57447" lon="5.63619">
        <ele>573.87</ele>
        <time>2018-09-15T08:39:30Z</time>
      </trkpt>
      <trkpt lat="43.57442" lon="5.63595">
        <ele>576.59</ele>
        <time>2018-09-15T08:39:36Z</time>
      </trkpt>
      <trkpt lat="43.57424" lon="5.63579">
        <ele>579.05</ele>
        <time>2018-09-15T08:39:49Z</time>
      </trkpt>
      <trkpt lat="43.57404" lon="5.63579">
        <ele>581.51</ele>
        <time>2018-09-15T08:39:54Z</time>
      </trkpt>
      <trkpt lat="43.57383" lon="5.63579">
        <ele>577.82</ele>
        <time>2018-09-15T08:39:58Z</time>
      </trkpt>
      <trkpt lat="43.5737" lon="5.63556">
        <ele>575.33</ele>
        <time>2018-09-15T08:40:03Z</time>
      </trkpt>
      <trkpt lat="43.57365" lon="5.63531">
        <ele>574.27</ele>
        <time>2018-09-15T08:40:07Z</time>
      </trkpt>
      <trkpt lat="43.57359" lon="5.63503">
        <ele>576.34</ele>
        <time>2018-09-15T08:40:12Z</time>
      </trkpt>
      <trkpt lat="43.57349" lon="5.63478">
        <ele>576.2</ele>
        <time>2018-09-15T08:40:17Z</time>
      </trkpt>
      <trkpt lat="43.57346" lon="5.63453">
        <ele>574.65</ele>
        <time>2018-09-15T08:40:23Z</time>
      </trkpt>
      <trkpt lat="43.57343" lon="5.63425">
        <ele>576.48</ele>
        <time>2018-09-15T08:40:28Z</time>
      </trkpt>
      <trkpt lat="43.57348" lon="5.634">
        <ele>577.51</ele>
        <time>2018-09-15T08:40:34Z</time>
      </trkpt>
      <trkpt lat="43.57337" lon="5.63369">
        <ele>577.73</ele>
        <time>2018-09-15T08:40:39Z</time>
      </trkpt>
      <trkpt lat="43.57333" lon="5.6334">
        <ele>582.13</ele>
        <time>2018-09-15T08:40:47Z</time>
      </trkpt>
      <trkpt lat="43.57336" lon="5.63313">
        <ele>580.6</ele>
        <time>2018-09-15T08:40:54Z</time>
      </trkpt>
      <trkpt lat="43.57338" lon="5.63286">
        <ele>579.02</ele>
        <time>2018-09-15T08:40:59Z</time>
      </trkpt>
      <trkpt lat="43.57335" lon="5.63259">
        <ele>580.95</ele>
        <time>2018-09-15T08:41:04Z</time>
      </trkpt>
      <trkpt lat="43.57321" lon="5.63241">
        <ele>581.35</ele>
        <time>2018-09-15T08:41:12Z</time>
      </trkpt>
      <trkpt lat="43.57309" lon="5.63221">
        <ele>582.95</ele>
        <time>2018-09-15T08:44:25Z</time>
      </trkpt>
      <trkpt lat="43.57289" lon="5.63217">
        <ele>586.22</ele>
        <time>2018-09-15T08:44:34Z</time>
      </trkpt>
      <trkpt lat="43.57274" lon="5.63231">
        <ele>588.77</ele>
        <time>2018-09-15T08:44:39Z</time>
      </trkpt>
      <trkpt lat="43.57267" lon="5.63258">
        <ele>594.95</ele>
        <time>2018-09-15T08:44:47Z</time>
      </trkpt>
      <trkpt lat="43.5726" lon="5.63284">
        <ele>596.93</ele>
        <time>2018-09-15T08:44:53Z</time>
      </trkpt>
      <trkpt lat="43.57254" lon="5.6331">
        <ele>598.86</ele>
        <time>2018-09-15T08:44:59Z</time>
      </trkpt>
      <trkpt lat="43.57251" lon="5.63337">
        <ele>599.09</ele>
        <time>2018-09-15T08:45:05Z</time>
      </trkpt>
      <trkpt lat="43.57248" lon="5.63362">
        <ele>604.08</ele>
        <time>2018-09-15T08:45:09Z</time>
      </trkpt>
      <trkpt lat="43.57244" lon="5.63388">
        <ele>606.07</ele>
        <time>2018-09-15T08:45:14Z</time>
      </trkpt>
      <trkpt lat="43.57242" lon="5.63416">
        <ele>602.54</ele>
        <time>2018-09-15T08:45:20Z</time>
      </trkpt>
      <trkpt lat="43.57236" lon="5.6344">
        <ele>603.78</ele>
        <time>2018-09-15T08:45:25Z</time>
      </trkpt>
      <trkpt lat="43.57226" lon="5.63466">
        <ele>612.47</ele>
        <time>2018-09-15T08:45:30Z</time>
      </trkpt>
      <trkpt lat="43.5722" lon="5.6349">
        <ele>611.64</ele>
        <time>2018-09-15T08:45:35Z</time>
      </trkpt>
      <trkpt lat="43.57212" lon="5.63513">
        <ele>611.66</ele>
        <time>2018-09-15T08:45:40Z</time>
      </trkpt>
      <trkpt lat="43.57209" lon="5.63538">
        <ele>611.9</ele>
        <time>2018-09-15T08:45:45Z</time>
      </trkpt>
      <trkpt lat="43.57204" lon="5.63566">
        <ele>612.11</ele>
        <time>2018-09-15T08:45:51Z</time>
      </trkpt>
      <trkpt lat="43.57193" lon="5.63592">
        <ele>609.24</ele>
        <time>2018-09-15T08:45:56Z</time>
      </trkpt>
      <trkpt lat="43.57188" lon="5.6362">
        <ele>608.47</ele>
        <time>2018-09-15T08:46:04Z</time>
      </trkpt>
      <trkpt lat="43.57178" lon="5.63647">
        <ele>606.87</ele>
        <time>2018-09-15T08:46:13Z</time>
      </trkpt>
      <trkpt lat="43.57173" lon="5.63674">
        <ele>606.17</ele>
        <time>2018-09-15T08:46:21Z</time>
      </trkpt>
      <trkpt lat="43.57164" lon="5.63697">
        <ele>610.17</ele>
        <time>2018-09-15T08:46:29Z</time>
      </trkpt>
      <trkpt lat="43.57148" lon="5.63711">
        <ele>612.44</ele>
        <time>2018-09-15T08:46:39Z</time>
      </trkpt>
      <trkpt lat="43.57132" lon="5.63724">
        <ele>609.88</ele>
        <time>2018-09-15T08:46:54Z</time>
      </trkpt>
      <trkpt lat="43.57131" lon="5.63749">
        <ele>603.7</ele>
        <time>2018-09-15T08:47:09Z</time>
      </trkpt>
      <trkpt lat="43.57131" lon="5.63777">
        <ele>605.15</ele>
        <time>2018-09-15T08:47:18Z</time>
      </trkpt>
      <trkpt lat="43.57131" lon="5.63802">
        <ele>608.01</ele>
        <time>2018-09-15T08:47:27Z</time>
      </trkpt>
      <trkpt lat="43.57127" lon="5.63827">
        <ele>612.79</ele>
        <time>2018-09-15T08:47:37Z</time>
      </trkpt>
      <trkpt lat="43.57125" lon="5.63852">
        <ele>611.7</ele>
        <time>2018-09-15T08:47:47Z</time>
      </trkpt>
      <trkpt lat="43.57123" lon="5.63879">
        <ele>615.95</ele>
        <time>2018-09-15T08:47:56Z</time>
      </trkpt>
      <trkpt lat="43.57117" lon="5.63904">
        <ele>617.15</ele>
        <time>2018-09-15T08:48:05Z</time>
      </trkpt>
      <trkpt lat="43.57108" lon="5.63928">
        <ele>619.53</ele>
        <time>2018-09-15T08:48:13Z</time>
      </trkpt>
      <trkpt lat="43.57101" lon="5.63955">
        <ele>621.28</ele>
        <time>2018-09-15T08:48:23Z</time>
      </trkpt>
      <trkpt lat="43.57094" lon="5.63978">
        <ele>623.78</ele>
        <time>2018-09-15T08:48:31Z</time>
      </trkpt>
      <trkpt lat="43.57085" lon="5.64001">
        <ele>625.77</ele>
        <time>2018-09-15T08:48:43Z</time>
      </trkpt>
      <trkpt lat="43.57078" lon="5.64026">
        <ele>629.49</ele>
        <time>2018-09-15T08:48:53Z</time>
      </trkpt>
      <trkpt lat="43.57071" lon="5.64051">
        <ele>630.81</ele>
        <time>2018-09-15T08:49:02Z</time>
      </trkpt>
      <trkpt lat="43.57066" lon="5.64076">
        <ele>629.54</ele>
        <time>2018-09-15T08:49:11Z</time>
      </trkpt>
      <trkpt lat="43.57055" lon="5.64101">
        <ele>627.35</ele>
        <time>2018-09-15T08:49:20Z</time>
      </trkpt>
      <trkpt lat="43.57048" lon="5.64124">
        <ele>630.18</ele>
        <time>2018-09-15T08:49:28Z</time>
      </trkpt>
      <trkpt lat="43.5704" lon="5.64147">
        <ele>634.14</ele>
        <time>2018-09-15T08:49:36Z</time>
      </trkpt>
      <trkpt lat="43.57032" lon="5.64171">
        <ele>638.68</ele>
        <time>2018-09-15T08:49:44Z</time>
      </trkpt>
      <trkpt lat="43.5703" lon="5.64198">
        <ele>641.03</ele>
        <time>2018-09-15T08:49:52Z</time>
      </trkpt>
      <trkpt lat="43.57024" lon="5.64223">
        <ele>643.12</ele>
        <time>2018-09-15T08:50:00Z</time>
      </trkpt>
      <trkpt lat="43.57016" lon="5.64247">
        <ele>641.19</ele>
        <time>2018-09-15T08:50:07Z</time>
      </trkpt>
      <trkpt lat="43.57009" lon="5.64273">
        <ele>644.95</ele>
        <time>2018-09-15T08:50:16Z</time>
      </trkpt>
      <trkpt lat="43.57003" lon="5.64297">
        <ele>645.4</ele>
        <time>2018-09-15T08:50:24Z</time>
      </trkpt>
      <trkpt lat="43.56996" lon="5.64322">
        <ele>649.55</ele>
        <time>2018-09-15T08:50:32Z</time>
      </trkpt>
      <trkpt lat="43.56989" lon="5.64348">
        <ele>652.69</ele>
        <time>2018-09-15T08:50:40Z</time>
      </trkpt>
      <trkpt lat="43.56981" lon="5.64374">
        <ele>652.76</ele>
        <time>2018-09-15T08:50:48Z</time>
      </trkpt>
      <trkpt lat="43.56972" lon="5.64399">
        <ele>650.08</ele>
        <time>2018-09-15T08:50:56Z</time>
      </trkpt>
      <trkpt lat="43.56961" lon="5.64422">
        <ele>651.89</ele>
        <time>2018-09-15T08:51:03Z</time>
      </trkpt>
      <trkpt lat="43.56951" lon="5.64444">
        <ele>648.98</ele>
        <time>2018-09-15T08:51:09Z</time>
      </trkpt>
      <trkpt lat="43.56936" lon="5.64461">
        <ele>650.07</ele>
        <time>2018-09-15T08:51:15Z</time>
      </trkpt>
      <trkpt lat="43.56919" lon="5.64473">
        <ele>651.27</ele>
        <time>2018-09-15T08:51:22Z</time>
      </trkpt>
      <trkpt lat="43.569" lon="5.64484">
        <ele>656.78</ele>
        <time>2018-09-15T08:56:22Z</time>
      </trkpt>
      <trkpt lat="43.56893" lon="5.64511">
        <ele>660.35</ele>
        <time>2018-09-15T08:56:28Z</time>
      </trkpt>
      <trkpt lat="43.5688" lon="5.64531">
        <ele>657.85</ele>
        <time>2018-09-15T08:56:37Z</time>
      </trkpt>
      <trkpt lat="43.56864" lon="5.64542">
        <ele>659.03</ele>
        <time>2018-09-15T08:56:42Z</time>
      </trkpt>
      <trkpt lat="43.56845" lon="5.64543">
        <ele>660.25</ele>
        <time>2018-09-15T08:56:50Z</time>
      </trkpt>
      <trkpt lat="43.56826" lon="5.64542">
        <ele>661.25</ele>
        <time>2018-09-15T08:57:00Z</time>
      </trkpt>
      <trkpt lat="43.56807" lon="5.6453">
        <ele>659.82</ele>
        <time>2018-09-15T08:57:08Z</time>
      </trkpt>
      <trkpt lat="43.56788" lon="5.64518">
        <ele>653.8</ele>
        <time>2018-09-15T08:57:16Z</time>
      </trkpt>
      <trkpt lat="43.5677" lon="5.64509">
        <ele>655.69</ele>
        <time>2018-09-15T08:57:24Z</time>
      </trkpt>
      <trkpt lat="43.56751" lon="5.64503">
        <ele>655.98</ele>
        <time>2018-09-15T08:57:32Z</time>
      </trkpt>
      <trkpt lat="43.56732" lon="5.64501">
        <ele>657.01</ele>
        <time>2018-09-15T08:57:38Z</time>
      </trkpt>
      <trkpt lat="43.56714" lon="5.64494">
        <ele>663.27</ele>
        <time>2018-09-15T08:57:45Z</time>
      </trkpt>
      <trkpt lat="43.56694" lon="5.64487">
        <ele>667.15</ele>
        <time>2018-09-15T08:57:52Z</time>
      </trkpt>
      <trkpt lat="43.56677" lon="5.64478">
        <ele>666.75</ele>
        <time>2018-09-15T08:57:57Z</time>
      </trkpt>
      <trkpt lat="43.56656" lon="5.6447">
        <ele>666.05</ele>
        <time>2018-09-15T08:58:03Z</time>
      </trkpt>
      <trkpt lat="43.56636" lon="5.64464">
        <ele>666.64</ele>
        <time>2018-09-15T08:58:08Z</time>
      </trkpt>
      <trkpt lat="43.56615" lon="5.64457">
        <ele>665.79</ele>
        <time>2018-09-15T08:58:13Z</time>
      </trkpt>
      <trkpt lat="43.56597" lon="5.64451">
        <ele>666.73</ele>
        <time>2018-09-15T08:58:18Z</time>
      </trkpt>
      <trkpt lat="43.56577" lon="5.64442">
        <ele>665.88</ele>
        <time>2018-09-15T08:58:23Z</time>
      </trkpt>
      <trkpt lat="43.56559" lon="5.64435">
        <ele>664.06</ele>
        <time>2018-09-15T08:58:28Z</time>
      </trkpt>
      <trkpt lat="43.5654" lon="5.64424">
        <ele>664.13</ele>
        <time>2018-09-15T08:58:33Z</time>
      </trkpt>
      <trkpt lat="43.5652" lon="5.6442">
        <ele>663.87</ele>
        <time>2018-09-15T08:58:39Z</time>
      </trkpt>
      <trkpt lat="43.56501" lon="5.64414">
        <ele>663.72</ele>
        <time>2018-09-15T08:58:42Z</time>
      </trkpt>
      <trkpt lat="43.56484" lon="5.64404">
        <ele>661.09</ele>
        <time>2018-09-15T08:58:49Z</time>
      </trkpt>
      <trkpt lat="43.56464" lon="5.64398">
        <ele>661.3</ele>
        <time>2018-09-15T08:58:53Z</time>
      </trkpt>
      <trkpt lat="43.56447" lon="5.6441">
        <ele>658.43</ele>
        <time>2018-09-15T08:58:58Z</time>
      </trkpt>
      <trkpt lat="43.56438" lon="5.64446">
        <ele>655.12</ele>
        <time>2018-09-15T08:59:04Z</time>
      </trkpt>
      <trkpt lat="43.5643" lon="5.64469">
        <ele>655.15</ele>
        <time>2018-09-15T08:59:07Z</time>
      </trkpt>
      <trkpt lat="43.56432" lon="5.64494">
        <ele>653.53</ele>
        <time>2018-09-15T08:59:11Z</time>
      </trkpt>
      <trkpt lat="43.56442" lon="5.6452">
        <ele>647.14</ele>
        <time>2018-09-15T08:59:18Z</time>
      </trkpt>
      <trkpt lat="43.56453" lon="5.6454">
        <ele>646.33</ele>
        <time>2018-09-15T08:59:22Z</time>
      </trkpt>
      <trkpt lat="43.56459" lon="5.64568">
        <ele>646.68</ele>
        <time>2018-09-15T08:59:26Z</time>
      </trkpt>
      <trkpt lat="43.56467" lon="5.6459">
        <ele>645.7</ele>
        <time>2018-09-15T08:59:30Z</time>
      </trkpt>
      <trkpt lat="43.5647" lon="5.64622">
        <ele>648.42</ele>
        <time>2018-09-15T08:59:36Z</time>
      </trkpt>
      <trkpt lat="43.5647" lon="5.64647">
        <ele>645.45</ele>
        <time>2018-09-15T08:59:40Z</time>
      </trkpt>
      <trkpt lat="43.56478" lon="5.6467">
        <ele>644.53</ele>
        <time>2018-09-15T08:59:45Z</time>
      </trkpt>
      <trkpt lat="43.56486" lon="5.64693">
        <ele>645.54</ele>
        <time>2018-09-15T08:59:49Z</time>
      </trkpt>
      <trkpt lat="43.56483" lon="5.6472">
        <ele>646.3</ele>
        <time>2018-09-15T08:59:53Z</time>
      </trkpt>
      <trkpt lat="43.56469" lon="5.64741">
        <ele>648.3</ele>
        <time>2018-09-15T08:59:55Z</time>
      </trkpt>
      <trkpt lat="43.56455" lon="5.64758">
        <ele>646.4</ele>
        <time>2018-09-15T08:59:58Z</time>
      </trkpt>
      <trkpt lat="43.56441" lon="5.64777">
        <ele>645.68</ele>
        <time>2018-09-15T09:00:02Z</time>
      </trkpt>
      <trkpt lat="43.56425" lon="5.64799">
        <ele>642.97</ele>
        <time>2018-09-15T09:00:05Z</time>
      </trkpt>
      <trkpt lat="43.56411" lon="5.64823">
        <ele>643.67</ele>
        <time>2018-09-15T09:00:10Z</time>
      </trkpt>
      <trkpt lat="43.56393" lon="5.64837">
        <ele>640.44</ele>
        <time>2018-09-15T09:00:14Z</time>
      </trkpt>
      <trkpt lat="43.56375" lon="5.64839">
        <ele>640.06</ele>
        <time>2018-09-15T09:00:17Z</time>
      </trkpt>
      <trkpt lat="43.56357" lon="5.64832">
        <ele>645.5</ele>
        <time>2018-09-15T09:00:21Z</time>
      </trkpt>
      <trkpt lat="43.56337" lon="5.64824">
        <ele>645</ele>
        <time>2018-09-15T09:00:27Z</time>
      </trkpt>
      <trkpt lat="43.5632" lon="5.64804">
        <ele>643.49</ele>
        <time>2018-09-15T09:00:33Z</time>
      </trkpt>
      <trkpt lat="43.56304" lon="5.64787">
        <ele>643</ele>
        <time>2018-09-15T09:00:39Z</time>
      </trkpt>
      <trkpt lat="43.56293" lon="5.64765">
        <ele>642.24</ele>
        <time>2018-09-15T09:00:43Z</time>
      </trkpt>
      <trkpt lat="43.56283" lon="5.64742">
        <ele>640.28</ele>
        <time>2018-09-15T09:00:49Z</time>
      </trkpt>
      <trkpt lat="43.56271" lon="5.64719">
        <ele>634.3</ele>
        <time>2018-09-15T09:00:54Z</time>
      </trkpt>
      <trkpt lat="43.56252" lon="5.64712">
        <ele>636.78</ele>
        <time>2018-09-15T09:00:58Z</time>
      </trkpt>
      <trkpt lat="43.56233" lon="5.64717">
        <ele>638.13</ele>
        <time>2018-09-15T09:01:01Z</time>
      </trkpt>
      <trkpt lat="43.56209" lon="5.64722">
        <ele>635.41</ele>
        <time>2018-09-15T09:01:06Z</time>
      </trkpt>
      <trkpt lat="43.56188" lon="5.64724">
        <ele>634.44</ele>
        <time>2018-09-15T09:01:09Z</time>
      </trkpt>
      <trkpt lat="43.56167" lon="5.64721">
        <ele>634.89</ele>
        <time>2018-09-15T09:01:13Z</time>
      </trkpt>
      <trkpt lat="43.56148" lon="5.64729">
        <ele>632.41</ele>
        <time>2018-09-15T09:01:22Z</time>
      </trkpt>
      <trkpt lat="43.56135" lon="5.6475">
        <ele>633.59</ele>
        <time>2018-09-15T09:01:32Z</time>
      </trkpt>
      <trkpt lat="43.56118" lon="5.64765">
        <ele>637</ele>
        <time>2018-09-15T09:01:43Z</time>
      </trkpt>
      <trkpt lat="43.56108" lon="5.64786">
        <ele>643.34</ele>
        <time>2018-09-15T09:01:52Z</time>
      </trkpt>
      <trkpt lat="43.56105" lon="5.64811">
        <ele>647.83</ele>
        <time>2018-09-15T09:02:02Z</time>
      </trkpt>
      <trkpt lat="43.56104" lon="5.64836">
        <ele>650.67</ele>
        <time>2018-09-15T09:02:13Z</time>
      </trkpt>
      <trkpt lat="43.56115" lon="5.64858">
        <ele>649.86</ele>
        <time>2018-09-15T09:02:21Z</time>
      </trkpt>
      <trkpt lat="43.56124" lon="5.64879">
        <ele>651.41</ele>
        <time>2018-09-15T09:02:27Z</time>
      </trkpt>
      <trkpt lat="43.56127" lon="5.64904">
        <ele>649.51</ele>
        <time>2018-09-15T09:02:33Z</time>
      </trkpt>
      <trkpt lat="43.56125" lon="5.64933">
        <ele>649.88</ele>
        <time>2018-09-15T09:02:40Z</time>
      </trkpt>
      <trkpt lat="43.56126" lon="5.64958">
        <ele>652.25</ele>
        <time>2018-09-15T09:02:46Z</time>
      </trkpt>
      <trkpt lat="43.56129" lon="5.64984">
        <ele>655.27</ele>
        <time>2018-09-15T09:02:51Z</time>
      </trkpt>
      <trkpt lat="43.56134" lon="5.65013">
        <ele>656.6</ele>
        <time>2018-09-15T09:02:56Z</time>
      </trkpt>
      <trkpt lat="43.5614" lon="5.65038">
        <ele>656.46</ele>
        <time>2018-09-15T09:03:00Z</time>
      </trkpt>
      <trkpt lat="43.56147" lon="5.65063">
        <ele>654.44</ele>
        <time>2018-09-15T09:03:04Z</time>
      </trkpt>
      <trkpt lat="43.56152" lon="5.65088">
        <ele>654.83</ele>
        <time>2018-09-15T09:03:08Z</time>
      </trkpt>
      <trkpt lat="43.56158" lon="5.65115">
        <ele>655.9</ele>
        <time>2018-09-15T09:03:13Z</time>
      </trkpt>
      <trkpt lat="43.56167" lon="5.65139">
        <ele>653.61</ele>
        <time>2018-09-15T09:03:19Z</time>
      </trkpt>
      <trkpt lat="43.56176" lon="5.65163">
        <ele>651.4</ele>
        <time>2018-09-15T09:03:25Z</time>
      </trkpt>
      <trkpt lat="43.56178" lon="5.65191">
        <ele>651.09</ele>
        <time>2018-09-15T09:03:31Z</time>
      </trkpt>
      <trkpt lat="43.56179" lon="5.6522">
        <ele>651.13</ele>
        <time>2018-09-15T09:03:37Z</time>
      </trkpt>
      <trkpt lat="43.5618" lon="5.65248">
        <ele>652.53</ele>
        <time>2018-09-15T09:03:42Z</time>
      </trkpt>
      <trkpt lat="43.56183" lon="5.65276">
        <ele>652.26</ele>
        <time>2018-09-15T09:03:48Z</time>
      </trkpt>
      <trkpt lat="43.56185" lon="5.65304">
        <ele>653.02</ele>
        <time>2018-09-15T09:03:54Z</time>
      </trkpt>
      <trkpt lat="43.56185" lon="5.65329">
        <ele>656.11</ele>
        <time>2018-09-15T09:03:59Z</time>
      </trkpt>
      <trkpt lat="43.56182" lon="5.65356">
        <ele>656.39</ele>
        <time>2018-09-15T09:04:04Z</time>
      </trkpt>
      <trkpt lat="43.5618" lon="5.65383">
        <ele>654.99</ele>
        <time>2018-09-15T09:04:11Z</time>
      </trkpt>
      <trkpt lat="43.56175" lon="5.65411">
        <ele>659.14</ele>
        <time>2018-09-15T09:04:17Z</time>
      </trkpt>
      <trkpt lat="43.56174" lon="5.65439">
        <ele>659</ele>
        <time>2018-09-15T09:04:23Z</time>
      </trkpt>
      <trkpt lat="43.56174" lon="5.65468">
        <ele>658.94</ele>
        <time>2018-09-15T09:04:28Z</time>
      </trkpt>
      <trkpt lat="43.56173" lon="5.65496">
        <ele>659.12</ele>
        <time>2018-09-15T09:04:33Z</time>
      </trkpt>
      <trkpt lat="43.56169" lon="5.65525">
        <ele>657.16</ele>
        <time>2018-09-15T09:04:38Z</time>
      </trkpt>
      <trkpt lat="43.56166" lon="5.65552">
        <ele>656.27</ele>
        <time>2018-09-15T09:04:42Z</time>
      </trkpt>
      <trkpt lat="43.56165" lon="5.65583">
        <ele>656.33</ele>
        <time>2018-09-15T09:04:46Z</time>
      </trkpt>
      <trkpt lat="43.56164" lon="5.65612">
        <ele>655.06</ele>
        <time>2018-09-15T09:04:50Z</time>
      </trkpt>
      <trkpt lat="43.56165" lon="5.65642">
        <ele>656.69</ele>
        <time>2018-09-15T09:04:54Z</time>
      </trkpt>
      <trkpt lat="43.56162" lon="5.65672">
        <ele>655.63</ele>
        <time>2018-09-15T09:04:58Z</time>
      </trkpt>
      <trkpt lat="43.56157" lon="5.65703">
        <ele>655.92</ele>
        <time>2018-09-15T09:05:02Z</time>
      </trkpt>
      <trkpt lat="43.5615" lon="5.65728">
        <ele>656.89</ele>
        <time>2018-09-15T09:05:06Z</time>
      </trkpt>
      <trkpt lat="43.56148" lon="5.65758">
        <ele>654.2</ele>
        <time>2018-09-15T09:05:10Z</time>
      </trkpt>
      <trkpt lat="43.56148" lon="5.65787">
        <ele>654.56</ele>
        <time>2018-09-15T09:05:14Z</time>
      </trkpt>
      <trkpt lat="43.56148" lon="5.65818">
        <ele>652.44</ele>
        <time>2018-09-15T09:05:18Z</time>
      </trkpt>
      <trkpt lat="43.56147" lon="5.65846">
        <ele>653.67</ele>
        <time>2018-09-15T09:05:21Z</time>
      </trkpt>
      <trkpt lat="43.56144" lon="5.65871">
        <ele>650.76</ele>
        <time>2018-09-15T09:05:24Z</time>
      </trkpt>
      <trkpt lat="43.56141" lon="5.65901">
        <ele>649.67</ele>
        <time>2018-09-15T09:05:28Z</time>
      </trkpt>
      <trkpt lat="43.56142" lon="5.65926">
        <ele>649.85</ele>
        <time>2018-09-15T09:05:31Z</time>
      </trkpt>
      <trkpt lat="43.56144" lon="5.65956">
        <ele>650.21</ele>
        <time>2018-09-15T09:05:35Z</time>
      </trkpt>
      <trkpt lat="43.56143" lon="5.65982">
        <ele>649.35</ele>
        <time>2018-09-15T09:05:38Z</time>
      </trkpt>
      <trkpt lat="43.56143" lon="5.66007">
        <ele>651.03</ele>
        <time>2018-09-15T09:05:41Z</time>
      </trkpt>
      <trkpt lat="43.56143" lon="5.66036">
        <ele>650.17</ele>
        <time>2018-09-15T09:05:45Z</time>
      </trkpt>
      <trkpt lat="43.56138" lon="5.66064">
        <ele>650.12</ele>
        <time>2018-09-15T09:05:49Z</time>
      </trkpt>
      <trkpt lat="43.56136" lon="5.66089">
        <ele>649.28</ele>
        <time>2018-09-15T09:05:53Z</time>
      </trkpt>
      <trkpt lat="43.56136" lon="5.66117">
        <ele>647.86</ele>
        <time>2018-09-15T09:05:57Z</time>
      </trkpt>
      <trkpt lat="43.56135" lon="5.66147">
        <ele>645.54</ele>
        <time>2018-09-15T09:06:01Z</time>
      </trkpt>
      <trkpt lat="43.56135" lon="5.66177">
        <ele>644.06</ele>
        <time>2018-09-15T09:06:05Z</time>
      </trkpt>
      <trkpt lat="43.56132" lon="5.66202">
        <ele>643.51</ele>
        <time>2018-09-15T09:06:08Z</time>
      </trkpt>
      <trkpt lat="43.56128" lon="5.66226">
        <ele>644.83</ele>
        <time>2018-09-15T09:06:11Z</time>
      </trkpt>
      <trkpt lat="43.56126" lon="5.66258">
        <ele>645.77</ele>
        <time>2018-09-15T09:06:15Z</time>
      </trkpt>
      <trkpt lat="43.56124" lon="5.66284">
        <ele>641.46</ele>
        <time>2018-09-15T09:06:18Z</time>
      </trkpt>
      <trkpt lat="43.56123" lon="5.66311">
        <ele>637.82</ele>
        <time>2018-09-15T09:06:21Z</time>
      </trkpt>
      <trkpt lat="43.56122" lon="5.66343">
        <ele>635.3</ele>
        <time>2018-09-15T09:06:24Z</time>
      </trkpt>
      <trkpt lat="43.56116" lon="5.66373">
        <ele>635.74</ele>
        <time>2018-09-15T09:06:27Z</time>
      </trkpt>
      <trkpt lat="43.56113" lon="5.66405">
        <ele>637.28</ele>
        <time>2018-09-15T09:06:30Z</time>
      </trkpt>
      <trkpt lat="43.56109" lon="5.66435">
        <ele>638.19</ele>
        <time>2018-09-15T09:06:33Z</time>
      </trkpt>
      <trkpt lat="43.561" lon="5.66461">
        <ele>639.36</ele>
        <time>2018-09-15T09:06:36Z</time>
      </trkpt>
      <trkpt lat="43.56092" lon="5.66488">
        <ele>639.59</ele>
        <time>2018-09-15T09:06:39Z</time>
      </trkpt>
      <trkpt lat="43.56086" lon="5.66518">
        <ele>638.74</ele>
        <time>2018-09-15T09:06:41Z</time>
      </trkpt>
      <trkpt lat="43.56082" lon="5.66546">
        <ele>637.69</ele>
        <time>2018-09-15T09:06:45Z</time>
      </trkpt>
      <trkpt lat="43.56079" lon="5.66574">
        <ele>636.28</ele>
        <time>2018-09-15T09:06:48Z</time>
      </trkpt>
      <trkpt lat="43.56076" lon="5.66602">
        <ele>635.37</ele>
        <time>2018-09-15T09:06:51Z</time>
      </trkpt>
      <trkpt lat="43.56072" lon="5.66634">
        <ele>634.4</ele>
        <time>2018-09-15T09:06:54Z</time>
      </trkpt>
      <trkpt lat="43.56069" lon="5.66666">
        <ele>631.3</ele>
        <time>2018-09-15T09:06:57Z</time>
      </trkpt>
      <trkpt lat="43.5607" lon="5.66698">
        <ele>630.3</ele>
        <time>2018-09-15T09:07:00Z</time>
      </trkpt>
      <trkpt lat="43.56077" lon="5.66722">
        <ele>630.8</ele>
        <time>2018-09-15T09:07:02Z</time>
      </trkpt>
      <trkpt lat="43.56083" lon="5.66747">
        <ele>629.53</ele>
        <time>2018-09-15T09:07:04Z</time>
      </trkpt>
      <trkpt lat="43.5609" lon="5.66781">
        <ele>629.01</ele>
        <time>2018-09-15T09:07:07Z</time>
      </trkpt>
      <trkpt lat="43.56096" lon="5.66805">
        <ele>628.06</ele>
        <time>2018-09-15T09:07:09Z</time>
      </trkpt>
      <trkpt lat="43.56102" lon="5.6684">
        <ele>627.45</ele>
        <time>2018-09-15T09:07:12Z</time>
      </trkpt>
      <trkpt lat="43.56103" lon="5.66874">
        <ele>626.7</ele>
        <time>2018-09-15T09:07:15Z</time>
      </trkpt>
      <trkpt lat="43.56101" lon="5.66911">
        <ele>624.05</ele>
        <time>2018-09-15T09:07:18Z</time>
      </trkpt>
      <trkpt lat="43.56102" lon="5.66949">
        <ele>622.46</ele>
        <time>2018-09-15T09:07:21Z</time>
      </trkpt>
      <trkpt lat="43.56103" lon="5.66978">
        <ele>622.01</ele>
        <time>2018-09-15T09:07:23Z</time>
      </trkpt>
      <trkpt lat="43.56108" lon="5.67006">
        <ele>619.74</ele>
        <time>2018-09-15T09:07:26Z</time>
      </trkpt>
      <trkpt lat="43.56121" lon="5.67027">
        <ele>618.88</ele>
        <time>2018-09-15T09:07:29Z</time>
      </trkpt>
      <trkpt lat="43.56138" lon="5.67039">
        <ele>616.14</ele>
        <time>2018-09-15T09:07:32Z</time>
      </trkpt>
      <trkpt lat="43.56142" lon="5.67068">
        <ele>614.36</ele>
        <time>2018-09-15T09:07:37Z</time>
      </trkpt>
      <trkpt lat="43.56131" lon="5.67087">
        <ele>615.16</ele>
        <time>2018-09-15T09:07:40Z</time>
      </trkpt>
      <trkpt lat="43.56117" lon="5.67104">
        <ele>615.07</ele>
        <time>2018-09-15T09:07:43Z</time>
      </trkpt>
      <trkpt lat="43.56105" lon="5.67129">
        <ele>615.15</ele>
        <time>2018-09-15T09:07:48Z</time>
      </trkpt>
      <trkpt lat="43.56099" lon="5.67155">
        <ele>611.94</ele>
        <time>2018-09-15T09:10:44Z</time>
      </trkpt>
      <trkpt lat="43.56093" lon="5.67179">
        <ele>613.51</ele>
        <time>2018-09-15T09:10:48Z</time>
      </trkpt>
      <trkpt lat="43.56076" lon="5.67201">
        <ele>612.41</ele>
        <time>2018-09-15T09:10:53Z</time>
      </trkpt>
      <trkpt lat="43.56065" lon="5.67221">
        <ele>611</ele>
        <time>2018-09-15T09:10:56Z</time>
      </trkpt>
      <trkpt lat="43.5606" lon="5.67246">
        <ele>611.88</ele>
        <time>2018-09-15T09:10:59Z</time>
      </trkpt>
      <trkpt lat="43.56052" lon="5.67275">
        <ele>611.71</ele>
        <time>2018-09-15T09:11:02Z</time>
      </trkpt>
      <trkpt lat="43.56051" lon="5.67304">
        <ele>610.12</ele>
        <time>2018-09-15T09:11:05Z</time>
      </trkpt>
      <trkpt lat="43.56053" lon="5.67334">
        <ele>609.31</ele>
        <time>2018-09-15T09:11:08Z</time>
      </trkpt>
      <trkpt lat="43.56052" lon="5.67364">
        <ele>607.87</ele>
        <time>2018-09-15T09:11:11Z</time>
      </trkpt>
      <trkpt lat="43.56034" lon="5.67364">
        <ele>604.86</ele>
        <time>2018-09-15T09:11:17Z</time>
      </trkpt>
      <trkpt lat="43.56019" lon="5.67341">
        <ele>604</ele>
        <time>2018-09-15T09:11:22Z</time>
      </trkpt>
      <trkpt lat="43.56008" lon="5.67319">
        <ele>603.77</ele>
        <time>2018-09-15T09:11:25Z</time>
      </trkpt>
      <trkpt lat="43.55996" lon="5.67297">
        <ele>604.93</ele>
        <time>2018-09-15T09:11:27Z</time>
      </trkpt>
      <trkpt lat="43.55977" lon="5.67288">
        <ele>601.75</ele>
        <time>2018-09-15T09:11:32Z</time>
      </trkpt>
      <trkpt lat="43.55955" lon="5.67302">
        <ele>599.67</ele>
        <time>2018-09-15T09:11:36Z</time>
      </trkpt>
      <trkpt lat="43.55941" lon="5.67323">
        <ele>598.55</ele>
        <time>2018-09-15T09:11:38Z</time>
      </trkpt>
      <trkpt lat="43.55929" lon="5.67344">
        <ele>598.34</ele>
        <time>2018-09-15T09:11:40Z</time>
      </trkpt>
      <trkpt lat="43.55911" lon="5.67359">
        <ele>599.81</ele>
        <time>2018-09-15T09:11:44Z</time>
      </trkpt>
      <trkpt lat="43.55894" lon="5.67368">
        <ele>595.84</ele>
        <time>2018-09-15T09:11:47Z</time>
      </trkpt>
      <trkpt lat="43.55883" lon="5.67391">
        <ele>592.7</ele>
        <time>2018-09-15T09:11:54Z</time>
      </trkpt>
      <trkpt lat="43.55879" lon="5.67418">
        <ele>594.04</ele>
        <time>2018-09-15T09:12:01Z</time>
      </trkpt>
      <trkpt lat="43.55872" lon="5.67443">
        <ele>594.94</ele>
        <time>2018-09-15T09:12:09Z</time>
      </trkpt>
      <trkpt lat="43.55855" lon="5.67455">
        <ele>598.42</ele>
        <time>2018-09-15T09:12:17Z</time>
      </trkpt>
      <trkpt lat="43.55838" lon="5.67465">
        <ele>601.38</ele>
        <time>2018-09-15T09:12:25Z</time>
      </trkpt>
      <trkpt lat="43.5582" lon="5.67475">
        <ele>604.74</ele>
        <time>2018-09-15T09:12:33Z</time>
      </trkpt>
      <trkpt lat="43.55801" lon="5.67483">
        <ele>603.31</ele>
        <time>2018-09-15T09:12:41Z</time>
      </trkpt>
      <trkpt lat="43.55782" lon="5.67495">
        <ele>601.07</ele>
        <time>2018-09-15T09:12:50Z</time>
      </trkpt>
      <trkpt lat="43.55782" lon="5.67521">
        <ele>598.83</ele>
        <time>2018-09-15T09:13:23Z</time>
      </trkpt>
      <trkpt lat="43.55795" lon="5.67551">
        <ele>599.75</ele>
        <time>2018-09-15T09:13:26Z</time>
      </trkpt>
      <trkpt lat="43.55804" lon="5.67583">
        <ele>598.66</ele>
        <time>2018-09-15T09:13:30Z</time>
      </trkpt>
      <trkpt lat="43.55815" lon="5.67606">
        <ele>596.93</ele>
        <time>2018-09-15T09:13:32Z</time>
      </trkpt>
      <trkpt lat="43.55829" lon="5.67623">
        <ele>593.92</ele>
        <time>2018-09-15T09:13:36Z</time>
      </trkpt>
      <trkpt lat="43.55843" lon="5.67645">
        <ele>590.36</ele>
        <time>2018-09-15T09:13:40Z</time>
      </trkpt>
      <trkpt lat="43.55857" lon="5.67663">
        <ele>589.37</ele>
        <time>2018-09-15T09:13:43Z</time>
      </trkpt>
      <trkpt lat="43.55871" lon="5.67682">
        <ele>588.86</ele>
        <time>2018-09-15T09:13:46Z</time>
      </trkpt>
      <trkpt lat="43.55886" lon="5.67701">
        <ele>591.45</ele>
        <time>2018-09-15T09:13:49Z</time>
      </trkpt>
      <trkpt lat="43.55901" lon="5.67716">
        <ele>591.33</ele>
        <time>2018-09-15T09:13:52Z</time>
      </trkpt>
      <trkpt lat="43.55917" lon="5.67735">
        <ele>591.32</ele>
        <time>2018-09-15T09:13:56Z</time>
      </trkpt>
      <trkpt lat="43.5593" lon="5.67763">
        <ele>591.57</ele>
        <time>2018-09-15T09:14:00Z</time>
      </trkpt>
      <trkpt lat="43.5594" lon="5.67792">
        <ele>591.2</ele>
        <time>2018-09-15T09:14:04Z</time>
      </trkpt>
      <trkpt lat="43.55948" lon="5.67815">
        <ele>590.34</ele>
        <time>2018-09-15T09:14:07Z</time>
      </trkpt>
      <trkpt lat="43.55952" lon="5.6784">
        <ele>591.48</ele>
        <time>2018-09-15T09:14:10Z</time>
      </trkpt>
      <trkpt lat="43.55951" lon="5.67869">
        <ele>588.05</ele>
        <time>2018-09-15T09:14:14Z</time>
      </trkpt>
      <trkpt lat="43.5595" lon="5.67899">
        <ele>588.51</ele>
        <time>2018-09-15T09:14:18Z</time>
      </trkpt>
      <trkpt lat="43.55941" lon="5.67925">
        <ele>584.52</ele>
        <time>2018-09-15T09:14:22Z</time>
      </trkpt>
      <trkpt lat="43.55927" lon="5.67946">
        <ele>580.33</ele>
        <time>2018-09-15T09:14:25Z</time>
      </trkpt>
      <trkpt lat="43.55921" lon="5.67974">
        <ele>579.6</ele>
        <time>2018-09-15T09:14:29Z</time>
      </trkpt>
      <trkpt lat="43.5592" lon="5.68003">
        <ele>577.97</ele>
        <time>2018-09-15T09:14:32Z</time>
      </trkpt>
      <trkpt lat="43.55914" lon="5.68027">
        <ele>577.83</ele>
        <time>2018-09-15T09:14:35Z</time>
      </trkpt>
      <trkpt lat="43.55908" lon="5.68052">
        <ele>577.38</ele>
        <time>2018-09-15T09:14:38Z</time>
      </trkpt>
      <trkpt lat="43.5589" lon="5.68062">
        <ele>576.23</ele>
        <time>2018-09-15T09:14:41Z</time>
      </trkpt>
      <trkpt lat="43.55874" lon="5.68078">
        <ele>574.11</ele>
        <time>2018-09-15T09:14:45Z</time>
      </trkpt>
      <trkpt lat="43.5587" lon="5.68108">
        <ele>574.66</ele>
        <time>2018-09-15T09:14:49Z</time>
      </trkpt>
      <trkpt lat="43.55874" lon="5.68134">
        <ele>574.06</ele>
        <time>2018-09-15T09:14:52Z</time>
      </trkpt>
      <trkpt lat="43.55886" lon="5.68161">
        <ele>574.29</ele>
        <time>2018-09-15T09:14:56Z</time>
      </trkpt>
      <trkpt lat="43.55905" lon="5.68172">
        <ele>573.26</ele>
        <time>2018-09-15T09:14:59Z</time>
      </trkpt>
      <trkpt lat="43.55924" lon="5.68181">
        <ele>574.47</ele>
        <time>2018-09-15T09:15:01Z</time>
      </trkpt>
      <trkpt lat="43.55945" lon="5.68181">
        <ele>572.9</ele>
        <time>2018-09-15T09:15:05Z</time>
      </trkpt>
      <trkpt lat="43.55967" lon="5.68184">
        <ele>570.99</ele>
        <time>2018-09-15T09:15:09Z</time>
      </trkpt>
      <trkpt lat="43.55986" lon="5.68186">
        <ele>572.78</ele>
        <time>2018-09-15T09:15:14Z</time>
      </trkpt>
      <trkpt lat="43.55996" lon="5.68207">
        <ele>572.53</ele>
        <time>2018-09-15T09:15:21Z</time>
      </trkpt>
      <trkpt lat="43.56002" lon="5.68234">
        <ele>572.33</ele>
        <time>2018-09-15T09:15:26Z</time>
      </trkpt>
      <trkpt lat="43.55997" lon="5.68261">
        <ele>570.79</ele>
        <time>2018-09-15T09:15:31Z</time>
      </trkpt>
      <trkpt lat="43.55989" lon="5.68288">
        <ele>571.71</ele>
        <time>2018-09-15T09:15:35Z</time>
      </trkpt>
      <trkpt lat="43.55984" lon="5.68313">
        <ele>571.8</ele>
        <time>2018-09-15T09:15:40Z</time>
      </trkpt>
      <trkpt lat="43.55971" lon="5.68338">
        <ele>570.48</ele>
        <time>2018-09-15T09:15:44Z</time>
      </trkpt>
      <trkpt lat="43.55951" lon="5.68355">
        <ele>569.79</ele>
        <time>2018-09-15T09:15:48Z</time>
      </trkpt>
      <trkpt lat="43.55938" lon="5.68375">
        <ele>570.09</ele>
        <time>2018-09-15T09:15:51Z</time>
      </trkpt>
      <trkpt lat="43.55928" lon="5.68397">
        <ele>568.8</ele>
        <time>2018-09-15T09:15:54Z</time>
      </trkpt>
      <trkpt lat="43.5591" lon="5.68415">
        <ele>566.95</ele>
        <time>2018-09-15T09:15:57Z</time>
      </trkpt>
      <trkpt lat="43.55894" lon="5.68429">
        <ele>565.47</ele>
        <time>2018-09-15T09:16:00Z</time>
      </trkpt>
      <trkpt lat="43.55883" lon="5.68454">
        <ele>563.82</ele>
        <time>2018-09-15T09:16:03Z</time>
      </trkpt>
      <trkpt lat="43.55875" lon="5.68484">
        <ele>564.15</ele>
        <time>2018-09-15T09:16:06Z</time>
      </trkpt>
      <trkpt lat="43.55874" lon="5.6851">
        <ele>564.14</ele>
        <time>2018-09-15T09:16:08Z</time>
      </trkpt>
      <trkpt lat="43.55879" lon="5.68546">
        <ele>563.77</ele>
        <time>2018-09-15T09:16:11Z</time>
      </trkpt>
      <trkpt lat="43.55895" lon="5.68573">
        <ele>565.7</ele>
        <time>2018-09-15T09:16:14Z</time>
      </trkpt>
      <trkpt lat="43.55909" lon="5.68598">
        <ele>565.41</ele>
        <time>2018-09-15T09:16:17Z</time>
      </trkpt>
      <trkpt lat="43.5593" lon="5.68613">
        <ele>564.01</ele>
        <time>2018-09-15T09:16:21Z</time>
      </trkpt>
      <trkpt lat="43.55946" lon="5.68631">
        <ele>563.16</ele>
        <time>2018-09-15T09:16:25Z</time>
      </trkpt>
      <trkpt lat="43.55963" lon="5.6865">
        <ele>563.39</ele>
        <time>2018-09-15T09:16:29Z</time>
      </trkpt>
      <trkpt lat="43.55978" lon="5.68672">
        <ele>561.02</ele>
        <time>2018-09-15T09:16:32Z</time>
      </trkpt>
      <trkpt lat="43.5599" lon="5.68692">
        <ele>561.54</ele>
        <time>2018-09-15T09:16:35Z</time>
      </trkpt>
      <trkpt lat="43.56003" lon="5.68712">
        <ele>562.22</ele>
        <time>2018-09-15T09:16:39Z</time>
      </trkpt>
      <trkpt lat="43.56012" lon="5.6874">
        <ele>561.92</ele>
        <time>2018-09-15T09:16:43Z</time>
      </trkpt>
      <trkpt lat="43.56023" lon="5.68761">
        <ele>561.81</ele>
        <time>2018-09-15T09:16:46Z</time>
      </trkpt>
      <trkpt lat="43.56037" lon="5.68778">
        <ele>560.23</ele>
        <time>2018-09-15T09:16:50Z</time>
      </trkpt>
      <trkpt lat="43.56046" lon="5.68805">
        <ele>559.92</ele>
        <time>2018-09-15T09:16:55Z</time>
      </trkpt>
      <trkpt lat="43.56039" lon="5.68834">
        <ele>561.35</ele>
        <time>2018-09-15T09:19:00Z</time>
      </trkpt>
      <trkpt lat="43.56023" lon="5.68851">
        <ele>562.46</ele>
        <time>2018-09-15T09:19:03Z</time>
      </trkpt>
      <trkpt lat="43.56004" lon="5.68855">
        <ele>562.61</ele>
        <time>2018-09-15T09:19:06Z</time>
      </trkpt>
      <trkpt lat="43.55988" lon="5.68866">
        <ele>562.24</ele>
        <time>2018-09-15T09:19:09Z</time>
      </trkpt>
      <trkpt lat="43.55969" lon="5.68882">
        <ele>560.79</ele>
        <time>2018-09-15T09:19:14Z</time>
      </trkpt>
      <trkpt lat="43.5595" lon="5.6888">
        <ele>557.75</ele>
        <time>2018-09-15T09:19:19Z</time>
      </trkpt>
      <trkpt lat="43.55925" lon="5.68877">
        <ele>555.21</ele>
        <time>2018-09-15T09:19:23Z</time>
      </trkpt>
      <trkpt lat="43.55901" lon="5.68893">
        <ele>554.23</ele>
        <time>2018-09-15T09:19:26Z</time>
      </trkpt>
      <trkpt lat="43.55914" lon="5.68913">
        <ele>552.28</ele>
        <time>2018-09-15T09:19:33Z</time>
      </trkpt>
      <trkpt lat="43.55927" lon="5.68931">
        <ele>552.02</ele>
        <time>2018-09-15T09:19:39Z</time>
      </trkpt>
      <trkpt lat="43.55937" lon="5.68954">
        <ele>553.06</ele>
        <time>2018-09-15T09:19:43Z</time>
      </trkpt>
      <trkpt lat="43.55937" lon="5.68983">
        <ele>551.25</ele>
        <time>2018-09-15T09:19:50Z</time>
      </trkpt>
      <trkpt lat="43.55942" lon="5.69016">
        <ele>551.3</ele>
        <time>2018-09-15T09:19:56Z</time>
      </trkpt>
      <trkpt lat="43.55939" lon="5.69042">
        <ele>550.95</ele>
        <time>2018-09-15T09:19:59Z</time>
      </trkpt>
      <trkpt lat="43.55939" lon="5.69069">
        <ele>549.92</ele>
        <time>2018-09-15T09:20:02Z</time>
      </trkpt>
      <trkpt lat="43.55947" lon="5.69092">
        <ele>548.82</ele>
        <time>2018-09-15T09:20:05Z</time>
      </trkpt>
      <trkpt lat="43.55954" lon="5.69117">
        <ele>547.88</ele>
        <time>2018-09-15T09:20:08Z</time>
      </trkpt>
      <trkpt lat="43.55977" lon="5.69137">
        <ele>545.11</ele>
        <time>2018-09-15T09:20:12Z</time>
      </trkpt>
      <trkpt lat="43.55986" lon="5.69162">
        <ele>544.19</ele>
        <time>2018-09-15T09:20:14Z</time>
      </trkpt>
      <trkpt lat="43.55993" lon="5.69186">
        <ele>543.62</ele>
        <time>2018-09-15T09:20:18Z</time>
      </trkpt>
      <trkpt lat="43.56007" lon="5.69207">
        <ele>542.14</ele>
        <time>2018-09-15T09:20:22Z</time>
      </trkpt>
      <trkpt lat="43.56019" lon="5.69228">
        <ele>538.94</ele>
        <time>2018-09-15T09:21:30Z</time>
      </trkpt>
      <trkpt lat="43.56027" lon="5.69251">
        <ele>536.81</ele>
        <time>2018-09-15T09:21:34Z</time>
      </trkpt>
      <trkpt lat="43.56033" lon="5.69274">
        <ele>533.41</ele>
        <time>2018-09-15T09:21:42Z</time>
      </trkpt>
      <trkpt lat="43.56047" lon="5.69294">
        <ele>532.29</ele>
        <time>2018-09-15T09:21:49Z</time>
      </trkpt>
      <trkpt lat="43.56057" lon="5.69318">
        <ele>533.73</ele>
        <time>2018-09-15T09:21:55Z</time>
      </trkpt>
      <trkpt lat="43.56047" lon="5.69342">
        <ele>535.6</ele>
        <time>2018-09-15T09:22:01Z</time>
      </trkpt>
      <trkpt lat="43.56031" lon="5.69356">
        <ele>536.29</ele>
        <time>2018-09-15T09:22:09Z</time>
      </trkpt>
      <trkpt lat="43.56016" lon="5.69376">
        <ele>535.94</ele>
        <time>2018-09-15T09:22:16Z</time>
      </trkpt>
      <trkpt lat="43.56002" lon="5.69395">
        <ele>535.22</ele>
        <time>2018-09-15T09:22:25Z</time>
      </trkpt>
      <trkpt lat="43.5599" lon="5.69417">
        <ele>538.27</ele>
        <time>2018-09-15T09:22:31Z</time>
      </trkpt>
      <trkpt lat="43.55981" lon="5.6944">
        <ele>541.36</ele>
        <time>2018-09-15T09:22:37Z</time>
      </trkpt>
      <trkpt lat="43.55972" lon="5.69466">
        <ele>541.34</ele>
        <time>2018-09-15T09:22:44Z</time>
      </trkpt>
      <trkpt lat="43.55968" lon="5.69492">
        <ele>545.32</ele>
        <time>2018-09-15T09:22:51Z</time>
      </trkpt>
      <trkpt lat="43.55968" lon="5.6952">
        <ele>541.53</ele>
        <time>2018-09-15T09:22:59Z</time>
      </trkpt>
      <trkpt lat="43.55968" lon="5.69547">
        <ele>542.44</ele>
        <time>2018-09-15T09:23:08Z</time>
      </trkpt>
      <trkpt lat="43.55969" lon="5.69573">
        <ele>544.73</ele>
        <time>2018-09-15T09:23:17Z</time>
      </trkpt>
      <trkpt lat="43.55965" lon="5.69599">
        <ele>547.82</ele>
        <time>2018-09-15T09:23:26Z</time>
      </trkpt>
      <trkpt lat="43.55964" lon="5.69626">
        <ele>547.53</ele>
        <time>2018-09-15T09:23:35Z</time>
      </trkpt>
      <trkpt lat="43.55963" lon="5.69651">
        <ele>553.7</ele>
        <time>2018-09-15T09:23:44Z</time>
      </trkpt>
      <trkpt lat="43.55966" lon="5.69676">
        <ele>557.42</ele>
        <time>2018-09-15T09:23:55Z</time>
      </trkpt>
      <trkpt lat="43.55976" lon="5.69699">
        <ele>556.98</ele>
        <time>2018-09-15T09:24:04Z</time>
      </trkpt>
      <trkpt lat="43.55979" lon="5.69724">
        <ele>558.26</ele>
        <time>2018-09-15T09:24:11Z</time>
      </trkpt>
      <trkpt lat="43.55975" lon="5.6975">
        <ele>558.2</ele>
        <time>2018-09-15T09:24:17Z</time>
      </trkpt>
      <trkpt lat="43.5597" lon="5.69776">
        <ele>562.62</ele>
        <time>2018-09-15T09:24:25Z</time>
      </trkpt>
      <trkpt lat="43.5597" lon="5.69804">
        <ele>558.23</ele>
        <time>2018-09-15T09:24:32Z</time>
      </trkpt>
      <trkpt lat="43.55972" lon="5.6983">
        <ele>557.53</ele>
        <time>2018-09-15T09:24:38Z</time>
      </trkpt>
      <trkpt lat="43.55973" lon="5.69855">
        <ele>556.66</ele>
        <time>2018-09-15T09:24:44Z</time>
      </trkpt>
      <trkpt lat="43.55977" lon="5.69884">
        <ele>553.82</ele>
        <time>2018-09-15T09:24:50Z</time>
      </trkpt>
      <trkpt lat="43.55979" lon="5.69911">
        <ele>553.51</ele>
        <time>2018-09-15T09:24:54Z</time>
      </trkpt>
      <trkpt lat="43.55975" lon="5.69936">
        <ele>551.79</ele>
        <time>2018-09-15T09:25:00Z</time>
      </trkpt>
      <trkpt lat="43.55972" lon="5.69964">
        <ele>549.27</ele>
        <time>2018-09-15T09:25:05Z</time>
      </trkpt>
      <trkpt lat="43.55971" lon="5.69991">
        <ele>550.63</ele>
        <time>2018-09-15T09:25:11Z</time>
      </trkpt>
      <trkpt lat="43.55968" lon="5.70018">
        <ele>550.6</ele>
        <time>2018-09-15T09:25:16Z</time>
      </trkpt>
      <trkpt lat="43.55962" lon="5.70043">
        <ele>551.71</ele>
        <time>2018-09-15T09:25:22Z</time>
      </trkpt>
      <trkpt lat="43.55953" lon="5.70069">
        <ele>551.83</ele>
        <time>2018-09-15T09:25:29Z</time>
      </trkpt>
      <trkpt lat="43.55943" lon="5.7009">
        <ele>553.45</ele>
        <time>2018-09-15T09:25:35Z</time>
      </trkpt>
      <trkpt lat="43.55933" lon="5.70113">
        <ele>553.45</ele>
        <time>2018-09-15T09:25:41Z</time>
      </trkpt>
      <trkpt lat="43.55922" lon="5.70134">
        <ele>552.14</ele>
        <time>2018-09-15T09:25:48Z</time>
      </trkpt>
      <trkpt lat="43.55926" lon="5.70159">
        <ele>552.99</ele>
        <time>2018-09-15T09:28:03Z</time>
      </trkpt>
      <trkpt lat="43.55917" lon="5.70181">
        <ele>556.79</ele>
        <time>2018-09-15T09:28:20Z</time>
      </trkpt>
      <trkpt lat="43.55909" lon="5.70208">
        <ele>557.03</ele>
        <time>2018-09-15T09:28:26Z</time>
      </trkpt>
      <trkpt lat="43.55898" lon="5.70229">
        <ele>553.95</ele>
        <time>2018-09-15T09:28:34Z</time>
      </trkpt>
      <trkpt lat="43.55888" lon="5.70252">
        <ele>553.1</ele>
        <time>2018-09-15T09:28:41Z</time>
      </trkpt>
      <trkpt lat="43.55878" lon="5.70276">
        <ele>554.72</ele>
        <time>2018-09-15T09:28:46Z</time>
      </trkpt>
      <trkpt lat="43.55868" lon="5.70297">
        <ele>551.94</ele>
        <time>2018-09-15T09:28:56Z</time>
      </trkpt>
      <trkpt lat="43.55866" lon="5.70324">
        <ele>551</ele>
        <time>2018-09-15T09:29:02Z</time>
      </trkpt>
      <trkpt lat="43.55855" lon="5.70348">
        <ele>548.97</ele>
        <time>2018-09-15T09:29:06Z</time>
      </trkpt>
      <trkpt lat="43.55851" lon="5.70373">
        <ele>539.65</ele>
        <time>2018-09-15T09:29:10Z</time>
      </trkpt>
      <trkpt lat="43.55847" lon="5.70398">
        <ele>532.76</ele>
        <time>2018-09-15T09:29:19Z</time>
      </trkpt>
      <trkpt lat="43.55851" lon="5.70428">
        <ele>533.28</ele>
        <time>2018-09-15T09:29:25Z</time>
      </trkpt>
      <trkpt lat="43.55868" lon="5.70441">
        <ele>532.98</ele>
        <time>2018-09-15T09:29:31Z</time>
      </trkpt>
      <trkpt lat="43.55887" lon="5.70451">
        <ele>532.77</ele>
        <time>2018-09-15T09:29:38Z</time>
      </trkpt>
      <trkpt lat="43.55879" lon="5.70474">
        <ele>526.91</ele>
        <time>2018-09-15T09:29:46Z</time>
      </trkpt>
      <trkpt lat="43.55872" lon="5.705">
        <ele>527.31</ele>
        <time>2018-09-15T09:29:51Z</time>
      </trkpt>
      <trkpt lat="43.5586" lon="5.70521">
        <ele>528.25</ele>
        <time>2018-09-15T09:29:57Z</time>
      </trkpt>
      <trkpt lat="43.55845" lon="5.7054">
        <ele>528.04</ele>
        <time>2018-09-15T09:30:02Z</time>
      </trkpt>
      <trkpt lat="43.55828" lon="5.70556">
        <ele>529.24</ele>
        <time>2018-09-15T09:30:03Z</time>
      </trkpt>
      <trkpt lat="43.55811" lon="5.7057">
        <ele>526.31</ele>
        <time>2018-09-15T09:30:08Z</time>
      </trkpt>
      <trkpt lat="43.55792" lon="5.70582">
        <ele>525</ele>
        <time>2018-09-15T09:30:12Z</time>
      </trkpt>
      <trkpt lat="43.55774" lon="5.70603">
        <ele>523.23</ele>
        <time>2018-09-15T09:30:16Z</time>
      </trkpt>
      <trkpt lat="43.55753" lon="5.70599">
        <ele>520.21</ele>
        <time>2018-09-15T09:30:21Z</time>
      </trkpt>
      <trkpt lat="43.55733" lon="5.70586">
        <ele>521.32</ele>
        <time>2018-09-15T09:30:25Z</time>
      </trkpt>
      <trkpt lat="43.55715" lon="5.70602">
        <ele>517.7</ele>
        <time>2018-09-15T09:30:28Z</time>
      </trkpt>
      <trkpt lat="43.55699" lon="5.70613">
        <ele>514.96</ele>
        <time>2018-09-15T09:30:31Z</time>
      </trkpt>
      <trkpt lat="43.55683" lon="5.70627">
        <ele>514.39</ele>
        <time>2018-09-15T09:30:35Z</time>
      </trkpt>
      <trkpt lat="43.55668" lon="5.70643">
        <ele>514.7</ele>
        <time>2018-09-15T09:30:38Z</time>
      </trkpt>
      <trkpt lat="43.55657" lon="5.70664">
        <ele>508.12</ele>
        <time>2018-09-15T09:30:42Z</time>
      </trkpt>
      <trkpt lat="43.5564" lon="5.70673">
        <ele>500.24</ele>
        <time>2018-09-15T09:30:47Z</time>
      </trkpt>
      <trkpt lat="43.5563" lon="5.7065">
        <ele>497.08</ele>
        <time>2018-09-15T09:31:47Z</time>
      </trkpt>
      <trkpt lat="43.55629" lon="5.70625">
        <ele>499.29</ele>
        <time>2018-09-15T09:31:52Z</time>
      </trkpt>
      <trkpt lat="43.55625" lon="5.70598">
        <ele>501.21</ele>
        <time>2018-09-15T09:32:01Z</time>
      </trkpt>
      <trkpt lat="43.55616" lon="5.70575">
        <ele>501.23</ele>
        <time>2018-09-15T09:32:08Z</time>
      </trkpt>
      <trkpt lat="43.55598" lon="5.70572">
        <ele>500.5</ele>
        <time>2018-09-15T09:32:19Z</time>
      </trkpt>
      <trkpt lat="43.5558" lon="5.70585">
        <ele>500.92</ele>
        <time>2018-09-15T09:32:27Z</time>
      </trkpt>
      <trkpt lat="43.55562" lon="5.70595">
        <ele>503.23</ele>
        <time>2018-09-15T09:32:34Z</time>
      </trkpt>
      <trkpt lat="43.55543" lon="5.70602">
        <ele>504.17</ele>
        <time>2018-09-15T09:32:41Z</time>
      </trkpt>
      <trkpt lat="43.55526" lon="5.70609">
        <ele>502.1</ele>
        <time>2018-09-15T09:32:46Z</time>
      </trkpt>
      <trkpt lat="43.55505" lon="5.70617">
        <ele>501.68</ele>
        <time>2018-09-15T09:32:51Z</time>
      </trkpt>
      <trkpt lat="43.55485" lon="5.70624">
        <ele>499.97</ele>
        <time>2018-09-15T09:32:55Z</time>
      </trkpt>
      <trkpt lat="43.55468" lon="5.70635">
        <ele>499.3</ele>
        <time>2018-09-15T09:32:59Z</time>
      </trkpt>
      <trkpt lat="43.55449" lon="5.70646">
        <ele>499.04</ele>
        <time>2018-09-15T09:33:03Z</time>
      </trkpt>
      <trkpt lat="43.55428" lon="5.70652">
        <ele>499.35</ele>
        <time>2018-09-15T09:33:09Z</time>
      </trkpt>
      <trkpt lat="43.55408" lon="5.70661">
        <ele>498.25</ele>
        <time>2018-09-15T09:33:14Z</time>
      </trkpt>
      <trkpt lat="43.55388" lon="5.70665">
        <ele>499.01</ele>
        <time>2018-09-15T09:33:18Z</time>
      </trkpt>
      <trkpt lat="43.55366" lon="5.70668">
        <ele>499.16</ele>
        <time>2018-09-15T09:33:24Z</time>
      </trkpt>
      <trkpt lat="43.55348" lon="5.7067">
        <ele>499.67</ele>
        <time>2018-09-15T09:33:28Z</time>
      </trkpt>
      <trkpt lat="43.5533" lon="5.7067">
        <ele>497.77</ele>
        <time>2018-09-15T09:33:32Z</time>
      </trkpt>
      <trkpt lat="43.55312" lon="5.70667">
        <ele>499.05</ele>
        <time>2018-09-15T09:33:36Z</time>
      </trkpt>
      <trkpt lat="43.5529" lon="5.70665">
        <ele>499.25</ele>
        <time>2018-09-15T09:33:41Z</time>
      </trkpt>
      <trkpt lat="43.55269" lon="5.70662">
        <ele>498.83</ele>
        <time>2018-09-15T09:33:46Z</time>
      </trkpt>
      <trkpt lat="43.55247" lon="5.70659">
        <ele>498.47</ele>
        <time>2018-09-15T09:33:51Z</time>
      </trkpt>
      <trkpt lat="43.55225" lon="5.70656">
        <ele>498.03</ele>
        <time>2018-09-15T09:33:56Z</time>
      </trkpt>
      <trkpt lat="43.55206" lon="5.70652">
        <ele>498.29</ele>
        <time>2018-09-15T09:34:01Z</time>
      </trkpt>
      <trkpt lat="43.55186" lon="5.70647">
        <ele>498.39</ele>
        <time>2018-09-15T09:34:06Z</time>
      </trkpt>
      <trkpt lat="43.55166" lon="5.70647">
        <ele>499.14</ele>
        <time>2018-09-15T09:34:09Z</time>
      </trkpt>
      <trkpt lat="43.55147" lon="5.70639">
        <ele>498.52</ele>
        <time>2018-09-15T09:34:15Z</time>
      </trkpt>
      <trkpt lat="43.55126" lon="5.70637">
        <ele>501.22</ele>
        <time>2018-09-15T09:34:20Z</time>
      </trkpt>
      <trkpt lat="43.55108" lon="5.70633">
        <ele>501.62</ele>
        <time>2018-09-15T09:34:24Z</time>
      </trkpt>
      <trkpt lat="43.5509" lon="5.7063">
        <ele>499.16</ele>
        <time>2018-09-15T09:34:30Z</time>
      </trkpt>
      <trkpt lat="43.55072" lon="5.70622">
        <ele>499.19</ele>
        <time>2018-09-15T09:34:36Z</time>
      </trkpt>
      <trkpt lat="43.55053" lon="5.70619">
        <ele>499.54</ele>
        <time>2018-09-15T09:34:44Z</time>
      </trkpt>
      <trkpt lat="43.55037" lon="5.70609">
        <ele>498.79</ele>
        <time>2018-09-15T09:34:48Z</time>
      </trkpt>
      <trkpt lat="43.55019" lon="5.70606">
        <ele>499.07</ele>
        <time>2018-09-15T09:34:54Z</time>
      </trkpt>
      <trkpt lat="43.54999" lon="5.70602">
        <ele>500.2</ele>
        <time>2018-09-15T09:35:00Z</time>
      </trkpt>
      <trkpt lat="43.54981" lon="5.70599">
        <ele>497.55</ele>
        <time>2018-09-15T09:35:05Z</time>
      </trkpt>
      <trkpt lat="43.54959" lon="5.70597">
        <ele>495.37</ele>
        <time>2018-09-15T09:35:10Z</time>
      </trkpt>
      <trkpt lat="43.54936" lon="5.70602">
        <ele>492.8</ele>
        <time>2018-09-15T09:35:14Z</time>
      </trkpt>
      <trkpt lat="43.54915" lon="5.70605">
        <ele>494.33</ele>
        <time>2018-09-15T09:35:20Z</time>
      </trkpt>
      <trkpt lat="43.54892" lon="5.70602">
        <ele>496.28</ele>
        <time>2018-09-15T09:35:25Z</time>
      </trkpt>
      <trkpt lat="43.54871" lon="5.70602">
        <ele>496.21</ele>
        <time>2018-09-15T09:35:29Z</time>
      </trkpt>
      <trkpt lat="43.54851" lon="5.70604">
        <ele>493.31</ele>
        <time>2018-09-15T09:35:33Z</time>
      </trkpt>
      <trkpt lat="43.54832" lon="5.70604">
        <ele>494.83</ele>
        <time>2018-09-15T09:35:37Z</time>
      </trkpt>
      <trkpt lat="43.5481" lon="5.70602">
        <ele>494.8</ele>
        <time>2018-09-15T09:35:42Z</time>
      </trkpt>
      <trkpt lat="43.54791" lon="5.70601">
        <ele>496.53</ele>
        <time>2018-09-15T09:35:46Z</time>
      </trkpt>
      <trkpt lat="43.54774" lon="5.70592">
        <ele>495.24</ele>
        <time>2018-09-15T09:35:51Z</time>
      </trkpt>
      <trkpt lat="43.54753" lon="5.7059">
        <ele>494.42</ele>
        <time>2018-09-15T09:35:56Z</time>
      </trkpt>
      <trkpt lat="43.54734" lon="5.70586">
        <ele>491.89</ele>
        <time>2018-09-15T09:36:01Z</time>
      </trkpt>
      <trkpt lat="43.54714" lon="5.70579">
        <ele>491.55</ele>
        <time>2018-09-15T09:36:06Z</time>
      </trkpt>
      <trkpt lat="43.54694" lon="5.70576">
        <ele>491.41</ele>
        <time>2018-09-15T09:36:11Z</time>
      </trkpt>
      <trkpt lat="43.54676" lon="5.70563">
        <ele>491.93</ele>
        <time>2018-09-15T09:36:15Z</time>
      </trkpt>
      <trkpt lat="43.54658" lon="5.70561">
        <ele>492.18</ele>
        <time>2018-09-15T09:36:21Z</time>
      </trkpt>
      <trkpt lat="43.5464" lon="5.70569">
        <ele>490.95</ele>
        <time>2018-09-15T09:36:27Z</time>
      </trkpt>
      <trkpt lat="43.54629" lon="5.70591">
        <ele>488.82</ele>
        <time>2018-09-15T09:36:32Z</time>
      </trkpt>
      <trkpt lat="43.54614" lon="5.70609">
        <ele>487.8</ele>
        <time>2018-09-15T09:36:36Z</time>
      </trkpt>
      <trkpt lat="43.54599" lon="5.70627">
        <ele>488.34</ele>
        <time>2018-09-15T09:36:40Z</time>
      </trkpt>
      <trkpt lat="43.54588" lon="5.7065">
        <ele>489.28</ele>
        <time>2018-09-15T09:36:44Z</time>
      </trkpt>
      <trkpt lat="43.5457" lon="5.70665">
        <ele>487.41</ele>
        <time>2018-09-15T09:36:49Z</time>
      </trkpt>
      <trkpt lat="43.5456" lon="5.70687">
        <ele>486.6</ele>
        <time>2018-09-15T09:36:51Z</time>
      </trkpt>
      <trkpt lat="43.54551" lon="5.7071">
        <ele>486.28</ele>
        <time>2018-09-15T09:36:55Z</time>
      </trkpt>
      <trkpt lat="43.54538" lon="5.70727">
        <ele>486.63</ele>
        <time>2018-09-15T09:36:58Z</time>
      </trkpt>
      <trkpt lat="43.54526" lon="5.70749">
        <ele>486.51</ele>
        <time>2018-09-15T09:37:00Z</time>
      </trkpt>
      <trkpt lat="43.5451" lon="5.70779">
        <ele>485.97</ele>
        <time>2018-09-15T09:37:04Z</time>
      </trkpt>
      <trkpt lat="43.54491" lon="5.70792">
        <ele>485.66</ele>
        <time>2018-09-15T09:37:07Z</time>
      </trkpt>
      <trkpt lat="43.5448" lon="5.70817">
        <ele>486.33</ele>
        <time>2018-09-15T09:37:10Z</time>
      </trkpt>
      <trkpt lat="43.54468" lon="5.70838">
        <ele>486.69</ele>
        <time>2018-09-15T09:37:13Z</time>
      </trkpt>
      <trkpt lat="43.54455" lon="5.70863">
        <ele>486.86</ele>
        <time>2018-09-15T09:37:16Z</time>
      </trkpt>
      <trkpt lat="43.54445" lon="5.70884">
        <ele>488.39</ele>
        <time>2018-09-15T09:37:18Z</time>
      </trkpt>
      <trkpt lat="43.54434" lon="5.70907">
        <ele>490.12</ele>
        <time>2018-09-15T09:37:22Z</time>
      </trkpt>
      <trkpt lat="43.54423" lon="5.70933">
        <ele>488.55</ele>
        <time>2018-09-15T09:37:27Z</time>
      </trkpt>
      <trkpt lat="43.54409" lon="5.70953">
        <ele>487.88</ele>
        <time>2018-09-15T09:37:31Z</time>
      </trkpt>
      <trkpt lat="43.54398" lon="5.70973">
        <ele>489.42</ele>
        <time>2018-09-15T09:37:34Z</time>
      </trkpt>
      <trkpt lat="43.5438" lon="5.70993">
        <ele>488.24</ele>
        <time>2018-09-15T09:37:38Z</time>
      </trkpt>
      <trkpt lat="43.54366" lon="5.71013">
        <ele>486.18</ele>
        <time>2018-09-15T09:37:42Z</time>
      </trkpt>
      <trkpt lat="43.54352" lon="5.71037">
        <ele>485.9</ele>
        <time>2018-09-15T09:37:46Z</time>
      </trkpt>
      <trkpt lat="43.5434" lon="5.7106">
        <ele>481.59</ele>
        <time>2018-09-15T09:37:49Z</time>
      </trkpt>
      <trkpt lat="43.54328" lon="5.71077">
        <ele>481.24</ele>
        <time>2018-09-15T09:37:52Z</time>
      </trkpt>
      <trkpt lat="43.54313" lon="5.71098">
        <ele>480.13</ele>
        <time>2018-09-15T09:37:56Z</time>
      </trkpt>
      <trkpt lat="43.543" lon="5.7112">
        <ele>479.84</ele>
        <time>2018-09-15T09:38:00Z</time>
      </trkpt>
      <trkpt lat="43.54285" lon="5.7114">
        <ele>479.66</ele>
        <time>2018-09-15T09:38:08Z</time>
      </trkpt>
      <trkpt lat="43.54273" lon="5.71159">
        <ele>479.11</ele>
        <time>2018-09-15T09:38:16Z</time>
      </trkpt>
      <trkpt lat="43.54263" lon="5.71182">
        <ele>478.51</ele>
        <time>2018-09-15T09:38:21Z</time>
      </trkpt>
      <trkpt lat="43.54248" lon="5.712">
        <ele>479.5</ele>
        <time>2018-09-15T09:38:26Z</time>
      </trkpt>
      <trkpt lat="43.54236" lon="5.7122">
        <ele>479.72</ele>
        <time>2018-09-15T09:38:35Z</time>
      </trkpt>
      <trkpt lat="43.5422" lon="5.71237">
        <ele>481.59</ele>
        <time>2018-09-15T09:38:44Z</time>
      </trkpt>
      <trkpt lat="43.5421" lon="5.71261">
        <ele>481.93</ele>
        <time>2018-09-15T09:38:52Z</time>
      </trkpt>
      <trkpt lat="43.54199" lon="5.71285">
        <ele>482.69</ele>
        <time>2018-09-15T09:39:00Z</time>
      </trkpt>
      <trkpt lat="43.54188" lon="5.71309">
        <ele>479.03</ele>
        <time>2018-09-15T09:39:07Z</time>
      </trkpt>
      <trkpt lat="43.54172" lon="5.71327">
        <ele>483.83</ele>
        <time>2018-09-15T09:39:14Z</time>
      </trkpt>
      <trkpt lat="43.54158" lon="5.71345">
        <ele>483.92</ele>
        <time>2018-09-15T09:39:19Z</time>
      </trkpt>
      <trkpt lat="43.54143" lon="5.71361">
        <ele>486.94</ele>
        <time>2018-09-15T09:39:25Z</time>
      </trkpt>
      <trkpt lat="43.5413" lon="5.71383">
        <ele>494.07</ele>
        <time>2018-09-15T09:39:37Z</time>
      </trkpt>
      <trkpt lat="43.54115" lon="5.71399">
        <ele>496.44</ele>
        <time>2018-09-15T09:39:45Z</time>
      </trkpt>
      <trkpt lat="43.54101" lon="5.71416">
        <ele>501.88</ele>
        <time>2018-09-15T09:39:50Z</time>
      </trkpt>
      <trkpt lat="43.54084" lon="5.7143">
        <ele>504.35</ele>
        <time>2018-09-15T09:39:56Z</time>
      </trkpt>
      <trkpt lat="43.54072" lon="5.71449">
        <ele>503.89</ele>
        <time>2018-09-15T09:40:03Z</time>
      </trkpt>
      <trkpt lat="43.54057" lon="5.71465">
        <ele>504.77</ele>
        <time>2018-09-15T09:40:09Z</time>
      </trkpt>
      <trkpt lat="43.54042" lon="5.71479">
        <ele>505.9</ele>
        <time>2018-09-15T09:40:12Z</time>
      </trkpt>
      <trkpt lat="43.5403" lon="5.71497">
        <ele>508.4</ele>
        <time>2018-09-15T09:40:18Z</time>
      </trkpt>
      <trkpt lat="43.5401" lon="5.71517">
        <ele>506.76</ele>
        <time>2018-09-15T09:40:26Z</time>
      </trkpt>
      <trkpt lat="43.53993" lon="5.71533">
        <ele>504.48</ele>
        <time>2018-09-15T09:40:30Z</time>
      </trkpt>
      <trkpt lat="43.53974" lon="5.7154">
        <ele>504.4</ele>
        <time>2018-09-15T09:40:34Z</time>
      </trkpt>
      <trkpt lat="43.53956" lon="5.71548">
        <ele>507.26</ele>
        <time>2018-09-15T09:40:41Z</time>
      </trkpt>
      <trkpt lat="43.53937" lon="5.71548">
        <ele>506.31</ele>
        <time>2018-09-15T09:47:28Z</time>
      </trkpt>
      <trkpt lat="43.53918" lon="5.71538">
        <ele>508.35</ele>
        <time>2018-09-15T09:47:48Z</time>
      </trkpt>
      <trkpt lat="43.53898" lon="5.71541">
        <ele>508.56</ele>
        <time>2018-09-15T09:47:53Z</time>
      </trkpt>
      <trkpt lat="43.5388" lon="5.71533">
        <ele>504.83</ele>
        <time>2018-09-15T09:48:02Z</time>
      </trkpt>
      <trkpt lat="43.53863" lon="5.71521">
        <ele>503.87</ele>
        <time>2018-09-15T09:48:09Z</time>
      </trkpt>
      <trkpt lat="43.53846" lon="5.71511">
        <ele>501.29</ele>
        <time>2018-09-15T09:48:17Z</time>
      </trkpt>
      <trkpt lat="43.53831" lon="5.71496">
        <ele>497.37</ele>
        <time>2018-09-15T09:48:23Z</time>
      </trkpt>
      <trkpt lat="43.53814" lon="5.71485">
        <ele>496.67</ele>
        <time>2018-09-15T09:48:31Z</time>
      </trkpt>
      <trkpt lat="43.53797" lon="5.71474">
        <ele>494.46</ele>
        <time>2018-09-15T09:48:38Z</time>
      </trkpt>
      <trkpt lat="43.53777" lon="5.71467">
        <ele>492.96</ele>
        <time>2018-09-15T09:48:44Z</time>
      </trkpt>
      <trkpt lat="43.53764" lon="5.71448">
        <ele>492.33</ele>
        <time>2018-09-15T09:48:51Z</time>
      </trkpt>
      <trkpt lat="43.53748" lon="5.71432">
        <ele>490.26</ele>
        <time>2018-09-15T09:48:57Z</time>
      </trkpt>
      <trkpt lat="43.53733" lon="5.71415">
        <ele>489.65</ele>
        <time>2018-09-15T09:49:01Z</time>
      </trkpt>
      <trkpt lat="43.53714" lon="5.71397">
        <ele>490.7</ele>
        <time>2018-09-15T09:49:07Z</time>
      </trkpt>
      <trkpt lat="43.53703" lon="5.71375">
        <ele>488.86</ele>
        <time>2018-09-15T09:49:11Z</time>
      </trkpt>
      <trkpt lat="43.53693" lon="5.71355">
        <ele>487.95</ele>
        <time>2018-09-15T09:49:15Z</time>
      </trkpt>
      <trkpt lat="43.5368" lon="5.71332">
        <ele>484.91</ele>
        <time>2018-09-15T09:49:20Z</time>
      </trkpt>
      <trkpt lat="43.53669" lon="5.71308">
        <ele>483</ele>
        <time>2018-09-15T09:49:25Z</time>
      </trkpt>
      <trkpt lat="43.53659" lon="5.71283">
        <ele>482.44</ele>
        <time>2018-09-15T09:49:29Z</time>
      </trkpt>
      <trkpt lat="43.53644" lon="5.71263">
        <ele>482.92</ele>
        <time>2018-09-15T09:49:34Z</time>
      </trkpt>
      <trkpt lat="43.53631" lon="5.71244">
        <ele>482.5</ele>
        <time>2018-09-15T09:49:37Z</time>
      </trkpt>
      <trkpt lat="43.53617" lon="5.71223">
        <ele>483.1</ele>
        <time>2018-09-15T09:49:41Z</time>
      </trkpt>
      <trkpt lat="43.53599" lon="5.71204">
        <ele>483.79</ele>
        <time>2018-09-15T09:49:45Z</time>
      </trkpt>
      <trkpt lat="43.53587" lon="5.71182">
        <ele>480.97</ele>
        <time>2018-09-15T09:49:50Z</time>
      </trkpt>
      <trkpt lat="43.5357" lon="5.71162">
        <ele>480.6</ele>
        <time>2018-09-15T09:49:54Z</time>
      </trkpt>
      <trkpt lat="43.53562" lon="5.71135">
        <ele>479.22</ele>
        <time>2018-09-15T09:49:59Z</time>
      </trkpt>
      <trkpt lat="43.53548" lon="5.71117">
        <ele>478.25</ele>
        <time>2018-09-15T09:50:02Z</time>
      </trkpt>
      <trkpt lat="43.53538" lon="5.71094">
        <ele>475.37</ele>
        <time>2018-09-15T09:50:05Z</time>
      </trkpt>
      <trkpt lat="43.53535" lon="5.71066">
        <ele>475.79</ele>
        <time>2018-09-15T09:50:10Z</time>
      </trkpt>
      <trkpt lat="43.53526" lon="5.7104">
        <ele>475.05</ele>
        <time>2018-09-15T09:50:15Z</time>
      </trkpt>
      <trkpt lat="43.53516" lon="5.71017">
        <ele>472.13</ele>
        <time>2018-09-15T09:50:20Z</time>
      </trkpt>
      <trkpt lat="43.53506" lon="5.70992">
        <ele>472.74</ele>
        <time>2018-09-15T09:50:24Z</time>
      </trkpt>
      <trkpt lat="43.53496" lon="5.70964">
        <ele>473.59</ele>
        <time>2018-09-15T09:50:29Z</time>
      </trkpt>
      <trkpt lat="43.53486" lon="5.70939">
        <ele>472.47</ele>
        <time>2018-09-15T09:50:33Z</time>
      </trkpt>
      <trkpt lat="43.53477" lon="5.70913">
        <ele>473.24</ele>
        <time>2018-09-15T09:50:37Z</time>
      </trkpt>
      <trkpt lat="43.5347" lon="5.70888">
        <ele>475.09</ele>
        <time>2018-09-15T09:50:41Z</time>
      </trkpt>
      <trkpt lat="43.5346" lon="5.7086">
        <ele>473.68</ele>
        <time>2018-09-15T09:50:46Z</time>
      </trkpt>
      <trkpt lat="43.53452" lon="5.70836">
        <ele>473.5</ele>
        <time>2018-09-15T09:50:50Z</time>
      </trkpt>
      <trkpt lat="43.53442" lon="5.70812">
        <ele>473.82</ele>
        <time>2018-09-15T09:50:54Z</time>
      </trkpt>
      <trkpt lat="43.53432" lon="5.70787">
        <ele>474.26</ele>
        <time>2018-09-15T09:50:58Z</time>
      </trkpt>
      <trkpt lat="43.53423" lon="5.7076">
        <ele>472.7</ele>
        <time>2018-09-15T09:51:02Z</time>
      </trkpt>
      <trkpt lat="43.53413" lon="5.70735">
        <ele>473.75</ele>
        <time>2018-09-15T09:51:06Z</time>
      </trkpt>
      <trkpt lat="43.53402" lon="5.7071">
        <ele>474.08</ele>
        <time>2018-09-15T09:51:10Z</time>
      </trkpt>
      <trkpt lat="43.53394" lon="5.70686">
        <ele>474.34</ele>
        <time>2018-09-15T09:51:14Z</time>
      </trkpt>
      <trkpt lat="43.53382" lon="5.70664">
        <ele>474.99</ele>
        <time>2018-09-15T09:51:18Z</time>
      </trkpt>
      <trkpt lat="43.53371" lon="5.7064">
        <ele>476.6</ele>
        <time>2018-09-15T09:51:24Z</time>
      </trkpt>
      <trkpt lat="43.5336" lon="5.70617">
        <ele>476.54</ele>
        <time>2018-09-15T09:51:29Z</time>
      </trkpt>
      <trkpt lat="43.53351" lon="5.70594">
        <ele>475.13</ele>
        <time>2018-09-15T09:51:33Z</time>
      </trkpt>
      <trkpt lat="43.53338" lon="5.7057">
        <ele>474.71</ele>
        <time>2018-09-15T09:51:38Z</time>
      </trkpt>
      <trkpt lat="43.53326" lon="5.70543">
        <ele>473.11</ele>
        <time>2018-09-15T09:51:42Z</time>
      </trkpt>
      <trkpt lat="43.53316" lon="5.70517">
        <ele>473.89</ele>
        <time>2018-09-15T09:51:46Z</time>
      </trkpt>
      <trkpt lat="43.53307" lon="5.70493">
        <ele>476.1</ele>
        <time>2018-09-15T09:51:50Z</time>
      </trkpt>
      <trkpt lat="43.53296" lon="5.7047">
        <ele>474.61</ele>
        <time>2018-09-15T09:51:54Z</time>
      </trkpt>
      <trkpt lat="43.53288" lon="5.70441">
        <ele>474.53</ele>
        <time>2018-09-15T09:51:59Z</time>
      </trkpt>
      <trkpt lat="43.5328" lon="5.70412">
        <ele>473.98</ele>
        <time>2018-09-15T09:52:04Z</time>
      </trkpt>
      <trkpt lat="43.53274" lon="5.70388">
        <ele>472.72</ele>
        <time>2018-09-15T09:52:09Z</time>
      </trkpt>
      <trkpt lat="43.5327" lon="5.70363">
        <ele>471.98</ele>
        <time>2018-09-15T09:52:13Z</time>
      </trkpt>
      <trkpt lat="43.5327" lon="5.70334">
        <ele>471.01</ele>
        <time>2018-09-15T09:52:17Z</time>
      </trkpt>
      <trkpt lat="43.53266" lon="5.70308">
        <ele>471.01</ele>
        <time>2018-09-15T09:52:21Z</time>
      </trkpt>
      <trkpt lat="43.53264" lon="5.70283">
        <ele>468.55</ele>
        <time>2018-09-15T09:54:45Z</time>
      </trkpt>
      <trkpt lat="43.53261" lon="5.70255">
        <ele>468.4</ele>
        <time>2018-09-15T09:54:53Z</time>
      </trkpt>
      <trkpt lat="43.53244" lon="5.70242">
        <ele>468.19</ele>
        <time>2018-09-15T09:54:59Z</time>
      </trkpt>
      <trkpt lat="43.53229" lon="5.70228">
        <ele>467.49</ele>
        <time>2018-09-15T09:55:03Z</time>
      </trkpt>
      <trkpt lat="43.5322" lon="5.70203">
        <ele>466.46</ele>
        <time>2018-09-15T09:55:07Z</time>
      </trkpt>
      <trkpt lat="43.53216" lon="5.70174">
        <ele>465.95</ele>
        <time>2018-09-15T09:55:11Z</time>
      </trkpt>
      <trkpt lat="43.53212" lon="5.70148">
        <ele>464.56</ele>
        <time>2018-09-15T09:55:14Z</time>
      </trkpt>
      <trkpt lat="43.53206" lon="5.70122">
        <ele>462.97</ele>
        <time>2018-09-15T09:55:17Z</time>
      </trkpt>
      <trkpt lat="43.53201" lon="5.70096">
        <ele>460.61</ele>
        <time>2018-09-15T09:55:20Z</time>
      </trkpt>
      <trkpt lat="43.53201" lon="5.70066">
        <ele>459.5</ele>
        <time>2018-09-15T09:55:23Z</time>
      </trkpt>
      <trkpt lat="43.53198" lon="5.70031">
        <ele>458.2</ele>
        <time>2018-09-15T09:55:26Z</time>
      </trkpt>
      <trkpt lat="43.53195" lon="5.70007">
        <ele>457.59</ele>
        <time>2018-09-15T09:55:29Z</time>
      </trkpt>
      <trkpt lat="43.53206" lon="5.69983">
        <ele>454.1</ele>
        <time>2018-09-15T09:55:33Z</time>
      </trkpt>
      <trkpt lat="43.5322" lon="5.69953">
        <ele>452.46</ele>
        <time>2018-09-15T09:55:37Z</time>
      </trkpt>
      <trkpt lat="43.53218" lon="5.69921">
        <ele>452.09</ele>
        <time>2018-09-15T09:55:40Z</time>
      </trkpt>
      <trkpt lat="43.53196" lon="5.69916">
        <ele>449.23</ele>
        <time>2018-09-15T09:55:43Z</time>
      </trkpt>
      <trkpt lat="43.5318" lon="5.69901">
        <ele>448.56</ele>
        <time>2018-09-15T09:55:47Z</time>
      </trkpt>
      <trkpt lat="43.53165" lon="5.69884">
        <ele>446.97</ele>
        <time>2018-09-15T09:55:50Z</time>
      </trkpt>
      <trkpt lat="43.53151" lon="5.69863">
        <ele>443.82</ele>
        <time>2018-09-15T09:55:52Z</time>
      </trkpt>
      <trkpt lat="43.53141" lon="5.69837">
        <ele>442.97</ele>
        <time>2018-09-15T09:55:56Z</time>
      </trkpt>
      <trkpt lat="43.5314" lon="5.6981">
        <ele>442.44</ele>
        <time>2018-09-15T09:55:59Z</time>
      </trkpt>
      <trkpt lat="43.53149" lon="5.69788">
        <ele>441.92</ele>
        <time>2018-09-15T09:56:02Z</time>
      </trkpt>
      <trkpt lat="43.53161" lon="5.69769">
        <ele>438.75</ele>
        <time>2018-09-15T09:56:04Z</time>
      </trkpt>
      <trkpt lat="43.53154" lon="5.69743">
        <ele>436.52</ele>
        <time>2018-09-15T09:56:10Z</time>
      </trkpt>
      <trkpt lat="43.53134" lon="5.69735">
        <ele>432.87</ele>
        <time>2018-09-15T09:56:14Z</time>
      </trkpt>
      <trkpt lat="43.53116" lon="5.69729">
        <ele>430.5</ele>
        <time>2018-09-15T09:56:16Z</time>
      </trkpt>
      <trkpt lat="43.53099" lon="5.69717">
        <ele>430.9</ele>
        <time>2018-09-15T09:56:20Z</time>
      </trkpt>
      <trkpt lat="43.53084" lon="5.69697">
        <ele>431.25</ele>
        <time>2018-09-15T09:56:24Z</time>
      </trkpt>
      <trkpt lat="43.5308" lon="5.69669">
        <ele>430.83</ele>
        <time>2018-09-15T09:56:27Z</time>
      </trkpt>
      <trkpt lat="43.53074" lon="5.69638">
        <ele>428.89</ele>
        <time>2018-09-15T09:56:30Z</time>
      </trkpt>
      <trkpt lat="43.53069" lon="5.69607">
        <ele>427.84</ele>
        <time>2018-09-15T09:56:33Z</time>
      </trkpt>
      <trkpt lat="43.53067" lon="5.69578">
        <ele>427.57</ele>
        <time>2018-09-15T09:56:36Z</time>
      </trkpt>
      <trkpt lat="43.53059" lon="5.69553">
        <ele>427.76</ele>
        <time>2018-09-15T09:56:39Z</time>
      </trkpt>
      <trkpt lat="43.53055" lon="5.69523">
        <ele>426.42</ele>
        <time>2018-09-15T09:56:42Z</time>
      </trkpt>
      <trkpt lat="43.53052" lon="5.69495">
        <ele>425.31</ele>
        <time>2018-09-15T09:56:45Z</time>
      </trkpt>
      <trkpt lat="43.53051" lon="5.69464">
        <ele>424.79</ele>
        <time>2018-09-15T09:56:48Z</time>
      </trkpt>
      <trkpt lat="43.53045" lon="5.69438">
        <ele>424.9</ele>
        <time>2018-09-15T09:56:51Z</time>
      </trkpt>
      <trkpt lat="43.53024" lon="5.69435">
        <ele>418.8</ele>
        <time>2018-09-15T09:56:56Z</time>
      </trkpt>
      <trkpt lat="43.53006" lon="5.6945">
        <ele>415.25</ele>
        <time>2018-09-15T09:56:59Z</time>
      </trkpt>
      <trkpt lat="43.52986" lon="5.69462">
        <ele>410.84</ele>
        <time>2018-09-15T09:57:03Z</time>
      </trkpt>
      <trkpt lat="43.52968" lon="5.69475">
        <ele>408.2</ele>
        <time>2018-09-15T09:57:06Z</time>
      </trkpt>
      <trkpt lat="43.52948" lon="5.69478">
        <ele>407.45</ele>
        <time>2018-09-15T09:57:09Z</time>
      </trkpt>
      <trkpt lat="43.52928" lon="5.6947">
        <ele>404.35</ele>
        <time>2018-09-15T09:57:13Z</time>
      </trkpt>
      <trkpt lat="43.52913" lon="5.69456">
        <ele>400.72</ele>
        <time>2018-09-15T09:57:16Z</time>
      </trkpt>
      <trkpt lat="43.52898" lon="5.69434">
        <ele>398.44</ele>
        <time>2018-09-15T09:57:20Z</time>
      </trkpt>
      <trkpt lat="43.52892" lon="5.69409">
        <ele>396.99</ele>
        <time>2018-09-15T09:57:23Z</time>
      </trkpt>
      <trkpt lat="43.52885" lon="5.69382">
        <ele>395.85</ele>
        <time>2018-09-15T09:57:25Z</time>
      </trkpt>
      <trkpt lat="43.52885" lon="5.69349">
        <ele>394.6</ele>
        <time>2018-09-15T09:57:29Z</time>
      </trkpt>
      <trkpt lat="43.52881" lon="5.69318">
        <ele>393.21</ele>
        <time>2018-09-15T09:57:32Z</time>
      </trkpt>
      <trkpt lat="43.52879" lon="5.69289">
        <ele>393.39</ele>
        <time>2018-09-15T09:57:35Z</time>
      </trkpt>
      <trkpt lat="43.52877" lon="5.69261">
        <ele>392.92</ele>
        <time>2018-09-15T09:57:38Z</time>
      </trkpt>
      <trkpt lat="43.52863" lon="5.69244">
        <ele>390.66</ele>
        <time>2018-09-15T09:57:41Z</time>
      </trkpt>
      <trkpt lat="43.5284" lon="5.69241">
        <ele>384.79</ele>
        <time>2018-09-15T09:57:44Z</time>
      </trkpt>
      <trkpt lat="43.52816" lon="5.69244">
        <ele>380.6</ele>
        <time>2018-09-15T09:57:46Z</time>
      </trkpt>
      <trkpt lat="43.52794" lon="5.69235">
        <ele>376.98</ele>
        <time>2018-09-15T09:57:51Z</time>
      </trkpt>
      <trkpt lat="43.52784" lon="5.6921">
        <ele>376.09</ele>
        <time>2018-09-15T09:57:54Z</time>
      </trkpt>
      <trkpt lat="43.52772" lon="5.69183">
        <ele>375.99</ele>
        <time>2018-09-15T09:57:58Z</time>
      </trkpt>
      <trkpt lat="43.52763" lon="5.69154">
        <ele>375.06</ele>
        <time>2018-09-15T09:58:01Z</time>
      </trkpt>
      <trkpt lat="43.52756" lon="5.69127">
        <ele>373.6</ele>
        <time>2018-09-15T09:58:04Z</time>
      </trkpt>
      <trkpt lat="43.52744" lon="5.691">
        <ele>372.41</ele>
        <time>2018-09-15T09:58:07Z</time>
      </trkpt>
      <trkpt lat="43.52734" lon="5.69074">
        <ele>371.93</ele>
        <time>2018-09-15T09:58:10Z</time>
      </trkpt>
      <trkpt lat="43.52724" lon="5.69052">
        <ele>368.96</ele>
        <time>2018-09-15T09:58:13Z</time>
      </trkpt>
      <trkpt lat="43.52712" lon="5.6903">
        <ele>367.92</ele>
        <time>2018-09-15T09:58:17Z</time>
      </trkpt>
      <trkpt lat="43.52698" lon="5.69009">
        <ele>365.53</ele>
        <time>2018-09-15T09:58:21Z</time>
      </trkpt>
      <trkpt lat="43.52688" lon="5.68985">
        <ele>365.54</ele>
        <time>2018-09-15T09:58:24Z</time>
      </trkpt>
      <trkpt lat="43.52688" lon="5.68958">
        <ele>364.91</ele>
        <time>2018-09-15T09:58:27Z</time>
      </trkpt>
      <trkpt lat="43.52685" lon="5.68929">
        <ele>358.89</ele>
        <time>2018-09-15T09:58:30Z</time>
      </trkpt>
      <trkpt lat="43.5268" lon="5.68899">
        <ele>358.86</ele>
        <time>2018-09-15T09:58:33Z</time>
      </trkpt>
      <trkpt lat="43.52677" lon="5.6887">
        <ele>356.6</ele>
        <time>2018-09-15T09:58:36Z</time>
      </trkpt>
      <trkpt lat="43.52677" lon="5.68843">
        <ele>356.05</ele>
        <time>2018-09-15T09:58:39Z</time>
      </trkpt>
      <trkpt lat="43.52674" lon="5.68818">
        <ele>354.87</ele>
        <time>2018-09-15T09:58:42Z</time>
      </trkpt>
      <trkpt lat="43.52668" lon="5.68788">
        <ele>353.85</ele>
        <time>2018-09-15T09:58:46Z</time>
      </trkpt>
      <trkpt lat="43.52656" lon="5.68762">
        <ele>350.61</ele>
        <time>2018-09-15T09:58:50Z</time>
      </trkpt>
      <trkpt lat="43.52644" lon="5.6874">
        <ele>350.36</ele>
        <time>2018-09-15T09:58:53Z</time>
      </trkpt>
      <trkpt lat="43.52632" lon="5.68716">
        <ele>348.47</ele>
        <time>2018-09-15T09:58:59Z</time>
      </trkpt>
      <trkpt lat="43.52625" lon="5.68688">
        <ele>348.41</ele>
        <time>2018-09-15T09:59:03Z</time>
      </trkpt>
      <trkpt lat="43.52619" lon="5.68664">
        <ele>346.64</ele>
        <time>2018-09-15T09:59:09Z</time>
      </trkpt>
      <trkpt lat="43.52611" lon="5.68637">
        <ele>350.28</ele>
        <time>2018-09-15T09:59:18Z</time>
      </trkpt>
      <trkpt lat="43.52612" lon="5.6861">
        <ele>351.96</ele>
        <time>2018-09-15T09:59:24Z</time>
      </trkpt>
      <trkpt lat="43.52616" lon="5.68581">
        <ele>351.72</ele>
        <time>2018-09-15T09:59:30Z</time>
      </trkpt>
      <trkpt lat="43.52623" lon="5.68554">
        <ele>351.07</ele>
        <time>2018-09-15T09:59:36Z</time>
      </trkpt>
      <trkpt lat="43.52628" lon="5.68529">
        <ele>351.22</ele>
        <time>2018-09-15T09:59:42Z</time>
      </trkpt>
      <trkpt lat="43.52633" lon="5.68504">
        <ele>351.89</ele>
        <time>2018-09-15T09:59:48Z</time>
      </trkpt>
      <trkpt lat="43.52641" lon="5.68479">
        <ele>353.8</ele>
        <time>2018-09-15T09:59:55Z</time>
      </trkpt>
      <trkpt lat="43.52649" lon="5.68453">
        <ele>351.1</ele>
        <time>2018-09-15T10:00:01Z</time>
      </trkpt>
      <trkpt lat="43.52653" lon="5.68426">
        <ele>350.77</ele>
        <time>2018-09-15T10:00:06Z</time>
      </trkpt>
      <trkpt lat="43.52654" lon="5.68401">
        <ele>350.58</ele>
        <time>2018-09-15T10:00:11Z</time>
      </trkpt>
      <trkpt lat="43.52656" lon="5.68376">
        <ele>350.69</ele>
        <time>2018-09-15T10:00:16Z</time>
      </trkpt>
      <trkpt lat="43.52651" lon="5.6835">
        <ele>350.73</ele>
        <time>2018-09-15T10:00:20Z</time>
      </trkpt>
      <trkpt lat="43.52654" lon="5.6832">
        <ele>351.26</ele>
        <time>2018-09-15T10:00:25Z</time>
      </trkpt>
      <trkpt lat="43.52647" lon="5.68295">
        <ele>352.04</ele>
        <time>2018-09-15T10:00:29Z</time>
      </trkpt>
      <trkpt lat="43.52641" lon="5.68266">
        <ele>353.15</ele>
        <time>2018-09-15T10:00:35Z</time>
      </trkpt>
      <trkpt lat="43.52637" lon="5.68236">
        <ele>354.68</ele>
        <time>2018-09-15T10:00:39Z</time>
      </trkpt>
      <trkpt lat="43.5264" lon="5.68206">
        <ele>357</ele>
        <time>2018-09-15T10:00:43Z</time>
      </trkpt>
      <trkpt lat="43.52644" lon="5.68179">
        <ele>357.91</ele>
        <time>2018-09-15T10:00:46Z</time>
      </trkpt>
      <trkpt lat="43.52648" lon="5.68154">
        <ele>357.72</ele>
        <time>2018-09-15T10:00:50Z</time>
      </trkpt>
    </trkseg>
  </trk>
</gpx>